<?xml version="1.0" encoding="UTF-8" standalone="no" ?>
<gpx xmlns="http://www.topografix.com/GPX/1/1" xmlns:xsi="http://www.w3.org/2001/XMLSchema-instance" xsi:schemaLocation="http://www.topografix.com/GPX/1/1 http://www.topografix.com/GPX/1/1/gpx.xsd" version="1.1" creator="VisuGPX - https://www.visugpx.com">
  <metadata>
    <name>Les Malvallons par la Campagne Pastré</name>
    <desc><![CDATA[Démarrage depuis la Campagne Pastré. Au retour, au col de la Selle, prendre à gauche le sentier rouge, puis jaune, puis noir.]]></desc>
  </metadata>
  <trk>
    <name><![CDATA[Les Malvallons par la Campagne Pastré_1]]></name>
    <trkseg>
      <trkpt lat="43.23993" lon="5.36503">
        <ele>6</ele>
        <time>2015-11-08T09:59:15Z</time>
      </trkpt>
      <trkpt lat="43.23989" lon="5.36541">
        <ele>6</ele>
        <time>2015-11-08T10:00:50Z</time>
      </trkpt>
      <trkpt lat="43.23993" lon="5.36558">
        <ele>6</ele>
        <time>2015-11-08T10:00:59Z</time>
      </trkpt>
      <trkpt lat="43.23993" lon="5.36569">
        <ele>10</ele>
        <time>2015-11-08T10:01:08Z</time>
      </trkpt>
      <trkpt lat="43.23996" lon="5.36585">
        <ele>12</ele>
        <time>2015-11-08T10:01:17Z</time>
      </trkpt>
      <trkpt lat="43.23996" lon="5.366">
        <ele>13</ele>
        <time>2015-11-08T10:01:26Z</time>
      </trkpt>
      <trkpt lat="43.23994" lon="5.36614">
        <ele>13</ele>
        <time>2015-11-08T10:01:36Z</time>
      </trkpt>
      <trkpt lat="43.23992" lon="5.36632">
        <ele>14</ele>
        <time>2015-11-08T10:01:47Z</time>
      </trkpt>
      <trkpt lat="43.23987" lon="5.36645">
        <ele>20</ele>
        <time>2015-11-08T10:01:56Z</time>
      </trkpt>
      <trkpt lat="43.23983" lon="5.36655">
        <ele>20</ele>
        <time>2015-11-08T10:02:05Z</time>
      </trkpt>
      <trkpt lat="43.23982" lon="5.36663">
        <ele>19</ele>
        <time>2015-11-08T10:02:14Z</time>
      </trkpt>
      <trkpt lat="43.23986" lon="5.36673">
        <ele>15</ele>
        <time>2015-11-08T10:02:23Z</time>
      </trkpt>
      <trkpt lat="43.23994" lon="5.36687">
        <ele>12</ele>
        <time>2015-11-08T10:02:32Z</time>
      </trkpt>
      <trkpt lat="43.23998" lon="5.36687">
        <ele>12</ele>
        <time>2015-11-08T10:02:41Z</time>
      </trkpt>
      <trkpt lat="43.23993" lon="5.36693">
        <ele>12</ele>
        <time>2015-11-08T10:02:52Z</time>
      </trkpt>
      <trkpt lat="43.2399" lon="5.36695">
        <ele>12</ele>
        <time>2015-11-08T10:03:01Z</time>
      </trkpt>
      <trkpt lat="43.23987" lon="5.36699">
        <ele>11</ele>
        <time>2015-11-08T10:03:13Z</time>
      </trkpt>
      <trkpt lat="43.23991" lon="5.36695">
        <ele>11</ele>
        <time>2015-11-08T10:03:24Z</time>
      </trkpt>
      <trkpt lat="43.23993" lon="5.3669">
        <ele>11</ele>
        <time>2015-11-08T10:03:35Z</time>
      </trkpt>
      <trkpt lat="43.23989" lon="5.36696">
        <ele>11</ele>
        <time>2015-11-08T10:03:44Z</time>
      </trkpt>
      <trkpt lat="43.23987" lon="5.36704">
        <ele>10</ele>
        <time>2015-11-08T10:03:53Z</time>
      </trkpt>
      <trkpt lat="43.23987" lon="5.36709">
        <ele>10</ele>
        <time>2015-11-08T10:04:05Z</time>
      </trkpt>
      <trkpt lat="43.23987" lon="5.3671">
        <ele>10</ele>
        <time>2015-11-08T10:04:15Z</time>
      </trkpt>
      <trkpt lat="43.23989" lon="5.36711">
        <ele>19</ele>
        <time>2015-11-08T10:04:41Z</time>
      </trkpt>
      <trkpt lat="43.23983" lon="5.36716">
        <ele>19</ele>
        <time>2015-11-08T10:04:51Z</time>
      </trkpt>
      <trkpt lat="43.23979" lon="5.36714">
        <ele>16</ele>
        <time>2015-11-08T10:05:03Z</time>
      </trkpt>
      <trkpt lat="43.23986" lon="5.36713">
        <ele>17</ele>
        <time>2015-11-08T10:05:14Z</time>
      </trkpt>
      <trkpt lat="43.23987" lon="5.36711">
        <ele>19</ele>
        <time>2015-11-08T10:05:27Z</time>
      </trkpt>
      <trkpt lat="43.23982" lon="5.36713">
        <ele>19</ele>
        <time>2015-11-08T10:05:37Z</time>
      </trkpt>
      <trkpt lat="43.23975" lon="5.3672">
        <ele>18</ele>
        <time>2015-11-08T10:05:46Z</time>
      </trkpt>
      <trkpt lat="43.23969" lon="5.36726">
        <ele>18</ele>
        <time>2015-11-08T10:05:55Z</time>
      </trkpt>
      <trkpt lat="43.2396" lon="5.36735">
        <ele>18</ele>
        <time>2015-11-08T10:06:05Z</time>
      </trkpt>
      <trkpt lat="43.23949" lon="5.36744">
        <ele>19</ele>
        <time>2015-11-08T10:06:14Z</time>
      </trkpt>
      <trkpt lat="43.23942" lon="5.36751">
        <ele>19</ele>
        <time>2015-11-08T10:06:24Z</time>
      </trkpt>
      <trkpt lat="43.23934" lon="5.3676">
        <ele>19</ele>
        <time>2015-11-08T10:06:33Z</time>
      </trkpt>
      <trkpt lat="43.23926" lon="5.36767">
        <ele>19</ele>
        <time>2015-11-08T10:06:42Z</time>
      </trkpt>
      <trkpt lat="43.23917" lon="5.36773">
        <ele>17</ele>
        <time>2015-11-08T10:06:52Z</time>
      </trkpt>
      <trkpt lat="43.23914" lon="5.36781">
        <ele>20</ele>
        <time>2015-11-08T10:07:01Z</time>
      </trkpt>
      <trkpt lat="43.23903" lon="5.3679">
        <ele>23</ele>
        <time>2015-11-08T10:07:18Z</time>
      </trkpt>
      <trkpt lat="43.23898" lon="5.36791">
        <ele>24</ele>
        <time>2015-11-08T10:07:28Z</time>
      </trkpt>
      <trkpt lat="43.23901" lon="5.36796">
        <ele>24</ele>
        <time>2015-11-08T10:07:39Z</time>
      </trkpt>
      <trkpt lat="43.23893" lon="5.36802">
        <ele>24</ele>
        <time>2015-11-08T10:07:49Z</time>
      </trkpt>
      <trkpt lat="43.23882" lon="5.3681">
        <ele>24</ele>
        <time>2015-11-08T10:08:00Z</time>
      </trkpt>
      <trkpt lat="43.23877" lon="5.36818">
        <ele>24</ele>
        <time>2015-11-08T10:08:10Z</time>
      </trkpt>
      <trkpt lat="43.23868" lon="5.36826">
        <ele>24</ele>
        <time>2015-11-08T10:08:19Z</time>
      </trkpt>
      <trkpt lat="43.23856" lon="5.36833">
        <ele>24</ele>
        <time>2015-11-08T10:08:29Z</time>
      </trkpt>
      <trkpt lat="43.23847" lon="5.36842">
        <ele>24</ele>
        <time>2015-11-08T10:08:38Z</time>
      </trkpt>
      <trkpt lat="43.23838" lon="5.36852">
        <ele>24</ele>
        <time>2015-11-08T10:08:47Z</time>
      </trkpt>
      <trkpt lat="43.2383" lon="5.36861">
        <ele>24</ele>
        <time>2015-11-08T10:08:56Z</time>
      </trkpt>
      <trkpt lat="43.2382" lon="5.36869">
        <ele>24</ele>
        <time>2015-11-08T10:09:06Z</time>
      </trkpt>
      <trkpt lat="43.23809" lon="5.36878">
        <ele>24</ele>
        <time>2015-11-08T10:09:15Z</time>
      </trkpt>
      <trkpt lat="43.23799" lon="5.36886">
        <ele>24</ele>
        <time>2015-11-08T10:09:24Z</time>
      </trkpt>
      <trkpt lat="43.23795" lon="5.36888">
        <ele>24</ele>
        <time>2015-11-08T10:09:36Z</time>
      </trkpt>
      <trkpt lat="43.23785" lon="5.36897">
        <ele>24</ele>
        <time>2015-11-08T10:09:45Z</time>
      </trkpt>
      <trkpt lat="43.23776" lon="5.36905">
        <ele>24</ele>
        <time>2015-11-08T10:09:54Z</time>
      </trkpt>
      <trkpt lat="43.23767" lon="5.36913">
        <ele>24</ele>
        <time>2015-11-08T10:10:03Z</time>
      </trkpt>
      <trkpt lat="43.23758" lon="5.36922">
        <ele>24</ele>
        <time>2015-11-08T10:10:12Z</time>
      </trkpt>
      <trkpt lat="43.23749" lon="5.36932">
        <ele>24</ele>
        <time>2015-11-08T10:10:22Z</time>
      </trkpt>
      <trkpt lat="43.23742" lon="5.3694">
        <ele>24</ele>
        <time>2015-11-08T10:10:32Z</time>
      </trkpt>
      <trkpt lat="43.23734" lon="5.36948">
        <ele>24</ele>
        <time>2015-11-08T10:10:41Z</time>
      </trkpt>
      <trkpt lat="43.23725" lon="5.36956">
        <ele>27</ele>
        <time>2015-11-08T10:10:50Z</time>
      </trkpt>
      <trkpt lat="43.23716" lon="5.36965">
        <ele>29</ele>
        <time>2015-11-08T10:10:59Z</time>
      </trkpt>
      <trkpt lat="43.23708" lon="5.36973">
        <ele>30</ele>
        <time>2015-11-08T10:11:08Z</time>
      </trkpt>
      <trkpt lat="43.23699" lon="5.36982">
        <ele>30</ele>
        <time>2015-11-08T10:11:17Z</time>
      </trkpt>
      <trkpt lat="43.2369" lon="5.36993">
        <ele>30</ele>
        <time>2015-11-08T10:11:27Z</time>
      </trkpt>
      <trkpt lat="43.23681" lon="5.37002">
        <ele>32</ele>
        <time>2015-11-08T10:11:36Z</time>
      </trkpt>
      <trkpt lat="43.23674" lon="5.37007">
        <ele>31</ele>
        <time>2015-11-08T10:11:46Z</time>
      </trkpt>
      <trkpt lat="43.23664" lon="5.37015">
        <ele>31</ele>
        <time>2015-11-08T10:11:57Z</time>
      </trkpt>
      <trkpt lat="43.23657" lon="5.37025">
        <ele>31</ele>
        <time>2015-11-08T10:12:07Z</time>
      </trkpt>
      <trkpt lat="43.23646" lon="5.37036">
        <ele>32</ele>
        <time>2015-11-08T10:12:17Z</time>
      </trkpt>
      <trkpt lat="43.23636" lon="5.37044">
        <ele>35</ele>
        <time>2015-11-08T10:12:27Z</time>
      </trkpt>
      <trkpt lat="43.23627" lon="5.37052">
        <ele>35</ele>
        <time>2015-11-08T10:12:36Z</time>
      </trkpt>
      <trkpt lat="43.23618" lon="5.37063">
        <ele>36</ele>
        <time>2015-11-08T10:12:45Z</time>
      </trkpt>
      <trkpt lat="43.23608" lon="5.3707">
        <ele>37</ele>
        <time>2015-11-08T10:12:55Z</time>
      </trkpt>
      <trkpt lat="43.236" lon="5.37077">
        <ele>38</ele>
        <time>2015-11-08T10:13:05Z</time>
      </trkpt>
      <trkpt lat="43.23591" lon="5.37086">
        <ele>40</ele>
        <time>2015-11-08T10:13:15Z</time>
      </trkpt>
      <trkpt lat="43.23581" lon="5.37096">
        <ele>41</ele>
        <time>2015-11-08T10:13:25Z</time>
      </trkpt>
      <trkpt lat="43.23573" lon="5.37105">
        <ele>41</ele>
        <time>2015-11-08T10:13:35Z</time>
      </trkpt>
      <trkpt lat="43.23563" lon="5.37115">
        <ele>43</ele>
        <time>2015-11-08T10:13:45Z</time>
      </trkpt>
      <trkpt lat="43.23555" lon="5.37124">
        <ele>43</ele>
        <time>2015-11-08T10:13:54Z</time>
      </trkpt>
      <trkpt lat="43.23545" lon="5.3713">
        <ele>43</ele>
        <time>2015-11-08T10:14:03Z</time>
      </trkpt>
      <trkpt lat="43.23536" lon="5.37136">
        <ele>43</ele>
        <time>2015-11-08T10:14:12Z</time>
      </trkpt>
      <trkpt lat="43.23529" lon="5.37143">
        <ele>43</ele>
        <time>2015-11-08T10:14:21Z</time>
      </trkpt>
      <trkpt lat="43.2352" lon="5.37152">
        <ele>43</ele>
        <time>2015-11-08T10:14:31Z</time>
      </trkpt>
      <trkpt lat="43.23508" lon="5.37163">
        <ele>43</ele>
        <time>2015-11-08T10:14:42Z</time>
      </trkpt>
      <trkpt lat="43.235" lon="5.37169">
        <ele>43</ele>
        <time>2015-11-08T10:14:52Z</time>
      </trkpt>
      <trkpt lat="43.2349" lon="5.3718">
        <ele>43</ele>
        <time>2015-11-08T10:15:01Z</time>
      </trkpt>
      <trkpt lat="43.23481" lon="5.37189">
        <ele>46</ele>
        <time>2015-11-08T10:15:10Z</time>
      </trkpt>
      <trkpt lat="43.23472" lon="5.37197">
        <ele>46</ele>
        <time>2015-11-08T10:15:19Z</time>
      </trkpt>
      <trkpt lat="43.23463" lon="5.37204">
        <ele>46</ele>
        <time>2015-11-08T10:15:28Z</time>
      </trkpt>
      <trkpt lat="43.23457" lon="5.37213">
        <ele>47</ele>
        <time>2015-11-08T10:15:37Z</time>
      </trkpt>
      <trkpt lat="43.23449" lon="5.37226">
        <ele>47</ele>
        <time>2015-11-08T10:15:47Z</time>
      </trkpt>
      <trkpt lat="43.23443" lon="5.37236">
        <ele>47</ele>
        <time>2015-11-08T10:15:57Z</time>
      </trkpt>
      <trkpt lat="43.23439" lon="5.37249">
        <ele>49</ele>
        <time>2015-11-08T10:16:07Z</time>
      </trkpt>
      <trkpt lat="43.23434" lon="5.37262">
        <ele>49</ele>
        <time>2015-11-08T10:16:18Z</time>
      </trkpt>
      <trkpt lat="43.2343" lon="5.37276">
        <ele>54</ele>
        <time>2015-11-08T10:16:27Z</time>
      </trkpt>
      <trkpt lat="43.23426" lon="5.37287">
        <ele>54</ele>
        <time>2015-11-08T10:16:37Z</time>
      </trkpt>
      <trkpt lat="43.23425" lon="5.3729">
        <ele>48</ele>
        <time>2015-11-08T10:16:47Z</time>
      </trkpt>
      <trkpt lat="43.23426" lon="5.37291">
        <ele>45</ele>
        <time>2015-11-08T10:16:58Z</time>
      </trkpt>
      <trkpt lat="43.23424" lon="5.37304">
        <ele>45</ele>
        <time>2015-11-08T10:17:07Z</time>
      </trkpt>
      <trkpt lat="43.23419" lon="5.37318">
        <ele>45</ele>
        <time>2015-11-08T10:17:16Z</time>
      </trkpt>
      <trkpt lat="43.23413" lon="5.37332">
        <ele>46</ele>
        <time>2015-11-08T10:17:25Z</time>
      </trkpt>
      <trkpt lat="43.23406" lon="5.37342">
        <ele>47</ele>
        <time>2015-11-08T10:17:34Z</time>
      </trkpt>
      <trkpt lat="43.23402" lon="5.37352">
        <ele>56</ele>
        <time>2015-11-08T10:17:44Z</time>
      </trkpt>
      <trkpt lat="43.23393" lon="5.3736">
        <ele>57</ele>
        <time>2015-11-08T10:17:53Z</time>
      </trkpt>
      <trkpt lat="43.2338" lon="5.37365">
        <ele>57</ele>
        <time>2015-11-08T10:18:02Z</time>
      </trkpt>
      <trkpt lat="43.23364" lon="5.37367">
        <ele>57</ele>
        <time>2015-11-08T10:18:11Z</time>
      </trkpt>
      <trkpt lat="43.23361" lon="5.37348">
        <ele>57</ele>
        <time>2015-11-08T10:18:20Z</time>
      </trkpt>
      <trkpt lat="43.23358" lon="5.37332">
        <ele>57</ele>
        <time>2015-11-08T10:18:29Z</time>
      </trkpt>
      <trkpt lat="43.23357" lon="5.37319">
        <ele>57</ele>
        <time>2015-11-08T10:18:38Z</time>
      </trkpt>
      <trkpt lat="43.23347" lon="5.3731">
        <ele>57</ele>
        <time>2015-11-08T10:18:48Z</time>
      </trkpt>
      <trkpt lat="43.23338" lon="5.3731">
        <ele>57</ele>
        <time>2015-11-08T10:18:57Z</time>
      </trkpt>
      <trkpt lat="43.2333" lon="5.37317">
        <ele>57</ele>
        <time>2015-11-08T10:19:07Z</time>
      </trkpt>
      <trkpt lat="43.23315" lon="5.3732">
        <ele>55</ele>
        <time>2015-11-08T10:19:18Z</time>
      </trkpt>
      <trkpt lat="43.23304" lon="5.37326">
        <ele>54</ele>
        <time>2015-11-08T10:19:28Z</time>
      </trkpt>
      <trkpt lat="43.23294" lon="5.37334">
        <ele>53</ele>
        <time>2015-11-08T10:19:37Z</time>
      </trkpt>
      <trkpt lat="43.23285" lon="5.37341">
        <ele>53</ele>
        <time>2015-11-08T10:19:47Z</time>
      </trkpt>
      <trkpt lat="43.23277" lon="5.37349">
        <ele>56</ele>
        <time>2015-11-08T10:19:58Z</time>
      </trkpt>
      <trkpt lat="43.23271" lon="5.37348">
        <ele>61</ele>
        <time>2015-11-08T10:20:10Z</time>
      </trkpt>
      <trkpt lat="43.23256" lon="5.37354">
        <ele>61</ele>
        <time>2015-11-08T10:20:19Z</time>
      </trkpt>
      <trkpt lat="43.2325" lon="5.37364">
        <ele>61</ele>
        <time>2015-11-08T10:20:28Z</time>
      </trkpt>
      <trkpt lat="43.23245" lon="5.37375">
        <ele>61</ele>
        <time>2015-11-08T10:20:38Z</time>
      </trkpt>
      <trkpt lat="43.23239" lon="5.37384">
        <ele>61</ele>
        <time>2015-11-08T10:20:48Z</time>
      </trkpt>
      <trkpt lat="43.23233" lon="5.37393">
        <ele>61</ele>
        <time>2015-11-08T10:20:59Z</time>
      </trkpt>
      <trkpt lat="43.23223" lon="5.37404">
        <ele>61</ele>
        <time>2015-11-08T10:21:09Z</time>
      </trkpt>
      <trkpt lat="43.23216" lon="5.37411">
        <ele>62</ele>
        <time>2015-11-08T10:21:20Z</time>
      </trkpt>
      <trkpt lat="43.23205" lon="5.37415">
        <ele>64</ele>
        <time>2015-11-08T10:21:30Z</time>
      </trkpt>
      <trkpt lat="43.23192" lon="5.3742">
        <ele>64</ele>
        <time>2015-11-08T10:21:40Z</time>
      </trkpt>
      <trkpt lat="43.23181" lon="5.37427">
        <ele>60</ele>
        <time>2015-11-08T10:21:50Z</time>
      </trkpt>
      <trkpt lat="43.23169" lon="5.37434">
        <ele>59</ele>
        <time>2015-11-08T10:22:00Z</time>
      </trkpt>
      <trkpt lat="43.2316" lon="5.37436">
        <ele>59</ele>
        <time>2015-11-08T10:22:10Z</time>
      </trkpt>
      <trkpt lat="43.23147" lon="5.3744">
        <ele>59</ele>
        <time>2015-11-08T10:22:19Z</time>
      </trkpt>
      <trkpt lat="43.23136" lon="5.37446">
        <ele>59</ele>
        <time>2015-11-08T10:22:28Z</time>
      </trkpt>
      <trkpt lat="43.23126" lon="5.37455">
        <ele>59</ele>
        <time>2015-11-08T10:22:39Z</time>
      </trkpt>
      <trkpt lat="43.23116" lon="5.37463">
        <ele>59</ele>
        <time>2015-11-08T10:22:48Z</time>
      </trkpt>
      <trkpt lat="43.23106" lon="5.37472">
        <ele>59</ele>
        <time>2015-11-08T10:22:59Z</time>
      </trkpt>
      <trkpt lat="43.23096" lon="5.37476">
        <ele>59</ele>
        <time>2015-11-08T10:23:08Z</time>
      </trkpt>
      <trkpt lat="43.23087" lon="5.37483">
        <ele>59</ele>
        <time>2015-11-08T10:23:18Z</time>
      </trkpt>
      <trkpt lat="43.23083" lon="5.37491">
        <ele>63</ele>
        <time>2015-11-08T10:23:28Z</time>
      </trkpt>
      <trkpt lat="43.23077" lon="5.37501">
        <ele>68</ele>
        <time>2015-11-08T10:23:37Z</time>
      </trkpt>
      <trkpt lat="43.23077" lon="5.37514">
        <ele>76</ele>
        <time>2015-11-08T10:23:48Z</time>
      </trkpt>
      <trkpt lat="43.23068" lon="5.37525">
        <ele>86</ele>
        <time>2015-11-08T10:23:58Z</time>
      </trkpt>
      <trkpt lat="43.2306" lon="5.37532">
        <ele>94</ele>
        <time>2015-11-08T10:24:07Z</time>
      </trkpt>
      <trkpt lat="43.23047" lon="5.37534">
        <ele>94</ele>
        <time>2015-11-08T10:24:17Z</time>
      </trkpt>
      <trkpt lat="43.23037" lon="5.37539">
        <ele>91</ele>
        <time>2015-11-08T10:24:26Z</time>
      </trkpt>
      <trkpt lat="43.23026" lon="5.37544">
        <ele>79</ele>
        <time>2015-11-08T10:24:37Z</time>
      </trkpt>
      <trkpt lat="43.23004" lon="5.37541">
        <ele>74</ele>
        <time>2015-11-08T10:24:47Z</time>
      </trkpt>
      <trkpt lat="43.23006" lon="5.37554">
        <ele>81</ele>
        <time>2015-11-08T10:24:56Z</time>
      </trkpt>
      <trkpt lat="43.23011" lon="5.37567">
        <ele>83</ele>
        <time>2015-11-08T10:25:05Z</time>
      </trkpt>
      <trkpt lat="43.23009" lon="5.37574">
        <ele>79</ele>
        <time>2015-11-08T10:25:14Z</time>
      </trkpt>
      <trkpt lat="43.23005" lon="5.37583">
        <ele>79</ele>
        <time>2015-11-08T10:25:24Z</time>
      </trkpt>
      <trkpt lat="43.22999" lon="5.37589">
        <ele>79</ele>
        <time>2015-11-08T10:25:33Z</time>
      </trkpt>
      <trkpt lat="43.22993" lon="5.37594">
        <ele>79</ele>
        <time>2015-11-08T10:25:43Z</time>
      </trkpt>
      <trkpt lat="43.22989" lon="5.37593">
        <ele>79</ele>
        <time>2015-11-08T10:25:54Z</time>
      </trkpt>
      <trkpt lat="43.22989" lon="5.37594">
        <ele>84</ele>
        <time>2015-11-08T10:26:05Z</time>
      </trkpt>
      <trkpt lat="43.22982" lon="5.37596">
        <ele>86</ele>
        <time>2015-11-08T10:26:15Z</time>
      </trkpt>
      <trkpt lat="43.22981" lon="5.37596">
        <ele>87</ele>
        <time>2015-11-08T10:26:27Z</time>
      </trkpt>
      <trkpt lat="43.22976" lon="5.37597">
        <ele>90</ele>
        <time>2015-11-08T10:26:40Z</time>
      </trkpt>
      <trkpt lat="43.22977" lon="5.376">
        <ele>100</ele>
        <time>2015-11-08T10:26:53Z</time>
      </trkpt>
      <trkpt lat="43.22967" lon="5.37601">
        <ele>104</ele>
        <time>2015-11-08T10:27:04Z</time>
      </trkpt>
      <trkpt lat="43.22963" lon="5.37599">
        <ele>105</ele>
        <time>2015-11-08T10:27:13Z</time>
      </trkpt>
      <trkpt lat="43.22954" lon="5.37597">
        <ele>105</ele>
        <time>2015-11-08T10:27:22Z</time>
      </trkpt>
      <trkpt lat="43.22948" lon="5.37598">
        <ele>105</ele>
        <time>2015-11-08T10:27:32Z</time>
      </trkpt>
      <trkpt lat="43.22945" lon="5.37602">
        <ele>107</ele>
        <time>2015-11-08T10:27:42Z</time>
      </trkpt>
      <trkpt lat="43.22927" lon="5.37599">
        <ele>107</ele>
        <time>2015-11-08T10:27:51Z</time>
      </trkpt>
      <trkpt lat="43.22921" lon="5.37599">
        <ele>107</ele>
        <time>2015-11-08T10:28:00Z</time>
      </trkpt>
      <trkpt lat="43.22916" lon="5.37601">
        <ele>109</ele>
        <time>2015-11-08T10:28:10Z</time>
      </trkpt>
      <trkpt lat="43.22917" lon="5.37611">
        <ele>109</ele>
        <time>2015-11-08T10:28:20Z</time>
      </trkpt>
      <trkpt lat="43.22918" lon="5.37622">
        <ele>103</ele>
        <time>2015-11-08T10:28:30Z</time>
      </trkpt>
      <trkpt lat="43.22913" lon="5.37626">
        <ele>103</ele>
        <time>2015-11-08T10:28:39Z</time>
      </trkpt>
      <trkpt lat="43.22914" lon="5.37629">
        <ele>103</ele>
        <time>2015-11-08T10:28:48Z</time>
      </trkpt>
      <trkpt lat="43.22921" lon="5.37637">
        <ele>104</ele>
        <time>2015-11-08T10:28:57Z</time>
      </trkpt>
      <trkpt lat="43.22917" lon="5.37639">
        <ele>104</ele>
        <time>2015-11-08T10:29:08Z</time>
      </trkpt>
      <trkpt lat="43.22911" lon="5.37641">
        <ele>106</ele>
        <time>2015-11-08T10:29:19Z</time>
      </trkpt>
      <trkpt lat="43.22905" lon="5.37641">
        <ele>107</ele>
        <time>2015-11-08T10:29:29Z</time>
      </trkpt>
      <trkpt lat="43.22902" lon="5.37644">
        <ele>108</ele>
        <time>2015-11-08T10:29:39Z</time>
      </trkpt>
      <trkpt lat="43.22908" lon="5.37653">
        <ele>117</ele>
        <time>2015-11-08T10:29:50Z</time>
      </trkpt>
      <trkpt lat="43.22909" lon="5.37654">
        <ele>119</ele>
        <time>2015-11-08T10:30:01Z</time>
      </trkpt>
      <trkpt lat="43.22911" lon="5.37657">
        <ele>127</ele>
        <time>2015-11-08T10:30:12Z</time>
      </trkpt>
      <trkpt lat="43.22908" lon="5.37663">
        <ele>132</ele>
        <time>2015-11-08T10:30:22Z</time>
      </trkpt>
      <trkpt lat="43.22908" lon="5.37668">
        <ele>143</ele>
        <time>2015-11-08T10:30:33Z</time>
      </trkpt>
      <trkpt lat="43.22902" lon="5.3767">
        <ele>153</ele>
        <time>2015-11-08T10:30:44Z</time>
      </trkpt>
      <trkpt lat="43.229" lon="5.37673">
        <ele>155</ele>
        <time>2015-11-08T10:30:55Z</time>
      </trkpt>
      <trkpt lat="43.22886" lon="5.37673">
        <ele>155</ele>
        <time>2015-11-08T10:31:06Z</time>
      </trkpt>
      <trkpt lat="43.22874" lon="5.37676">
        <ele>155</ele>
        <time>2015-11-08T10:31:17Z</time>
      </trkpt>
      <trkpt lat="43.22861" lon="5.37675">
        <ele>147</ele>
        <time>2015-11-08T10:31:26Z</time>
      </trkpt>
      <trkpt lat="43.2286" lon="5.37678">
        <ele>138</ele>
        <time>2015-11-08T10:31:35Z</time>
      </trkpt>
      <trkpt lat="43.22853" lon="5.37679">
        <ele>135</ele>
        <time>2015-11-08T10:31:50Z</time>
      </trkpt>
      <trkpt lat="43.22844" lon="5.37678">
        <ele>135</ele>
        <time>2015-11-08T10:32:00Z</time>
      </trkpt>
      <trkpt lat="43.2285" lon="5.3768">
        <ele>135</ele>
        <time>2015-11-08T10:32:12Z</time>
      </trkpt>
      <trkpt lat="43.22849" lon="5.37678">
        <ele>136</ele>
        <time>2015-11-08T10:32:21Z</time>
      </trkpt>
      <trkpt lat="43.22854" lon="5.37685">
        <ele>135</ele>
        <time>2015-11-08T10:32:31Z</time>
      </trkpt>
      <trkpt lat="43.22858" lon="5.37689">
        <ele>132</ele>
        <time>2015-11-08T10:32:41Z</time>
      </trkpt>
      <trkpt lat="43.22858" lon="5.3769">
        <ele>127</ele>
        <time>2015-11-08T10:32:52Z</time>
      </trkpt>
      <trkpt lat="43.22858" lon="5.3769">
        <ele>120</ele>
        <time>2015-11-08T10:33:06Z</time>
      </trkpt>
      <trkpt lat="43.22869" lon="5.37696">
        <ele>122</ele>
        <time>2015-11-08T10:33:16Z</time>
      </trkpt>
      <trkpt lat="43.22864" lon="5.37693">
        <ele>126</ele>
        <time>2015-11-08T10:33:26Z</time>
      </trkpt>
      <trkpt lat="43.22856" lon="5.37687">
        <ele>131</ele>
        <time>2015-11-08T10:33:37Z</time>
      </trkpt>
      <trkpt lat="43.22855" lon="5.37684">
        <ele>139</ele>
        <time>2015-11-08T10:33:46Z</time>
      </trkpt>
      <trkpt lat="43.22846" lon="5.37678">
        <ele>144</ele>
        <time>2015-11-08T10:33:56Z</time>
      </trkpt>
      <trkpt lat="43.22843" lon="5.37683">
        <ele>144</ele>
        <time>2015-11-08T10:34:07Z</time>
      </trkpt>
      <trkpt lat="43.22843" lon="5.37692">
        <ele>140</ele>
        <time>2015-11-08T10:34:16Z</time>
      </trkpt>
      <trkpt lat="43.22843" lon="5.37698">
        <ele>137</ele>
        <time>2015-11-08T10:34:25Z</time>
      </trkpt>
      <trkpt lat="43.22844" lon="5.37704">
        <ele>138</ele>
        <time>2015-11-08T10:34:34Z</time>
      </trkpt>
      <trkpt lat="43.22843" lon="5.37711">
        <ele>138</ele>
        <time>2015-11-08T10:34:43Z</time>
      </trkpt>
      <trkpt lat="43.22836" lon="5.37716">
        <ele>138</ele>
        <time>2015-11-08T10:34:52Z</time>
      </trkpt>
      <trkpt lat="43.22827" lon="5.37721">
        <ele>138</ele>
        <time>2015-11-08T10:35:01Z</time>
      </trkpt>
      <trkpt lat="43.22823" lon="5.37725">
        <ele>136</ele>
        <time>2015-11-08T10:35:12Z</time>
      </trkpt>
      <trkpt lat="43.22812" lon="5.37725">
        <ele>133</ele>
        <time>2015-11-08T10:35:23Z</time>
      </trkpt>
      <trkpt lat="43.22805" lon="5.37723">
        <ele>136</ele>
        <time>2015-11-08T10:35:32Z</time>
      </trkpt>
      <trkpt lat="43.22799" lon="5.37728">
        <ele>136</ele>
        <time>2015-11-08T10:35:42Z</time>
      </trkpt>
      <trkpt lat="43.22797" lon="5.37732">
        <ele>136</ele>
        <time>2015-11-08T10:35:51Z</time>
      </trkpt>
      <trkpt lat="43.2279" lon="5.37735">
        <ele>142</ele>
        <time>2015-11-08T10:36:04Z</time>
      </trkpt>
      <trkpt lat="43.22788" lon="5.37739">
        <ele>142</ele>
        <time>2015-11-08T10:36:13Z</time>
      </trkpt>
      <trkpt lat="43.22777" lon="5.37742">
        <ele>140</ele>
        <time>2015-11-08T10:36:22Z</time>
      </trkpt>
      <trkpt lat="43.22772" lon="5.37751">
        <ele>139</ele>
        <time>2015-11-08T10:36:32Z</time>
      </trkpt>
      <trkpt lat="43.22769" lon="5.37752">
        <ele>139</ele>
        <time>2015-11-08T10:36:41Z</time>
      </trkpt>
      <trkpt lat="43.22766" lon="5.37758">
        <ele>139</ele>
        <time>2015-11-08T10:36:50Z</time>
      </trkpt>
      <trkpt lat="43.22763" lon="5.37762">
        <ele>143</ele>
        <time>2015-11-08T10:37:01Z</time>
      </trkpt>
      <trkpt lat="43.22761" lon="5.3777">
        <ele>146</ele>
        <time>2015-11-08T10:37:11Z</time>
      </trkpt>
      <trkpt lat="43.22754" lon="5.37773">
        <ele>150</ele>
        <time>2015-11-08T10:37:20Z</time>
      </trkpt>
      <trkpt lat="43.22742" lon="5.37784">
        <ele>151</ele>
        <time>2015-11-08T10:37:29Z</time>
      </trkpt>
      <trkpt lat="43.22727" lon="5.37789">
        <ele>154</ele>
        <time>2015-11-08T10:37:38Z</time>
      </trkpt>
      <trkpt lat="43.22723" lon="5.37804">
        <ele>164</ele>
        <time>2015-11-08T10:37:49Z</time>
      </trkpt>
      <trkpt lat="43.22717" lon="5.37809">
        <ele>166</ele>
        <time>2015-11-08T10:37:58Z</time>
      </trkpt>
      <trkpt lat="43.22704" lon="5.37809">
        <ele>168</ele>
        <time>2015-11-08T10:38:08Z</time>
      </trkpt>
      <trkpt lat="43.22702" lon="5.37816">
        <ele>169</ele>
        <time>2015-11-08T10:38:17Z</time>
      </trkpt>
      <trkpt lat="43.22696" lon="5.37822">
        <ele>169</ele>
        <time>2015-11-08T10:38:29Z</time>
      </trkpt>
      <trkpt lat="43.22689" lon="5.37822">
        <ele>168</ele>
        <time>2015-11-08T10:38:39Z</time>
      </trkpt>
      <trkpt lat="43.22684" lon="5.37822">
        <ele>167</ele>
        <time>2015-11-08T10:38:49Z</time>
      </trkpt>
      <trkpt lat="43.22681" lon="5.37833">
        <ele>165</ele>
        <time>2015-11-08T10:38:58Z</time>
      </trkpt>
      <trkpt lat="43.22682" lon="5.3784">
        <ele>165</ele>
        <time>2015-11-08T10:39:12Z</time>
      </trkpt>
      <trkpt lat="43.22696" lon="5.37848">
        <ele>165</ele>
        <time>2015-11-08T10:39:23Z</time>
      </trkpt>
      <trkpt lat="43.22702" lon="5.37856">
        <ele>169</ele>
        <time>2015-11-08T10:39:34Z</time>
      </trkpt>
      <trkpt lat="43.22707" lon="5.37861">
        <ele>165</ele>
        <time>2015-11-08T10:39:43Z</time>
      </trkpt>
      <trkpt lat="43.22701" lon="5.37861">
        <ele>165</ele>
        <time>2015-11-08T10:39:52Z</time>
      </trkpt>
      <trkpt lat="43.22703" lon="5.37863">
        <ele>161</ele>
        <time>2015-11-08T10:40:02Z</time>
      </trkpt>
      <trkpt lat="43.2271" lon="5.37863">
        <ele>161</ele>
        <time>2015-11-08T10:40:11Z</time>
      </trkpt>
      <trkpt lat="43.22718" lon="5.37874">
        <ele>156</ele>
        <time>2015-11-08T10:40:21Z</time>
      </trkpt>
      <trkpt lat="43.22722" lon="5.37886">
        <ele>153</ele>
        <time>2015-11-08T10:40:31Z</time>
      </trkpt>
      <trkpt lat="43.22729" lon="5.37897">
        <ele>149</ele>
        <time>2015-11-08T10:40:42Z</time>
      </trkpt>
      <trkpt lat="43.22731" lon="5.37907">
        <ele>151</ele>
        <time>2015-11-08T10:40:52Z</time>
      </trkpt>
      <trkpt lat="43.22734" lon="5.37915">
        <ele>154</ele>
        <time>2015-11-08T10:41:03Z</time>
      </trkpt>
      <trkpt lat="43.22739" lon="5.3792">
        <ele>159</ele>
        <time>2015-11-08T10:41:13Z</time>
      </trkpt>
      <trkpt lat="43.22744" lon="5.37925">
        <ele>159</ele>
        <time>2015-11-08T10:41:22Z</time>
      </trkpt>
      <trkpt lat="43.22749" lon="5.3793">
        <ele>160</ele>
        <time>2015-11-08T10:41:38Z</time>
      </trkpt>
      <trkpt lat="43.22742" lon="5.37937">
        <ele>159</ele>
        <time>2015-11-08T10:41:49Z</time>
      </trkpt>
      <trkpt lat="43.22746" lon="5.37938">
        <ele>159</ele>
        <time>2015-11-08T10:41:58Z</time>
      </trkpt>
      <trkpt lat="43.22744" lon="5.37935">
        <ele>157</ele>
        <time>2015-11-08T10:42:09Z</time>
      </trkpt>
      <trkpt lat="43.22746" lon="5.37936">
        <ele>155</ele>
        <time>2015-11-08T10:42:20Z</time>
      </trkpt>
      <trkpt lat="43.22746" lon="5.37938">
        <ele>160</ele>
        <time>2015-11-08T10:42:36Z</time>
      </trkpt>
      <trkpt lat="43.22751" lon="5.37932">
        <ele>163</ele>
        <time>2015-11-08T10:42:45Z</time>
      </trkpt>
      <trkpt lat="43.22757" lon="5.37922">
        <ele>167</ele>
        <time>2015-11-08T10:42:55Z</time>
      </trkpt>
      <trkpt lat="43.22759" lon="5.37909">
        <ele>174</ele>
        <time>2015-11-08T10:43:06Z</time>
      </trkpt>
      <trkpt lat="43.22764" lon="5.37911">
        <ele>171</ele>
        <time>2015-11-08T10:43:24Z</time>
      </trkpt>
      <trkpt lat="43.22766" lon="5.37912">
        <ele>171</ele>
        <time>2015-11-08T10:43:35Z</time>
      </trkpt>
      <trkpt lat="43.22768" lon="5.37914">
        <ele>164</ele>
        <time>2015-11-08T10:43:45Z</time>
      </trkpt>
      <trkpt lat="43.22771" lon="5.37917">
        <ele>157</ele>
        <time>2015-11-08T10:44:00Z</time>
      </trkpt>
      <trkpt lat="43.22771" lon="5.3792">
        <ele>153</ele>
        <time>2015-11-08T10:44:14Z</time>
      </trkpt>
      <trkpt lat="43.22766" lon="5.37926">
        <ele>157</ele>
        <time>2015-11-08T10:44:26Z</time>
      </trkpt>
      <trkpt lat="43.22765" lon="5.37922">
        <ele>166</ele>
        <time>2015-11-08T10:44:35Z</time>
      </trkpt>
      <trkpt lat="43.22764" lon="5.37926">
        <ele>175</ele>
        <time>2015-11-08T10:44:44Z</time>
      </trkpt>
      <trkpt lat="43.22766" lon="5.37929">
        <ele>183</ele>
        <time>2015-11-08T10:44:55Z</time>
      </trkpt>
      <trkpt lat="43.22768" lon="5.37937">
        <ele>179</ele>
        <time>2015-11-08T10:45:09Z</time>
      </trkpt>
      <trkpt lat="43.22768" lon="5.37943">
        <ele>178</ele>
        <time>2015-11-08T10:45:24Z</time>
      </trkpt>
      <trkpt lat="43.22767" lon="5.37947">
        <ele>178</ele>
        <time>2015-11-08T10:45:38Z</time>
      </trkpt>
      <trkpt lat="43.22766" lon="5.37947">
        <ele>179</ele>
        <time>2015-11-08T10:45:50Z</time>
      </trkpt>
      <trkpt lat="43.22765" lon="5.37952">
        <ele>180</ele>
        <time>2015-11-08T10:45:59Z</time>
      </trkpt>
      <trkpt lat="43.22768" lon="5.37952">
        <ele>181</ele>
        <time>2015-11-08T10:46:08Z</time>
      </trkpt>
      <trkpt lat="43.22768" lon="5.37954">
        <ele>181</ele>
        <time>2015-11-08T10:46:19Z</time>
      </trkpt>
      <trkpt lat="43.22769" lon="5.37958">
        <ele>181</ele>
        <time>2015-11-08T10:46:29Z</time>
      </trkpt>
      <trkpt lat="43.22768" lon="5.37964">
        <ele>181</ele>
        <time>2015-11-08T10:46:39Z</time>
      </trkpt>
      <trkpt lat="43.22766" lon="5.3797">
        <ele>181</ele>
        <time>2015-11-08T10:46:48Z</time>
      </trkpt>
      <trkpt lat="43.22769" lon="5.37971">
        <ele>185</ele>
        <time>2015-11-08T10:47:04Z</time>
      </trkpt>
      <trkpt lat="43.22768" lon="5.37975">
        <ele>189</ele>
        <time>2015-11-08T10:47:13Z</time>
      </trkpt>
      <trkpt lat="43.22766" lon="5.37979">
        <ele>193</ele>
        <time>2015-11-08T10:47:22Z</time>
      </trkpt>
      <trkpt lat="43.22766" lon="5.37984">
        <ele>193</ele>
        <time>2015-11-08T10:47:32Z</time>
      </trkpt>
      <trkpt lat="43.22765" lon="5.37988">
        <ele>192</ele>
        <time>2015-11-08T10:47:43Z</time>
      </trkpt>
      <trkpt lat="43.22765" lon="5.3799">
        <ele>192</ele>
        <time>2015-11-08T10:47:53Z</time>
      </trkpt>
      <trkpt lat="43.22764" lon="5.3799">
        <ele>195</ele>
        <time>2015-11-08T10:48:05Z</time>
      </trkpt>
      <trkpt lat="43.22762" lon="5.37996">
        <ele>195</ele>
        <time>2015-11-08T10:48:18Z</time>
      </trkpt>
      <trkpt lat="43.22759" lon="5.37997">
        <ele>195</ele>
        <time>2015-11-08T10:48:32Z</time>
      </trkpt>
      <trkpt lat="43.22761" lon="5.38002">
        <ele>195</ele>
        <time>2015-11-08T10:48:42Z</time>
      </trkpt>
      <trkpt lat="43.2276" lon="5.38008">
        <ele>195</ele>
        <time>2015-11-08T10:48:52Z</time>
      </trkpt>
      <trkpt lat="43.22762" lon="5.38011">
        <ele>202</ele>
        <time>2015-11-08T10:49:06Z</time>
      </trkpt>
      <trkpt lat="43.22764" lon="5.38008">
        <ele>205</ele>
        <time>2015-11-08T10:49:20Z</time>
      </trkpt>
      <trkpt lat="43.22765" lon="5.3801">
        <ele>209</ele>
        <time>2015-11-08T10:49:30Z</time>
      </trkpt>
      <trkpt lat="43.2276" lon="5.38">
        <ele>216</ele>
        <time>2015-11-08T10:49:39Z</time>
      </trkpt>
      <trkpt lat="43.22757" lon="5.3799">
        <ele>234</ele>
        <time>2015-11-08T10:49:49Z</time>
      </trkpt>
      <trkpt lat="43.22757" lon="5.37987">
        <ele>241</ele>
        <time>2015-11-08T10:49:58Z</time>
      </trkpt>
      <trkpt lat="43.22764" lon="5.37999">
        <ele>233</ele>
        <time>2015-11-08T10:50:18Z</time>
      </trkpt>
      <trkpt lat="43.22781" lon="5.38009">
        <ele>226</ele>
        <time>2015-11-08T10:50:27Z</time>
      </trkpt>
      <trkpt lat="43.22783" lon="5.38017">
        <ele>217</ele>
        <time>2015-11-08T10:50:36Z</time>
      </trkpt>
      <trkpt lat="43.22782" lon="5.38024">
        <ele>217</ele>
        <time>2015-11-08T10:50:45Z</time>
      </trkpt>
      <trkpt lat="43.22778" lon="5.3803">
        <ele>217</ele>
        <time>2015-11-08T10:50:55Z</time>
      </trkpt>
      <trkpt lat="43.22776" lon="5.3804">
        <ele>217</ele>
        <time>2015-11-08T10:51:04Z</time>
      </trkpt>
      <trkpt lat="43.2277" lon="5.38049">
        <ele>217</ele>
        <time>2015-11-08T10:51:14Z</time>
      </trkpt>
      <trkpt lat="43.2277" lon="5.38048">
        <ele>217</ele>
        <time>2015-11-08T10:51:30Z</time>
      </trkpt>
      <trkpt lat="43.2277" lon="5.3805">
        <ele>217</ele>
        <time>2015-11-08T10:51:46Z</time>
      </trkpt>
      <trkpt lat="43.22772" lon="5.38052">
        <ele>217</ele>
        <time>2015-11-08T10:51:55Z</time>
      </trkpt>
      <trkpt lat="43.22771" lon="5.38052">
        <ele>217</ele>
        <time>2015-11-08T10:52:07Z</time>
      </trkpt>
      <trkpt lat="43.2277" lon="5.38052">
        <ele>217</ele>
        <time>2015-11-08T10:52:18Z</time>
      </trkpt>
      <trkpt lat="43.22769" lon="5.38051">
        <ele>217</ele>
        <time>2015-11-08T10:52:38Z</time>
      </trkpt>
      <trkpt lat="43.2277" lon="5.38052">
        <ele>217</ele>
        <time>2015-11-08T10:52:52Z</time>
      </trkpt>
      <trkpt lat="43.22769" lon="5.3805">
        <ele>217</ele>
        <time>2015-11-08T10:53:01Z</time>
      </trkpt>
      <trkpt lat="43.22768" lon="5.3805">
        <ele>218</ele>
        <time>2015-11-08T10:53:11Z</time>
      </trkpt>
      <trkpt lat="43.22768" lon="5.38052">
        <ele>218</ele>
        <time>2015-11-08T10:53:21Z</time>
      </trkpt>
      <trkpt lat="43.22767" lon="5.38055">
        <ele>218</ele>
        <time>2015-11-08T10:53:31Z</time>
      </trkpt>
      <trkpt lat="43.22764" lon="5.38064">
        <ele>218</ele>
        <time>2015-11-08T10:53:41Z</time>
      </trkpt>
      <trkpt lat="43.22758" lon="5.38074">
        <ele>218</ele>
        <time>2015-11-08T10:53:51Z</time>
      </trkpt>
      <trkpt lat="43.22753" lon="5.38085">
        <ele>218</ele>
        <time>2015-11-08T10:54:01Z</time>
      </trkpt>
      <trkpt lat="43.22747" lon="5.38094">
        <ele>218</ele>
        <time>2015-11-08T10:54:11Z</time>
      </trkpt>
      <trkpt lat="43.22738" lon="5.38096">
        <ele>217</ele>
        <time>2015-11-08T10:54:21Z</time>
      </trkpt>
      <trkpt lat="43.22731" lon="5.38093">
        <ele>216</ele>
        <time>2015-11-08T10:54:31Z</time>
      </trkpt>
      <trkpt lat="43.22726" lon="5.38098">
        <ele>216</ele>
        <time>2015-11-08T10:54:40Z</time>
      </trkpt>
      <trkpt lat="43.22722" lon="5.38105">
        <ele>217</ele>
        <time>2015-11-08T10:54:50Z</time>
      </trkpt>
      <trkpt lat="43.22721" lon="5.38112">
        <ele>220</ele>
        <time>2015-11-08T10:55:00Z</time>
      </trkpt>
      <trkpt lat="43.22718" lon="5.3812">
        <ele>223</ele>
        <time>2015-11-08T10:55:11Z</time>
      </trkpt>
      <trkpt lat="43.22714" lon="5.38125">
        <ele>225</ele>
        <time>2015-11-08T10:55:21Z</time>
      </trkpt>
      <trkpt lat="43.2271" lon="5.38129">
        <ele>226</ele>
        <time>2015-11-08T10:55:32Z</time>
      </trkpt>
      <trkpt lat="43.22707" lon="5.38133">
        <ele>229</ele>
        <time>2015-11-08T10:55:42Z</time>
      </trkpt>
      <trkpt lat="43.22704" lon="5.38141">
        <ele>230</ele>
        <time>2015-11-08T10:55:54Z</time>
      </trkpt>
      <trkpt lat="43.22704" lon="5.38147">
        <ele>231</ele>
        <time>2015-11-08T10:56:05Z</time>
      </trkpt>
      <trkpt lat="43.22701" lon="5.38147">
        <ele>233</ele>
        <time>2015-11-08T10:56:14Z</time>
      </trkpt>
      <trkpt lat="43.22698" lon="5.38145">
        <ele>238</ele>
        <time>2015-11-08T10:56:25Z</time>
      </trkpt>
      <trkpt lat="43.22694" lon="5.38139">
        <ele>242</ele>
        <time>2015-11-08T10:56:34Z</time>
      </trkpt>
      <trkpt lat="43.22689" lon="5.38132">
        <ele>243</ele>
        <time>2015-11-08T10:56:44Z</time>
      </trkpt>
      <trkpt lat="43.22682" lon="5.38128">
        <ele>243</ele>
        <time>2015-11-08T10:56:54Z</time>
      </trkpt>
      <trkpt lat="43.22676" lon="5.38122">
        <ele>243</ele>
        <time>2015-11-08T10:57:05Z</time>
      </trkpt>
      <trkpt lat="43.22671" lon="5.38121">
        <ele>245</ele>
        <time>2015-11-08T10:57:15Z</time>
      </trkpt>
      <trkpt lat="43.22668" lon="5.38114">
        <ele>245</ele>
        <time>2015-11-08T10:57:24Z</time>
      </trkpt>
      <trkpt lat="43.22665" lon="5.38102">
        <ele>245</ele>
        <time>2015-11-08T10:57:34Z</time>
      </trkpt>
      <trkpt lat="43.2266" lon="5.38092">
        <ele>245</ele>
        <time>2015-11-08T10:57:45Z</time>
      </trkpt>
      <trkpt lat="43.22656" lon="5.38083">
        <ele>245</ele>
        <time>2015-11-08T10:57:55Z</time>
      </trkpt>
      <trkpt lat="43.22652" lon="5.38077">
        <ele>245</ele>
        <time>2015-11-08T10:58:05Z</time>
      </trkpt>
      <trkpt lat="43.22645" lon="5.38069">
        <ele>245</ele>
        <time>2015-11-08T10:58:16Z</time>
      </trkpt>
      <trkpt lat="43.2264" lon="5.38057">
        <ele>245</ele>
        <time>2015-11-08T10:58:25Z</time>
      </trkpt>
      <trkpt lat="43.22639" lon="5.38046">
        <ele>245</ele>
        <time>2015-11-08T10:58:34Z</time>
      </trkpt>
      <trkpt lat="43.22636" lon="5.38033">
        <ele>245</ele>
        <time>2015-11-08T10:58:43Z</time>
      </trkpt>
      <trkpt lat="43.22633" lon="5.38022">
        <ele>245</ele>
        <time>2015-11-08T10:58:52Z</time>
      </trkpt>
      <trkpt lat="43.22631" lon="5.38009">
        <ele>245</ele>
        <time>2015-11-08T10:59:01Z</time>
      </trkpt>
      <trkpt lat="43.22626" lon="5.37998">
        <ele>245</ele>
        <time>2015-11-08T10:59:10Z</time>
      </trkpt>
      <trkpt lat="43.22618" lon="5.37995">
        <ele>245</ele>
        <time>2015-11-08T10:59:23Z</time>
      </trkpt>
      <trkpt lat="43.22615" lon="5.37992">
        <ele>245</ele>
        <time>2015-11-08T10:59:33Z</time>
      </trkpt>
      <trkpt lat="43.22608" lon="5.37993">
        <ele>244</ele>
        <time>2015-11-08T10:59:42Z</time>
      </trkpt>
      <trkpt lat="43.22601" lon="5.37988">
        <ele>243</ele>
        <time>2015-11-08T10:59:52Z</time>
      </trkpt>
      <trkpt lat="43.22598" lon="5.37976">
        <ele>243</ele>
        <time>2015-11-08T11:00:01Z</time>
      </trkpt>
      <trkpt lat="43.22595" lon="5.37965">
        <ele>243</ele>
        <time>2015-11-08T11:00:10Z</time>
      </trkpt>
      <trkpt lat="43.22593" lon="5.37953">
        <ele>243</ele>
        <time>2015-11-08T11:00:20Z</time>
      </trkpt>
      <trkpt lat="43.22589" lon="5.37945">
        <ele>243</ele>
        <time>2015-11-08T11:00:29Z</time>
      </trkpt>
      <trkpt lat="43.22586" lon="5.37938">
        <ele>243</ele>
        <time>2015-11-08T11:00:38Z</time>
      </trkpt>
      <trkpt lat="43.2258" lon="5.37934">
        <ele>241</ele>
        <time>2015-11-08T11:00:48Z</time>
      </trkpt>
      <trkpt lat="43.22579" lon="5.37928">
        <ele>240</ele>
        <time>2015-11-08T11:00:58Z</time>
      </trkpt>
      <trkpt lat="43.22576" lon="5.37927">
        <ele>240</ele>
        <time>2015-11-08T11:01:08Z</time>
      </trkpt>
      <trkpt lat="43.2257" lon="5.37924">
        <ele>239</ele>
        <time>2015-11-08T11:01:17Z</time>
      </trkpt>
      <trkpt lat="43.22563" lon="5.37922">
        <ele>238</ele>
        <time>2015-11-08T11:01:26Z</time>
      </trkpt>
      <trkpt lat="43.22557" lon="5.37921">
        <ele>237</ele>
        <time>2015-11-08T11:01:35Z</time>
      </trkpt>
      <trkpt lat="43.22549" lon="5.3792">
        <ele>236</ele>
        <time>2015-11-08T11:01:45Z</time>
      </trkpt>
      <trkpt lat="43.22542" lon="5.37919">
        <ele>234</ele>
        <time>2015-11-08T11:01:55Z</time>
      </trkpt>
      <trkpt lat="43.22537" lon="5.37916">
        <ele>231</ele>
        <time>2015-11-08T11:02:06Z</time>
      </trkpt>
      <trkpt lat="43.22528" lon="5.37913">
        <ele>229</ele>
        <time>2015-11-08T11:02:16Z</time>
      </trkpt>
      <trkpt lat="43.2252" lon="5.37914">
        <ele>227</ele>
        <time>2015-11-08T11:02:26Z</time>
      </trkpt>
      <trkpt lat="43.22514" lon="5.37918">
        <ele>225</ele>
        <time>2015-11-08T11:02:35Z</time>
      </trkpt>
      <trkpt lat="43.22507" lon="5.37926">
        <ele>225</ele>
        <time>2015-11-08T11:02:45Z</time>
      </trkpt>
      <trkpt lat="43.225" lon="5.37935">
        <ele>225</ele>
        <time>2015-11-08T11:02:55Z</time>
      </trkpt>
      <trkpt lat="43.2249" lon="5.37941">
        <ele>225</ele>
        <time>2015-11-08T11:03:04Z</time>
      </trkpt>
      <trkpt lat="43.22482" lon="5.37932">
        <ele>225</ele>
        <time>2015-11-08T11:03:13Z</time>
      </trkpt>
      <trkpt lat="43.22474" lon="5.37923">
        <ele>225</ele>
        <time>2015-11-08T11:03:22Z</time>
      </trkpt>
      <trkpt lat="43.22464" lon="5.37922">
        <ele>225</ele>
        <time>2015-11-08T11:03:31Z</time>
      </trkpt>
      <trkpt lat="43.22459" lon="5.37916">
        <ele>225</ele>
        <time>2015-11-08T11:03:40Z</time>
      </trkpt>
      <trkpt lat="43.22455" lon="5.3791">
        <ele>225</ele>
        <time>2015-11-08T11:03:49Z</time>
      </trkpt>
      <trkpt lat="43.22449" lon="5.37902">
        <ele>225</ele>
        <time>2015-11-08T11:03:59Z</time>
      </trkpt>
      <trkpt lat="43.22442" lon="5.37893">
        <ele>225</ele>
        <time>2015-11-08T11:04:08Z</time>
      </trkpt>
      <trkpt lat="43.22434" lon="5.37886">
        <ele>225</ele>
        <time>2015-11-08T11:04:19Z</time>
      </trkpt>
      <trkpt lat="43.2243" lon="5.37877">
        <ele>225</ele>
        <time>2015-11-08T11:04:28Z</time>
      </trkpt>
      <trkpt lat="43.22427" lon="5.37871">
        <ele>228</ele>
        <time>2015-11-08T11:04:38Z</time>
      </trkpt>
      <trkpt lat="43.22423" lon="5.37868">
        <ele>234</ele>
        <time>2015-11-08T11:04:47Z</time>
      </trkpt>
      <trkpt lat="43.22419" lon="5.37862">
        <ele>240</ele>
        <time>2015-11-08T11:04:58Z</time>
      </trkpt>
      <trkpt lat="43.22414" lon="5.37857">
        <ele>243</ele>
        <time>2015-11-08T11:05:07Z</time>
      </trkpt>
      <trkpt lat="43.22413" lon="5.37855">
        <ele>243</ele>
        <time>2015-11-08T11:05:19Z</time>
      </trkpt>
      <trkpt lat="43.22408" lon="5.37853">
        <ele>243</ele>
        <time>2015-11-08T11:05:30Z</time>
      </trkpt>
      <trkpt lat="43.22407" lon="5.37849">
        <ele>243</ele>
        <time>2015-11-08T11:05:40Z</time>
      </trkpt>
      <trkpt lat="43.22406" lon="5.3785">
        <ele>243</ele>
        <time>2015-11-08T11:05:49Z</time>
      </trkpt>
      <trkpt lat="43.22408" lon="5.37849">
        <ele>245</ele>
        <time>2015-11-08T11:06:05Z</time>
      </trkpt>
      <trkpt lat="43.22407" lon="5.3785">
        <ele>245</ele>
        <time>2015-11-08T11:06:18Z</time>
      </trkpt>
      <trkpt lat="43.22406" lon="5.37851">
        <ele>245</ele>
        <time>2015-11-08T11:06:27Z</time>
      </trkpt>
      <trkpt lat="43.22406" lon="5.3786">
        <ele>246</ele>
        <time>2015-11-08T11:06:38Z</time>
      </trkpt>
      <trkpt lat="43.22406" lon="5.3787">
        <ele>246</ele>
        <time>2015-11-08T11:06:48Z</time>
      </trkpt>
      <trkpt lat="43.22405" lon="5.37878">
        <ele>246</ele>
        <time>2015-11-08T11:06:58Z</time>
      </trkpt>
      <trkpt lat="43.22402" lon="5.37888">
        <ele>246</ele>
        <time>2015-11-08T11:07:08Z</time>
      </trkpt>
      <trkpt lat="43.22396" lon="5.37897">
        <ele>246</ele>
        <time>2015-11-08T11:07:18Z</time>
      </trkpt>
      <trkpt lat="43.22395" lon="5.37904">
        <ele>246</ele>
        <time>2015-11-08T11:07:28Z</time>
      </trkpt>
      <trkpt lat="43.22391" lon="5.3791">
        <ele>246</ele>
        <time>2015-11-08T11:07:37Z</time>
      </trkpt>
      <trkpt lat="43.22388" lon="5.37906">
        <ele>247</ele>
        <time>2015-11-08T11:07:46Z</time>
      </trkpt>
      <trkpt lat="43.22383" lon="5.37899">
        <ele>247</ele>
        <time>2015-11-08T11:07:56Z</time>
      </trkpt>
      <trkpt lat="43.22381" lon="5.37904">
        <ele>249</ele>
        <time>2015-11-08T11:08:05Z</time>
      </trkpt>
      <trkpt lat="43.22379" lon="5.37913">
        <ele>249</ele>
        <time>2015-11-08T11:08:15Z</time>
      </trkpt>
      <trkpt lat="43.22378" lon="5.37908">
        <ele>250</ele>
        <time>2015-11-08T11:08:25Z</time>
      </trkpt>
      <trkpt lat="43.22372" lon="5.37902">
        <ele>252</ele>
        <time>2015-11-08T11:08:37Z</time>
      </trkpt>
      <trkpt lat="43.22372" lon="5.37897">
        <ele>253</ele>
        <time>2015-11-08T11:08:47Z</time>
      </trkpt>
      <trkpt lat="43.22369" lon="5.37891">
        <ele>255</ele>
        <time>2015-11-08T11:08:57Z</time>
      </trkpt>
      <trkpt lat="43.22369" lon="5.37883">
        <ele>258</ele>
        <time>2015-11-08T11:09:08Z</time>
      </trkpt>
      <trkpt lat="43.22369" lon="5.37878">
        <ele>261</ele>
        <time>2015-11-08T11:09:17Z</time>
      </trkpt>
      <trkpt lat="43.22367" lon="5.37878">
        <ele>264</ele>
        <time>2015-11-08T11:09:29Z</time>
      </trkpt>
      <trkpt lat="43.22366" lon="5.37879">
        <ele>264</ele>
        <time>2015-11-08T11:09:47Z</time>
      </trkpt>
      <trkpt lat="43.22366" lon="5.37879">
        <ele>264</ele>
        <time>2015-11-08T11:10:10Z</time>
      </trkpt>
      <trkpt lat="43.22366" lon="5.37877">
        <ele>265</ele>
        <time>2015-11-08T11:10:34Z</time>
      </trkpt>
      <trkpt lat="43.22364" lon="5.37876">
        <ele>265</ele>
        <time>2015-11-08T11:11:03Z</time>
      </trkpt>
      <trkpt lat="43.2236" lon="5.37873">
        <ele>265</ele>
        <time>2015-11-08T11:11:13Z</time>
      </trkpt>
      <trkpt lat="43.22358" lon="5.37868">
        <ele>266</ele>
        <time>2015-11-08T11:11:24Z</time>
      </trkpt>
      <trkpt lat="43.22355" lon="5.37863">
        <ele>267</ele>
        <time>2015-11-08T11:11:34Z</time>
      </trkpt>
      <trkpt lat="43.22351" lon="5.3786">
        <ele>269</ele>
        <time>2015-11-08T11:11:44Z</time>
      </trkpt>
      <trkpt lat="43.22347" lon="5.37856">
        <ele>271</ele>
        <time>2015-11-08T11:11:54Z</time>
      </trkpt>
      <trkpt lat="43.22344" lon="5.37847">
        <ele>273</ele>
        <time>2015-11-08T11:12:04Z</time>
      </trkpt>
      <trkpt lat="43.22345" lon="5.3784">
        <ele>273</ele>
        <time>2015-11-08T11:12:16Z</time>
      </trkpt>
      <trkpt lat="43.22345" lon="5.37848">
        <ele>273</ele>
        <time>2015-11-08T11:12:25Z</time>
      </trkpt>
      <trkpt lat="43.22346" lon="5.37859">
        <ele>273</ele>
        <time>2015-11-08T11:12:35Z</time>
      </trkpt>
      <trkpt lat="43.22347" lon="5.37869">
        <ele>273</ele>
        <time>2015-11-08T11:12:45Z</time>
      </trkpt>
      <trkpt lat="43.22347" lon="5.37877">
        <ele>273</ele>
        <time>2015-11-08T11:12:54Z</time>
      </trkpt>
      <trkpt lat="43.22346" lon="5.37887">
        <ele>273</ele>
        <time>2015-11-08T11:13:04Z</time>
      </trkpt>
      <trkpt lat="43.2234" lon="5.37897">
        <ele>273</ele>
        <time>2015-11-08T11:13:13Z</time>
      </trkpt>
      <trkpt lat="43.22335" lon="5.37908">
        <ele>273</ele>
        <time>2015-11-08T11:13:22Z</time>
      </trkpt>
      <trkpt lat="43.2233" lon="5.37917">
        <ele>273</ele>
        <time>2015-11-08T11:13:31Z</time>
      </trkpt>
      <trkpt lat="43.22327" lon="5.37929">
        <ele>273</ele>
        <time>2015-11-08T11:13:41Z</time>
      </trkpt>
      <trkpt lat="43.22326" lon="5.37941">
        <ele>273</ele>
        <time>2015-11-08T11:13:50Z</time>
      </trkpt>
      <trkpt lat="43.22325" lon="5.37953">
        <ele>273</ele>
        <time>2015-11-08T11:14:00Z</time>
      </trkpt>
      <trkpt lat="43.22324" lon="5.37961">
        <ele>273</ele>
        <time>2015-11-08T11:14:10Z</time>
      </trkpt>
      <trkpt lat="43.22323" lon="5.37976">
        <ele>273</ele>
        <time>2015-11-08T11:14:19Z</time>
      </trkpt>
      <trkpt lat="43.22323" lon="5.37989">
        <ele>273</ele>
        <time>2015-11-08T11:14:28Z</time>
      </trkpt>
      <trkpt lat="43.22324" lon="5.38001">
        <ele>274</ele>
        <time>2015-11-08T11:14:37Z</time>
      </trkpt>
      <trkpt lat="43.22323" lon="5.38008">
        <ele>275</ele>
        <time>2015-11-08T11:14:47Z</time>
      </trkpt>
      <trkpt lat="43.22317" lon="5.38021">
        <ele>276</ele>
        <time>2015-11-08T11:14:57Z</time>
      </trkpt>
      <trkpt lat="43.22314" lon="5.38028">
        <ele>277</ele>
        <time>2015-11-08T11:15:07Z</time>
      </trkpt>
      <trkpt lat="43.22312" lon="5.38035">
        <ele>277</ele>
        <time>2015-11-08T11:15:16Z</time>
      </trkpt>
      <trkpt lat="43.22307" lon="5.38045">
        <ele>277</ele>
        <time>2015-11-08T11:15:25Z</time>
      </trkpt>
      <trkpt lat="43.22301" lon="5.38054">
        <ele>278</ele>
        <time>2015-11-08T11:15:36Z</time>
      </trkpt>
      <trkpt lat="43.223" lon="5.38063">
        <ele>279</ele>
        <time>2015-11-08T11:15:45Z</time>
      </trkpt>
      <trkpt lat="43.22294" lon="5.38075">
        <ele>279</ele>
        <time>2015-11-08T11:15:56Z</time>
      </trkpt>
      <trkpt lat="43.22292" lon="5.38087">
        <ele>282</ele>
        <time>2015-11-08T11:16:06Z</time>
      </trkpt>
      <trkpt lat="43.22291" lon="5.38097">
        <ele>282</ele>
        <time>2015-11-08T11:16:16Z</time>
      </trkpt>
      <trkpt lat="43.22288" lon="5.38106">
        <ele>284</ele>
        <time>2015-11-08T11:16:27Z</time>
      </trkpt>
      <trkpt lat="43.22282" lon="5.38109">
        <ele>285</ele>
        <time>2015-11-08T11:16:37Z</time>
      </trkpt>
      <trkpt lat="43.2228" lon="5.38117">
        <ele>285</ele>
        <time>2015-11-08T11:16:46Z</time>
      </trkpt>
      <trkpt lat="43.22279" lon="5.38124">
        <ele>287</ele>
        <time>2015-11-08T11:16:56Z</time>
      </trkpt>
      <trkpt lat="43.22279" lon="5.38132">
        <ele>289</ele>
        <time>2015-11-08T11:17:06Z</time>
      </trkpt>
      <trkpt lat="43.22279" lon="5.38141">
        <ele>291</ele>
        <time>2015-11-08T11:17:16Z</time>
      </trkpt>
      <trkpt lat="43.2228" lon="5.38151">
        <ele>294</ele>
        <time>2015-11-08T11:17:27Z</time>
      </trkpt>
      <trkpt lat="43.2228" lon="5.38158">
        <ele>295</ele>
        <time>2015-11-08T11:17:37Z</time>
      </trkpt>
      <trkpt lat="43.22282" lon="5.38167">
        <ele>295</ele>
        <time>2015-11-08T11:17:47Z</time>
      </trkpt>
      <trkpt lat="43.22284" lon="5.38175">
        <ele>298</ele>
        <time>2015-11-08T11:17:57Z</time>
      </trkpt>
      <trkpt lat="43.22288" lon="5.38184">
        <ele>302</ele>
        <time>2015-11-08T11:18:09Z</time>
      </trkpt>
      <trkpt lat="43.22283" lon="5.38187">
        <ele>304</ele>
        <time>2015-11-08T11:18:20Z</time>
      </trkpt>
      <trkpt lat="43.22277" lon="5.3819">
        <ele>304</ele>
        <time>2015-11-08T11:18:31Z</time>
      </trkpt>
      <trkpt lat="43.22282" lon="5.38194">
        <ele>304</ele>
        <time>2015-11-08T11:18:42Z</time>
      </trkpt>
      <trkpt lat="43.22292" lon="5.3819">
        <ele>304</ele>
        <time>2015-11-08T11:18:53Z</time>
      </trkpt>
      <trkpt lat="43.22297" lon="5.38194">
        <ele>304</ele>
        <time>2015-11-08T11:19:03Z</time>
      </trkpt>
      <trkpt lat="43.22303" lon="5.38196">
        <ele>304</ele>
        <time>2015-11-08T11:19:12Z</time>
      </trkpt>
      <trkpt lat="43.22304" lon="5.382">
        <ele>304</ele>
        <time>2015-11-08T11:19:26Z</time>
      </trkpt>
      <trkpt lat="43.22305" lon="5.38206">
        <ele>304</ele>
        <time>2015-11-08T11:19:41Z</time>
      </trkpt>
      <trkpt lat="43.22306" lon="5.38209">
        <ele>306</ele>
        <time>2015-11-08T11:19:51Z</time>
      </trkpt>
      <trkpt lat="43.22308" lon="5.3821">
        <ele>307</ele>
        <time>2015-11-08T11:20:03Z</time>
      </trkpt>
      <trkpt lat="43.22308" lon="5.38214">
        <ele>312</ele>
        <time>2015-11-08T11:20:16Z</time>
      </trkpt>
      <trkpt lat="43.22313" lon="5.3821">
        <ele>314</ele>
        <time>2015-11-08T11:20:26Z</time>
      </trkpt>
      <trkpt lat="43.22317" lon="5.38207">
        <ele>317</ele>
        <time>2015-11-08T11:20:36Z</time>
      </trkpt>
      <trkpt lat="43.22322" lon="5.38206">
        <ele>320</ele>
        <time>2015-11-08T11:20:51Z</time>
      </trkpt>
      <trkpt lat="43.22324" lon="5.38208">
        <ele>322</ele>
        <time>2015-11-08T11:21:04Z</time>
      </trkpt>
      <trkpt lat="43.22328" lon="5.38213">
        <ele>322</ele>
        <time>2015-11-08T11:21:16Z</time>
      </trkpt>
      <trkpt lat="43.22328" lon="5.38214">
        <ele>324</ele>
        <time>2015-11-08T11:21:31Z</time>
      </trkpt>
      <trkpt lat="43.22328" lon="5.38219">
        <ele>325</ele>
        <time>2015-11-08T11:21:40Z</time>
      </trkpt>
      <trkpt lat="43.22324" lon="5.38225">
        <ele>325</ele>
        <time>2015-11-08T11:21:51Z</time>
      </trkpt>
      <trkpt lat="43.22323" lon="5.38231">
        <ele>328</ele>
        <time>2015-11-08T11:22:03Z</time>
      </trkpt>
      <trkpt lat="43.22321" lon="5.38237">
        <ele>331</ele>
        <time>2015-11-08T11:22:15Z</time>
      </trkpt>
      <trkpt lat="43.22324" lon="5.38242">
        <ele>333</ele>
        <time>2015-11-08T11:22:27Z</time>
      </trkpt>
      <trkpt lat="43.22328" lon="5.38245">
        <ele>334</ele>
        <time>2015-11-08T11:22:37Z</time>
      </trkpt>
      <trkpt lat="43.22325" lon="5.38248">
        <ele>337</ele>
        <time>2015-11-08T11:22:46Z</time>
      </trkpt>
      <trkpt lat="43.22325" lon="5.38252">
        <ele>338</ele>
        <time>2015-11-08T11:22:55Z</time>
      </trkpt>
      <trkpt lat="43.22327" lon="5.38256">
        <ele>340</ele>
        <time>2015-11-08T11:23:06Z</time>
      </trkpt>
      <trkpt lat="43.22329" lon="5.3826">
        <ele>342</ele>
        <time>2015-11-08T11:23:15Z</time>
      </trkpt>
      <trkpt lat="43.2233" lon="5.38265">
        <ele>345</ele>
        <time>2015-11-08T11:23:26Z</time>
      </trkpt>
      <trkpt lat="43.22328" lon="5.38269">
        <ele>347</ele>
        <time>2015-11-08T11:23:36Z</time>
      </trkpt>
      <trkpt lat="43.2233" lon="5.38276">
        <ele>349</ele>
        <time>2015-11-08T11:23:49Z</time>
      </trkpt>
      <trkpt lat="43.22331" lon="5.38282">
        <ele>350</ele>
        <time>2015-11-08T11:24:00Z</time>
      </trkpt>
      <trkpt lat="43.22333" lon="5.38288">
        <ele>351</ele>
        <time>2015-11-08T11:24:14Z</time>
      </trkpt>
      <trkpt lat="43.22334" lon="5.38292">
        <ele>352</ele>
        <time>2015-11-08T11:24:28Z</time>
      </trkpt>
      <trkpt lat="43.22337" lon="5.38296">
        <ele>352</ele>
        <time>2015-11-08T11:24:38Z</time>
      </trkpt>
      <trkpt lat="43.22337" lon="5.38299">
        <ele>352</ele>
        <time>2015-11-08T11:24:47Z</time>
      </trkpt>
      <trkpt lat="43.22338" lon="5.38301">
        <ele>353</ele>
        <time>2015-11-08T11:25:00Z</time>
      </trkpt>
      <trkpt lat="43.22337" lon="5.38305">
        <ele>354</ele>
        <time>2015-11-08T11:25:10Z</time>
      </trkpt>
      <trkpt lat="43.22337" lon="5.38308">
        <ele>355</ele>
        <time>2015-11-08T11:25:19Z</time>
      </trkpt>
      <trkpt lat="43.22335" lon="5.38309">
        <ele>357</ele>
        <time>2015-11-08T11:25:29Z</time>
      </trkpt>
      <trkpt lat="43.22336" lon="5.38313">
        <ele>358</ele>
        <time>2015-11-08T11:25:41Z</time>
      </trkpt>
      <trkpt lat="43.22337" lon="5.38319">
        <ele>361</ele>
        <time>2015-11-08T11:25:51Z</time>
      </trkpt>
      <trkpt lat="43.22338" lon="5.38324">
        <ele>363</ele>
        <time>2015-11-08T11:26:02Z</time>
      </trkpt>
      <trkpt lat="43.22338" lon="5.38329">
        <ele>365</ele>
        <time>2015-11-08T11:26:13Z</time>
      </trkpt>
      <trkpt lat="43.22342" lon="5.38332">
        <ele>366</ele>
        <time>2015-11-08T11:26:22Z</time>
      </trkpt>
      <trkpt lat="43.22348" lon="5.38337">
        <ele>367</ele>
        <time>2015-11-08T11:26:33Z</time>
      </trkpt>
      <trkpt lat="43.2235" lon="5.38342">
        <ele>369</ele>
        <time>2015-11-08T11:26:45Z</time>
      </trkpt>
      <trkpt lat="43.22348" lon="5.38348">
        <ele>370</ele>
        <time>2015-11-08T11:26:55Z</time>
      </trkpt>
      <trkpt lat="43.22343" lon="5.38351">
        <ele>370</ele>
        <time>2015-11-08T11:27:06Z</time>
      </trkpt>
      <trkpt lat="43.22338" lon="5.38349">
        <ele>371</ele>
        <time>2015-11-08T11:27:20Z</time>
      </trkpt>
      <trkpt lat="43.22337" lon="5.38349">
        <ele>373</ele>
        <time>2015-11-08T11:28:02Z</time>
      </trkpt>
      <trkpt lat="43.22338" lon="5.38349">
        <ele>373</ele>
        <time>2015-11-08T11:28:16Z</time>
      </trkpt>
      <trkpt lat="43.22338" lon="5.38351">
        <ele>373</ele>
        <time>2015-11-08T11:28:33Z</time>
      </trkpt>
      <trkpt lat="43.2234" lon="5.38348">
        <ele>373</ele>
        <time>2015-11-08T11:29:08Z</time>
      </trkpt>
      <trkpt lat="43.22338" lon="5.38347">
        <ele>373</ele>
        <time>2015-11-08T11:29:39Z</time>
      </trkpt>
      <trkpt lat="43.22335" lon="5.38354">
        <ele>373</ele>
        <time>2015-11-08T11:29:49Z</time>
      </trkpt>
      <trkpt lat="43.22335" lon="5.38366">
        <ele>373</ele>
        <time>2015-11-08T11:29:59Z</time>
      </trkpt>
      <trkpt lat="43.22334" lon="5.38377">
        <ele>373</ele>
        <time>2015-11-08T11:30:09Z</time>
      </trkpt>
      <trkpt lat="43.22335" lon="5.38387">
        <ele>373</ele>
        <time>2015-11-08T11:30:19Z</time>
      </trkpt>
      <trkpt lat="43.22335" lon="5.38398">
        <ele>373</ele>
        <time>2015-11-08T11:30:29Z</time>
      </trkpt>
      <trkpt lat="43.22335" lon="5.38407">
        <ele>373</ele>
        <time>2015-11-08T11:30:38Z</time>
      </trkpt>
      <trkpt lat="43.22335" lon="5.38417">
        <ele>372</ele>
        <time>2015-11-08T11:30:48Z</time>
      </trkpt>
      <trkpt lat="43.22329" lon="5.38428">
        <ele>371</ele>
        <time>2015-11-08T11:30:58Z</time>
      </trkpt>
      <trkpt lat="43.22324" lon="5.3844">
        <ele>369</ele>
        <time>2015-11-08T11:31:08Z</time>
      </trkpt>
      <trkpt lat="43.22319" lon="5.38452">
        <ele>368</ele>
        <time>2015-11-08T11:31:18Z</time>
      </trkpt>
      <trkpt lat="43.22313" lon="5.38463">
        <ele>366</ele>
        <time>2015-11-08T11:31:28Z</time>
      </trkpt>
      <trkpt lat="43.22311" lon="5.38471">
        <ele>365</ele>
        <time>2015-11-08T11:31:37Z</time>
      </trkpt>
      <trkpt lat="43.22307" lon="5.38481">
        <ele>364</ele>
        <time>2015-11-08T11:31:47Z</time>
      </trkpt>
      <trkpt lat="43.22303" lon="5.3849">
        <ele>364</ele>
        <time>2015-11-08T11:31:57Z</time>
      </trkpt>
      <trkpt lat="43.223" lon="5.38498">
        <ele>362</ele>
        <time>2015-11-08T11:32:06Z</time>
      </trkpt>
      <trkpt lat="43.22293" lon="5.38506">
        <ele>360</ele>
        <time>2015-11-08T11:32:16Z</time>
      </trkpt>
      <trkpt lat="43.22291" lon="5.38517">
        <ele>360</ele>
        <time>2015-11-08T11:32:26Z</time>
      </trkpt>
      <trkpt lat="43.22283" lon="5.38527">
        <ele>360</ele>
        <time>2015-11-08T11:32:36Z</time>
      </trkpt>
      <trkpt lat="43.22274" lon="5.38534">
        <ele>359</ele>
        <time>2015-11-08T11:32:46Z</time>
      </trkpt>
      <trkpt lat="43.22271" lon="5.38545">
        <ele>358</ele>
        <time>2015-11-08T11:32:55Z</time>
      </trkpt>
      <trkpt lat="43.22266" lon="5.38552">
        <ele>358</ele>
        <time>2015-11-08T11:33:05Z</time>
      </trkpt>
      <trkpt lat="43.22263" lon="5.38562">
        <ele>358</ele>
        <time>2015-11-08T11:33:14Z</time>
      </trkpt>
      <trkpt lat="43.22258" lon="5.38574">
        <ele>357</ele>
        <time>2015-11-08T11:33:24Z</time>
      </trkpt>
      <trkpt lat="43.22255" lon="5.38585">
        <ele>356</ele>
        <time>2015-11-08T11:33:34Z</time>
      </trkpt>
      <trkpt lat="43.22248" lon="5.38595">
        <ele>356</ele>
        <time>2015-11-08T11:33:44Z</time>
      </trkpt>
      <trkpt lat="43.22243" lon="5.38607">
        <ele>356</ele>
        <time>2015-11-08T11:33:54Z</time>
      </trkpt>
      <trkpt lat="43.22238" lon="5.38618">
        <ele>355</ele>
        <time>2015-11-08T11:34:04Z</time>
      </trkpt>
      <trkpt lat="43.22232" lon="5.38628">
        <ele>354</ele>
        <time>2015-11-08T11:34:14Z</time>
      </trkpt>
      <trkpt lat="43.22229" lon="5.38637">
        <ele>353</ele>
        <time>2015-11-08T11:34:23Z</time>
      </trkpt>
      <trkpt lat="43.22222" lon="5.38644">
        <ele>352</ele>
        <time>2015-11-08T11:34:33Z</time>
      </trkpt>
      <trkpt lat="43.22215" lon="5.38649">
        <ele>351</ele>
        <time>2015-11-08T11:34:42Z</time>
      </trkpt>
      <trkpt lat="43.22205" lon="5.38658">
        <ele>350</ele>
        <time>2015-11-08T11:34:52Z</time>
      </trkpt>
      <trkpt lat="43.22196" lon="5.3866">
        <ele>349</ele>
        <time>2015-11-08T11:35:01Z</time>
      </trkpt>
      <trkpt lat="43.22187" lon="5.38669">
        <ele>348</ele>
        <time>2015-11-08T11:35:11Z</time>
      </trkpt>
      <trkpt lat="43.22181" lon="5.3868">
        <ele>348</ele>
        <time>2015-11-08T11:35:21Z</time>
      </trkpt>
      <trkpt lat="43.22176" lon="5.3869">
        <ele>347</ele>
        <time>2015-11-08T11:35:30Z</time>
      </trkpt>
      <trkpt lat="43.22172" lon="5.38694">
        <ele>347</ele>
        <time>2015-11-08T11:35:39Z</time>
      </trkpt>
      <trkpt lat="43.22164" lon="5.38701">
        <ele>347</ele>
        <time>2015-11-08T11:35:49Z</time>
      </trkpt>
      <trkpt lat="43.22155" lon="5.38703">
        <ele>347</ele>
        <time>2015-11-08T11:35:58Z</time>
      </trkpt>
      <trkpt lat="43.22147" lon="5.3871">
        <ele>347</ele>
        <time>2015-11-08T11:36:07Z</time>
      </trkpt>
      <trkpt lat="43.22142" lon="5.38717">
        <ele>347</ele>
        <time>2015-11-08T11:36:16Z</time>
      </trkpt>
      <trkpt lat="43.22135" lon="5.38724">
        <ele>347</ele>
        <time>2015-11-08T11:36:26Z</time>
      </trkpt>
      <trkpt lat="43.22128" lon="5.38728">
        <ele>347</ele>
        <time>2015-11-08T11:36:36Z</time>
      </trkpt>
      <trkpt lat="43.22121" lon="5.38735">
        <ele>347</ele>
        <time>2015-11-08T11:36:46Z</time>
      </trkpt>
      <trkpt lat="43.22115" lon="5.38739">
        <ele>347</ele>
        <time>2015-11-08T11:36:56Z</time>
      </trkpt>
      <trkpt lat="43.22108" lon="5.38747">
        <ele>347</ele>
        <time>2015-11-08T11:37:06Z</time>
      </trkpt>
      <trkpt lat="43.22102" lon="5.38755">
        <ele>347</ele>
        <time>2015-11-08T11:37:16Z</time>
      </trkpt>
      <trkpt lat="43.22096" lon="5.38758">
        <ele>347</ele>
        <time>2015-11-08T11:37:25Z</time>
      </trkpt>
      <trkpt lat="43.22088" lon="5.38763">
        <ele>347</ele>
        <time>2015-11-08T11:37:35Z</time>
      </trkpt>
      <trkpt lat="43.22081" lon="5.38765">
        <ele>347</ele>
        <time>2015-11-08T11:37:45Z</time>
      </trkpt>
      <trkpt lat="43.22073" lon="5.38765">
        <ele>347</ele>
        <time>2015-11-08T11:37:55Z</time>
      </trkpt>
      <trkpt lat="43.22065" lon="5.38766">
        <ele>347</ele>
        <time>2015-11-08T11:38:05Z</time>
      </trkpt>
      <trkpt lat="43.22057" lon="5.38767">
        <ele>347</ele>
        <time>2015-11-08T11:38:15Z</time>
      </trkpt>
      <trkpt lat="43.2205" lon="5.38768">
        <ele>347</ele>
        <time>2015-11-08T11:38:25Z</time>
      </trkpt>
      <trkpt lat="43.22042" lon="5.38765">
        <ele>347</ele>
        <time>2015-11-08T11:38:35Z</time>
      </trkpt>
      <trkpt lat="43.22033" lon="5.38765">
        <ele>348</ele>
        <time>2015-11-08T11:38:45Z</time>
      </trkpt>
      <trkpt lat="43.22024" lon="5.38768">
        <ele>349</ele>
        <time>2015-11-08T11:38:55Z</time>
      </trkpt>
      <trkpt lat="43.22017" lon="5.38772">
        <ele>350</ele>
        <time>2015-11-08T11:39:05Z</time>
      </trkpt>
      <trkpt lat="43.2201" lon="5.38772">
        <ele>351</ele>
        <time>2015-11-08T11:39:15Z</time>
      </trkpt>
      <trkpt lat="43.22004" lon="5.38772">
        <ele>352</ele>
        <time>2015-11-08T11:39:26Z</time>
      </trkpt>
      <trkpt lat="43.21998" lon="5.38775">
        <ele>353</ele>
        <time>2015-11-08T11:39:35Z</time>
      </trkpt>
      <trkpt lat="43.21994" lon="5.3878">
        <ele>353</ele>
        <time>2015-11-08T11:39:44Z</time>
      </trkpt>
      <trkpt lat="43.21989" lon="5.38785">
        <ele>353</ele>
        <time>2015-11-08T11:39:53Z</time>
      </trkpt>
      <trkpt lat="43.21981" lon="5.3879">
        <ele>353</ele>
        <time>2015-11-08T11:40:03Z</time>
      </trkpt>
      <trkpt lat="43.21976" lon="5.38795">
        <ele>354</ele>
        <time>2015-11-08T11:40:13Z</time>
      </trkpt>
      <trkpt lat="43.21974" lon="5.388">
        <ele>354</ele>
        <time>2015-11-08T11:40:22Z</time>
      </trkpt>
      <trkpt lat="43.21968" lon="5.38803">
        <ele>354</ele>
        <time>2015-11-08T11:40:31Z</time>
      </trkpt>
      <trkpt lat="43.21963" lon="5.3881">
        <ele>354</ele>
        <time>2015-11-08T11:40:41Z</time>
      </trkpt>
      <trkpt lat="43.21959" lon="5.38809">
        <ele>355</ele>
        <time>2015-11-08T11:40:51Z</time>
      </trkpt>
      <trkpt lat="43.21954" lon="5.3881">
        <ele>357</ele>
        <time>2015-11-08T11:41:01Z</time>
      </trkpt>
      <trkpt lat="43.2195" lon="5.38811">
        <ele>358</ele>
        <time>2015-11-08T11:41:12Z</time>
      </trkpt>
      <trkpt lat="43.21946" lon="5.38813">
        <ele>360</ele>
        <time>2015-11-08T11:41:22Z</time>
      </trkpt>
      <trkpt lat="43.21944" lon="5.38812">
        <ele>364</ele>
        <time>2015-11-08T11:41:46Z</time>
      </trkpt>
      <trkpt lat="43.2194" lon="5.38812">
        <ele>367</ele>
        <time>2015-11-08T11:41:56Z</time>
      </trkpt>
      <trkpt lat="43.21935" lon="5.38817">
        <ele>368</ele>
        <time>2015-11-08T11:42:06Z</time>
      </trkpt>
      <trkpt lat="43.21931" lon="5.38827">
        <ele>368</ele>
        <time>2015-11-08T11:42:16Z</time>
      </trkpt>
      <trkpt lat="43.21928" lon="5.3884">
        <ele>368</ele>
        <time>2015-11-08T11:42:26Z</time>
      </trkpt>
      <trkpt lat="43.21925" lon="5.38849">
        <ele>368</ele>
        <time>2015-11-08T11:42:35Z</time>
      </trkpt>
      <trkpt lat="43.2192" lon="5.38855">
        <ele>368</ele>
        <time>2015-11-08T11:42:45Z</time>
      </trkpt>
      <trkpt lat="43.21914" lon="5.38863">
        <ele>368</ele>
        <time>2015-11-08T11:42:55Z</time>
      </trkpt>
      <trkpt lat="43.21909" lon="5.38871">
        <ele>368</ele>
        <time>2015-11-08T11:43:05Z</time>
      </trkpt>
      <trkpt lat="43.21907" lon="5.38882">
        <ele>368</ele>
        <time>2015-11-08T11:43:15Z</time>
      </trkpt>
      <trkpt lat="43.21904" lon="5.38885">
        <ele>368</ele>
        <time>2015-11-08T11:43:25Z</time>
      </trkpt>
      <trkpt lat="43.21899" lon="5.38891">
        <ele>369</ele>
        <time>2015-11-08T11:43:34Z</time>
      </trkpt>
      <trkpt lat="43.21894" lon="5.38895">
        <ele>371</ele>
        <time>2015-11-08T11:43:43Z</time>
      </trkpt>
      <trkpt lat="43.2189" lon="5.38902">
        <ele>372</ele>
        <time>2015-11-08T11:43:52Z</time>
      </trkpt>
      <trkpt lat="43.21886" lon="5.38911">
        <ele>373</ele>
        <time>2015-11-08T11:44:02Z</time>
      </trkpt>
      <trkpt lat="43.21883" lon="5.38923">
        <ele>374</ele>
        <time>2015-11-08T11:44:12Z</time>
      </trkpt>
      <trkpt lat="43.21877" lon="5.3893">
        <ele>375</ele>
        <time>2015-11-08T11:44:21Z</time>
      </trkpt>
      <trkpt lat="43.21872" lon="5.38939">
        <ele>375</ele>
        <time>2015-11-08T11:44:30Z</time>
      </trkpt>
      <trkpt lat="43.21866" lon="5.3895">
        <ele>376</ele>
        <time>2015-11-08T11:44:40Z</time>
      </trkpt>
      <trkpt lat="43.21859" lon="5.38959">
        <ele>377</ele>
        <time>2015-11-08T11:44:50Z</time>
      </trkpt>
      <trkpt lat="43.21849" lon="5.38963">
        <ele>377</ele>
        <time>2015-11-08T11:45:00Z</time>
      </trkpt>
      <trkpt lat="43.2185" lon="5.38975">
        <ele>378</ele>
        <time>2015-11-08T11:45:09Z</time>
      </trkpt>
      <trkpt lat="43.21846" lon="5.38988">
        <ele>378</ele>
        <time>2015-11-08T11:45:18Z</time>
      </trkpt>
      <trkpt lat="43.21844" lon="5.39002">
        <ele>378</ele>
        <time>2015-11-08T11:45:27Z</time>
      </trkpt>
      <trkpt lat="43.21843" lon="5.39018">
        <ele>378</ele>
        <time>2015-11-08T11:45:37Z</time>
      </trkpt>
      <trkpt lat="43.21841" lon="5.39032">
        <ele>378</ele>
        <time>2015-11-08T11:45:46Z</time>
      </trkpt>
      <trkpt lat="43.21838" lon="5.39046">
        <ele>378</ele>
        <time>2015-11-08T11:45:55Z</time>
      </trkpt>
      <trkpt lat="43.21836" lon="5.39058">
        <ele>378</ele>
        <time>2015-11-08T11:46:04Z</time>
      </trkpt>
      <trkpt lat="43.21833" lon="5.3907">
        <ele>377</ele>
        <time>2015-11-08T11:46:13Z</time>
      </trkpt>
      <trkpt lat="43.21832" lon="5.39082">
        <ele>376</ele>
        <time>2015-11-08T11:46:22Z</time>
      </trkpt>
      <trkpt lat="43.2183" lon="5.39089">
        <ele>376</ele>
        <time>2015-11-08T11:46:31Z</time>
      </trkpt>
      <trkpt lat="43.21828" lon="5.39096">
        <ele>376</ele>
        <time>2015-11-08T11:46:41Z</time>
      </trkpt>
      <trkpt lat="43.21823" lon="5.39096">
        <ele>376</ele>
        <time>2015-11-08T11:46:53Z</time>
      </trkpt>
      <trkpt lat="43.21816" lon="5.39095">
        <ele>376</ele>
        <time>2015-11-08T11:47:58Z</time>
      </trkpt>
      <trkpt lat="43.2181" lon="5.39091">
        <ele>376</ele>
        <time>2015-11-08T11:48:08Z</time>
      </trkpt>
      <trkpt lat="43.21804" lon="5.39088">
        <ele>376</ele>
        <time>2015-11-08T11:48:18Z</time>
      </trkpt>
      <trkpt lat="43.21795" lon="5.39084">
        <ele>376</ele>
        <time>2015-11-08T11:48:28Z</time>
      </trkpt>
      <trkpt lat="43.21788" lon="5.39082">
        <ele>376</ele>
        <time>2015-11-08T11:48:37Z</time>
      </trkpt>
      <trkpt lat="43.21782" lon="5.39074">
        <ele>376</ele>
        <time>2015-11-08T11:48:47Z</time>
      </trkpt>
      <trkpt lat="43.21778" lon="5.39063">
        <ele>376</ele>
        <time>2015-11-08T11:48:57Z</time>
      </trkpt>
      <trkpt lat="43.2177" lon="5.39057">
        <ele>376</ele>
        <time>2015-11-08T11:49:06Z</time>
      </trkpt>
      <trkpt lat="43.21764" lon="5.39052">
        <ele>376</ele>
        <time>2015-11-08T11:49:15Z</time>
      </trkpt>
      <trkpt lat="43.21758" lon="5.39043">
        <ele>376</ele>
        <time>2015-11-08T11:49:25Z</time>
      </trkpt>
      <trkpt lat="43.21751" lon="5.39035">
        <ele>374</ele>
        <time>2015-11-08T11:49:35Z</time>
      </trkpt>
      <trkpt lat="43.21741" lon="5.39029">
        <ele>373</ele>
        <time>2015-11-08T11:49:45Z</time>
      </trkpt>
      <trkpt lat="43.21736" lon="5.39024">
        <ele>373</ele>
        <time>2015-11-08T11:49:55Z</time>
      </trkpt>
      <trkpt lat="43.21729" lon="5.39024">
        <ele>371</ele>
        <time>2015-11-08T11:50:05Z</time>
      </trkpt>
      <trkpt lat="43.2172" lon="5.39027">
        <ele>370</ele>
        <time>2015-11-08T11:50:14Z</time>
      </trkpt>
      <trkpt lat="43.21712" lon="5.39032">
        <ele>369</ele>
        <time>2015-11-08T11:50:23Z</time>
      </trkpt>
      <trkpt lat="43.21705" lon="5.39037">
        <ele>367</ele>
        <time>2015-11-08T11:50:33Z</time>
      </trkpt>
      <trkpt lat="43.21696" lon="5.39039">
        <ele>367</ele>
        <time>2015-11-08T11:50:42Z</time>
      </trkpt>
      <trkpt lat="43.21685" lon="5.39041">
        <ele>366</ele>
        <time>2015-11-08T11:50:51Z</time>
      </trkpt>
      <trkpt lat="43.21675" lon="5.39039">
        <ele>366</ele>
        <time>2015-11-08T11:51:01Z</time>
      </trkpt>
      <trkpt lat="43.21667" lon="5.3904">
        <ele>365</ele>
        <time>2015-11-08T11:51:10Z</time>
      </trkpt>
      <trkpt lat="43.21657" lon="5.39038">
        <ele>365</ele>
        <time>2015-11-08T11:51:20Z</time>
      </trkpt>
      <trkpt lat="43.21648" lon="5.39033">
        <ele>365</ele>
        <time>2015-11-08T11:51:30Z</time>
      </trkpt>
      <trkpt lat="43.2164" lon="5.3903">
        <ele>365</ele>
        <time>2015-11-08T11:51:40Z</time>
      </trkpt>
      <trkpt lat="43.2163" lon="5.39027">
        <ele>364</ele>
        <time>2015-11-08T11:51:50Z</time>
      </trkpt>
      <trkpt lat="43.21623" lon="5.39023">
        <ele>362</ele>
        <time>2015-11-08T11:52:00Z</time>
      </trkpt>
      <trkpt lat="43.21618" lon="5.39021">
        <ele>360</ele>
        <time>2015-11-08T11:52:11Z</time>
      </trkpt>
      <trkpt lat="43.21614" lon="5.39018">
        <ele>358</ele>
        <time>2015-11-08T11:52:21Z</time>
      </trkpt>
      <trkpt lat="43.21611" lon="5.39015">
        <ele>356</ele>
        <time>2015-11-08T11:52:31Z</time>
      </trkpt>
      <trkpt lat="43.21608" lon="5.39014">
        <ele>354</ele>
        <time>2015-11-08T11:52:46Z</time>
      </trkpt>
      <trkpt lat="43.21599" lon="5.3901">
        <ele>354</ele>
        <time>2015-11-08T11:52:56Z</time>
      </trkpt>
      <trkpt lat="43.21593" lon="5.39008">
        <ele>354</ele>
        <time>2015-11-08T11:53:05Z</time>
      </trkpt>
      <trkpt lat="43.21587" lon="5.39004">
        <ele>352</ele>
        <time>2015-11-08T11:53:14Z</time>
      </trkpt>
      <trkpt lat="43.21582" lon="5.39">
        <ele>351</ele>
        <time>2015-11-08T11:53:25Z</time>
      </trkpt>
      <trkpt lat="43.21576" lon="5.38989">
        <ele>350</ele>
        <time>2015-11-08T11:53:35Z</time>
      </trkpt>
      <trkpt lat="43.21571" lon="5.38985">
        <ele>349</ele>
        <time>2015-11-08T11:53:44Z</time>
      </trkpt>
      <trkpt lat="43.21568" lon="5.38974">
        <ele>348</ele>
        <time>2015-11-08T11:53:54Z</time>
      </trkpt>
      <trkpt lat="43.21565" lon="5.38964">
        <ele>348</ele>
        <time>2015-11-08T11:54:04Z</time>
      </trkpt>
      <trkpt lat="43.21563" lon="5.38955">
        <ele>348</ele>
        <time>2015-11-08T11:54:13Z</time>
      </trkpt>
      <trkpt lat="43.21562" lon="5.38941">
        <ele>348</ele>
        <time>2015-11-08T11:54:22Z</time>
      </trkpt>
      <trkpt lat="43.21561" lon="5.38928">
        <ele>348</ele>
        <time>2015-11-08T11:54:31Z</time>
      </trkpt>
      <trkpt lat="43.2156" lon="5.38924">
        <ele>347</ele>
        <time>2015-11-08T11:54:45Z</time>
      </trkpt>
      <trkpt lat="43.21555" lon="5.38917">
        <ele>345</ele>
        <time>2015-11-08T11:54:55Z</time>
      </trkpt>
      <trkpt lat="43.2155" lon="5.38909">
        <ele>343</ele>
        <time>2015-11-08T11:55:06Z</time>
      </trkpt>
      <trkpt lat="43.21548" lon="5.38897">
        <ele>342</ele>
        <time>2015-11-08T11:55:16Z</time>
      </trkpt>
      <trkpt lat="43.21547" lon="5.38888">
        <ele>341</ele>
        <time>2015-11-08T11:55:26Z</time>
      </trkpt>
      <trkpt lat="43.21545" lon="5.3888">
        <ele>340</ele>
        <time>2015-11-08T11:55:36Z</time>
      </trkpt>
      <trkpt lat="43.21545" lon="5.38872">
        <ele>340</ele>
        <time>2015-11-08T11:55:48Z</time>
      </trkpt>
      <trkpt lat="43.21544" lon="5.38874">
        <ele>338</ele>
        <time>2015-11-08T11:56:12Z</time>
      </trkpt>
      <trkpt lat="43.21542" lon="5.38871">
        <ele>333</ele>
        <time>2015-11-08T11:56:31Z</time>
      </trkpt>
      <trkpt lat="43.21542" lon="5.38873">
        <ele>333</ele>
        <time>2015-11-08T11:56:42Z</time>
      </trkpt>
      <trkpt lat="43.21541" lon="5.38873">
        <ele>333</ele>
        <time>2015-11-08T11:56:56Z</time>
      </trkpt>
      <trkpt lat="43.21543" lon="5.38871">
        <ele>333</ele>
        <time>2015-11-08T11:57:08Z</time>
      </trkpt>
      <trkpt lat="43.21544" lon="5.38866">
        <ele>333</ele>
        <time>2015-11-08T11:57:17Z</time>
      </trkpt>
      <trkpt lat="43.21544" lon="5.38857">
        <ele>335</ele>
        <time>2015-11-08T11:57:26Z</time>
      </trkpt>
      <trkpt lat="43.21545" lon="5.38851">
        <ele>336</ele>
        <time>2015-11-08T11:57:38Z</time>
      </trkpt>
      <trkpt lat="43.21544" lon="5.3884">
        <ele>338</ele>
        <time>2015-11-08T11:57:47Z</time>
      </trkpt>
      <trkpt lat="43.21545" lon="5.38829">
        <ele>338</ele>
        <time>2015-11-08T11:58:04Z</time>
      </trkpt>
      <trkpt lat="43.21547" lon="5.38818">
        <ele>338</ele>
        <time>2015-11-08T11:58:14Z</time>
      </trkpt>
      <trkpt lat="43.21553" lon="5.3881">
        <ele>338</ele>
        <time>2015-11-08T11:58:23Z</time>
      </trkpt>
      <trkpt lat="43.21553" lon="5.38805">
        <ele>338</ele>
        <time>2015-11-08T11:58:41Z</time>
      </trkpt>
      <trkpt lat="43.21553" lon="5.38802">
        <ele>338</ele>
        <time>2015-11-08T11:58:57Z</time>
      </trkpt>
      <trkpt lat="43.21548" lon="5.38812">
        <ele>336</ele>
        <time>2015-11-08T11:59:09Z</time>
      </trkpt>
      <trkpt lat="43.2155" lon="5.3882">
        <ele>336</ele>
        <time>2015-11-08T12:00:03Z</time>
      </trkpt>
      <trkpt lat="43.21554" lon="5.38826">
        <ele>336</ele>
        <time>2015-11-08T12:00:14Z</time>
      </trkpt>
      <trkpt lat="43.21555" lon="5.38836">
        <ele>336</ele>
        <time>2015-11-08T12:00:24Z</time>
      </trkpt>
      <trkpt lat="43.21556" lon="5.38847">
        <ele>338</ele>
        <time>2015-11-08T12:00:34Z</time>
      </trkpt>
      <trkpt lat="43.21557" lon="5.38855">
        <ele>340</ele>
        <time>2015-11-08T12:00:44Z</time>
      </trkpt>
      <trkpt lat="43.21555" lon="5.38863">
        <ele>342</ele>
        <time>2015-11-08T12:00:54Z</time>
      </trkpt>
      <trkpt lat="43.21557" lon="5.38875">
        <ele>342</ele>
        <time>2015-11-08T12:01:03Z</time>
      </trkpt>
      <trkpt lat="43.21556" lon="5.38886">
        <ele>343</ele>
        <time>2015-11-08T12:01:13Z</time>
      </trkpt>
      <trkpt lat="43.21558" lon="5.38897">
        <ele>343</ele>
        <time>2015-11-08T12:01:22Z</time>
      </trkpt>
      <trkpt lat="43.21558" lon="5.38907">
        <ele>344</ele>
        <time>2015-11-08T12:01:32Z</time>
      </trkpt>
      <trkpt lat="43.2156" lon="5.38913">
        <ele>344</ele>
        <time>2015-11-08T12:01:41Z</time>
      </trkpt>
      <trkpt lat="43.21562" lon="5.38914">
        <ele>344</ele>
        <time>2015-11-08T12:01:53Z</time>
      </trkpt>
      <trkpt lat="43.21564" lon="5.38914">
        <ele>344</ele>
        <time>2015-11-08T12:02:05Z</time>
      </trkpt>
      <trkpt lat="43.21565" lon="5.38913">
        <ele>344</ele>
        <time>2015-11-08T12:02:17Z</time>
      </trkpt>
      <trkpt lat="43.21565" lon="5.38915">
        <ele>344</ele>
        <time>2015-11-08T12:02:26Z</time>
      </trkpt>
      <trkpt lat="43.21565" lon="5.38926">
        <ele>344</ele>
        <time>2015-11-08T12:02:36Z</time>
      </trkpt>
      <trkpt lat="43.2157" lon="5.3893">
        <ele>343</ele>
        <time>2015-11-08T12:02:46Z</time>
      </trkpt>
      <trkpt lat="43.21573" lon="5.38935">
        <ele>341</ele>
        <time>2015-11-08T12:02:57Z</time>
      </trkpt>
      <trkpt lat="43.21576" lon="5.3894">
        <ele>340</ele>
        <time>2015-11-08T12:03:06Z</time>
      </trkpt>
      <trkpt lat="43.21581" lon="5.38947">
        <ele>338</ele>
        <time>2015-11-08T12:03:16Z</time>
      </trkpt>
      <trkpt lat="43.21585" lon="5.38939">
        <ele>335</ele>
        <time>2015-11-08T12:03:26Z</time>
      </trkpt>
      <trkpt lat="43.21589" lon="5.38937">
        <ele>334</ele>
        <time>2015-11-08T12:03:35Z</time>
      </trkpt>
      <trkpt lat="43.21592" lon="5.38941">
        <ele>333</ele>
        <time>2015-11-08T12:03:45Z</time>
      </trkpt>
      <trkpt lat="43.21597" lon="5.38934">
        <ele>331</ele>
        <time>2015-11-08T12:03:55Z</time>
      </trkpt>
      <trkpt lat="43.21601" lon="5.38922">
        <ele>328</ele>
        <time>2015-11-08T12:04:05Z</time>
      </trkpt>
      <trkpt lat="43.21605" lon="5.38908">
        <ele>326</ele>
        <time>2015-11-08T12:04:14Z</time>
      </trkpt>
      <trkpt lat="43.21614" lon="5.38898">
        <ele>322</ele>
        <time>2015-11-08T12:04:24Z</time>
      </trkpt>
      <trkpt lat="43.21614" lon="5.38885">
        <ele>320</ele>
        <time>2015-11-08T12:04:34Z</time>
      </trkpt>
      <trkpt lat="43.21619" lon="5.38875">
        <ele>319</ele>
        <time>2015-11-08T12:04:43Z</time>
      </trkpt>
      <trkpt lat="43.21619" lon="5.38863">
        <ele>316</ele>
        <time>2015-11-08T12:04:52Z</time>
      </trkpt>
      <trkpt lat="43.21624" lon="5.38853">
        <ele>313</ele>
        <time>2015-11-08T12:05:02Z</time>
      </trkpt>
      <trkpt lat="43.2163" lon="5.38842">
        <ele>311</ele>
        <time>2015-11-08T12:05:12Z</time>
      </trkpt>
      <trkpt lat="43.21629" lon="5.38836">
        <ele>308</ele>
        <time>2015-11-08T12:05:24Z</time>
      </trkpt>
      <trkpt lat="43.21628" lon="5.38829">
        <ele>306</ele>
        <time>2015-11-08T12:05:35Z</time>
      </trkpt>
      <trkpt lat="43.21628" lon="5.38825">
        <ele>302</ele>
        <time>2015-11-08T12:05:46Z</time>
      </trkpt>
      <trkpt lat="43.21629" lon="5.38821">
        <ele>300</ele>
        <time>2015-11-08T12:05:56Z</time>
      </trkpt>
      <trkpt lat="43.21628" lon="5.38815">
        <ele>296</ele>
        <time>2015-11-08T12:06:05Z</time>
      </trkpt>
      <trkpt lat="43.21629" lon="5.38811">
        <ele>294</ele>
        <time>2015-11-08T12:06:14Z</time>
      </trkpt>
      <trkpt lat="43.21626" lon="5.38805">
        <ele>292</ele>
        <time>2015-11-08T12:06:23Z</time>
      </trkpt>
      <trkpt lat="43.21625" lon="5.3879">
        <ele>290</ele>
        <time>2015-11-08T12:06:33Z</time>
      </trkpt>
      <trkpt lat="43.21627" lon="5.38779">
        <ele>289</ele>
        <time>2015-11-08T12:06:42Z</time>
      </trkpt>
      <trkpt lat="43.21624" lon="5.38767">
        <ele>288</ele>
        <time>2015-11-08T12:06:51Z</time>
      </trkpt>
      <trkpt lat="43.21623" lon="5.38758">
        <ele>286</ele>
        <time>2015-11-08T12:07:01Z</time>
      </trkpt>
      <trkpt lat="43.2162" lon="5.38749">
        <ele>282</ele>
        <time>2015-11-08T12:07:11Z</time>
      </trkpt>
      <trkpt lat="43.21619" lon="5.3874">
        <ele>281</ele>
        <time>2015-11-08T12:07:21Z</time>
      </trkpt>
      <trkpt lat="43.21612" lon="5.38734">
        <ele>279</ele>
        <time>2015-11-08T12:07:31Z</time>
      </trkpt>
      <trkpt lat="43.2161" lon="5.38726">
        <ele>275</ele>
        <time>2015-11-08T12:07:40Z</time>
      </trkpt>
      <trkpt lat="43.21609" lon="5.38715">
        <ele>274</ele>
        <time>2015-11-08T12:07:50Z</time>
      </trkpt>
      <trkpt lat="43.21613" lon="5.3871">
        <ele>271</ele>
        <time>2015-11-08T12:08:00Z</time>
      </trkpt>
      <trkpt lat="43.21619" lon="5.38702">
        <ele>269</ele>
        <time>2015-11-08T12:08:10Z</time>
      </trkpt>
      <trkpt lat="43.21621" lon="5.3869">
        <ele>266</ele>
        <time>2015-11-08T12:08:20Z</time>
      </trkpt>
      <trkpt lat="43.21623" lon="5.3868">
        <ele>265</ele>
        <time>2015-11-08T12:08:29Z</time>
      </trkpt>
      <trkpt lat="43.21624" lon="5.38668">
        <ele>263</ele>
        <time>2015-11-08T12:08:38Z</time>
      </trkpt>
      <trkpt lat="43.21622" lon="5.38656">
        <ele>263</ele>
        <time>2015-11-08T12:08:47Z</time>
      </trkpt>
      <trkpt lat="43.21622" lon="5.38643">
        <ele>263</ele>
        <time>2015-11-08T12:08:56Z</time>
      </trkpt>
      <trkpt lat="43.21621" lon="5.38626">
        <ele>263</ele>
        <time>2015-11-08T12:09:05Z</time>
      </trkpt>
      <trkpt lat="43.2162" lon="5.38614">
        <ele>263</ele>
        <time>2015-11-08T12:09:14Z</time>
      </trkpt>
      <trkpt lat="43.21615" lon="5.38601">
        <ele>262</ele>
        <time>2015-11-08T12:09:23Z</time>
      </trkpt>
      <trkpt lat="43.21614" lon="5.38588">
        <ele>261</ele>
        <time>2015-11-08T12:09:32Z</time>
      </trkpt>
      <trkpt lat="43.21616" lon="5.38575">
        <ele>261</ele>
        <time>2015-11-08T12:09:42Z</time>
      </trkpt>
      <trkpt lat="43.21621" lon="5.38566">
        <ele>260</ele>
        <time>2015-11-08T12:09:52Z</time>
      </trkpt>
      <trkpt lat="43.21622" lon="5.38554">
        <ele>258</ele>
        <time>2015-11-08T12:10:01Z</time>
      </trkpt>
      <trkpt lat="43.21626" lon="5.38544">
        <ele>256</ele>
        <time>2015-11-08T12:10:11Z</time>
      </trkpt>
      <trkpt lat="43.21628" lon="5.38531">
        <ele>254</ele>
        <time>2015-11-08T12:10:20Z</time>
      </trkpt>
      <trkpt lat="43.21623" lon="5.38518">
        <ele>253</ele>
        <time>2015-11-08T12:10:29Z</time>
      </trkpt>
      <trkpt lat="43.21623" lon="5.38504">
        <ele>253</ele>
        <time>2015-11-08T12:10:39Z</time>
      </trkpt>
      <trkpt lat="43.21624" lon="5.38489">
        <ele>252</ele>
        <time>2015-11-08T12:10:48Z</time>
      </trkpt>
      <trkpt lat="43.21627" lon="5.38478">
        <ele>250</ele>
        <time>2015-11-08T12:10:57Z</time>
      </trkpt>
      <trkpt lat="43.2163" lon="5.38463">
        <ele>248</ele>
        <time>2015-11-08T12:11:06Z</time>
      </trkpt>
      <trkpt lat="43.21634" lon="5.38451">
        <ele>247</ele>
        <time>2015-11-08T12:11:15Z</time>
      </trkpt>
      <trkpt lat="43.2164" lon="5.38446">
        <ele>247</ele>
        <time>2015-11-08T12:11:25Z</time>
      </trkpt>
      <trkpt lat="43.21643" lon="5.38446">
        <ele>244</ele>
        <time>2015-11-08T12:11:35Z</time>
      </trkpt>
      <trkpt lat="43.21648" lon="5.38451">
        <ele>242</ele>
        <time>2015-11-08T12:11:44Z</time>
      </trkpt>
      <trkpt lat="43.21655" lon="5.38456">
        <ele>239</ele>
        <time>2015-11-08T12:11:54Z</time>
      </trkpt>
      <trkpt lat="43.21661" lon="5.38448">
        <ele>236</ele>
        <time>2015-11-08T12:12:04Z</time>
      </trkpt>
      <trkpt lat="43.21666" lon="5.38436">
        <ele>235</ele>
        <time>2015-11-08T12:12:14Z</time>
      </trkpt>
      <trkpt lat="43.2167" lon="5.38426">
        <ele>233</ele>
        <time>2015-11-08T12:12:24Z</time>
      </trkpt>
      <trkpt lat="43.21677" lon="5.38415">
        <ele>229</ele>
        <time>2015-11-08T12:12:35Z</time>
      </trkpt>
      <trkpt lat="43.2168" lon="5.384">
        <ele>226</ele>
        <time>2015-11-08T12:12:45Z</time>
      </trkpt>
      <trkpt lat="43.21686" lon="5.3839">
        <ele>225</ele>
        <time>2015-11-08T12:12:55Z</time>
      </trkpt>
      <trkpt lat="43.21695" lon="5.38383">
        <ele>223</ele>
        <time>2015-11-08T12:13:04Z</time>
      </trkpt>
      <trkpt lat="43.217" lon="5.38373">
        <ele>219</ele>
        <time>2015-11-08T12:13:14Z</time>
      </trkpt>
      <trkpt lat="43.21698" lon="5.38359">
        <ele>215</ele>
        <time>2015-11-08T12:13:25Z</time>
      </trkpt>
      <trkpt lat="43.21698" lon="5.38346">
        <ele>213</ele>
        <time>2015-11-08T12:13:34Z</time>
      </trkpt>
      <trkpt lat="43.21701" lon="5.38333">
        <ele>212</ele>
        <time>2015-11-08T12:13:43Z</time>
      </trkpt>
      <trkpt lat="43.21703" lon="5.38319">
        <ele>210</ele>
        <time>2015-11-08T12:13:53Z</time>
      </trkpt>
      <trkpt lat="43.21708" lon="5.38311">
        <ele>208</ele>
        <time>2015-11-08T12:14:02Z</time>
      </trkpt>
      <trkpt lat="43.21718" lon="5.38307">
        <ele>208</ele>
        <time>2015-11-08T12:14:11Z</time>
      </trkpt>
      <trkpt lat="43.21724" lon="5.38295">
        <ele>204</ele>
        <time>2015-11-08T12:14:21Z</time>
      </trkpt>
      <trkpt lat="43.21732" lon="5.38287">
        <ele>200</ele>
        <time>2015-11-08T12:14:31Z</time>
      </trkpt>
      <trkpt lat="43.21736" lon="5.38282">
        <ele>196</ele>
        <time>2015-11-08T12:14:40Z</time>
      </trkpt>
      <trkpt lat="43.21743" lon="5.38279">
        <ele>195</ele>
        <time>2015-11-08T12:14:49Z</time>
      </trkpt>
      <trkpt lat="43.21747" lon="5.3827">
        <ele>194</ele>
        <time>2015-11-08T12:14:59Z</time>
      </trkpt>
      <trkpt lat="43.21748" lon="5.38259">
        <ele>192</ele>
        <time>2015-11-08T12:15:08Z</time>
      </trkpt>
      <trkpt lat="43.21751" lon="5.38247">
        <ele>191</ele>
        <time>2015-11-08T12:15:17Z</time>
      </trkpt>
      <trkpt lat="43.21752" lon="5.38234">
        <ele>197</ele>
        <time>2015-11-08T12:15:27Z</time>
      </trkpt>
      <trkpt lat="43.21749" lon="5.38222">
        <ele>205</ele>
        <time>2015-11-08T12:15:36Z</time>
      </trkpt>
      <trkpt lat="43.21748" lon="5.38207">
        <ele>202</ele>
        <time>2015-11-08T12:15:46Z</time>
      </trkpt>
      <trkpt lat="43.21753" lon="5.38199">
        <ele>195</ele>
        <time>2015-11-08T12:15:55Z</time>
      </trkpt>
      <trkpt lat="43.21763" lon="5.38194">
        <ele>193</ele>
        <time>2015-11-08T12:16:05Z</time>
      </trkpt>
      <trkpt lat="43.21769" lon="5.38179">
        <ele>187</ele>
        <time>2015-11-08T12:16:15Z</time>
      </trkpt>
      <trkpt lat="43.21773" lon="5.38166">
        <ele>185</ele>
        <time>2015-11-08T12:16:24Z</time>
      </trkpt>
      <trkpt lat="43.21775" lon="5.38153">
        <ele>183</ele>
        <time>2015-11-08T12:16:33Z</time>
      </trkpt>
      <trkpt lat="43.21776" lon="5.38138">
        <ele>182</ele>
        <time>2015-11-08T12:16:42Z</time>
      </trkpt>
      <trkpt lat="43.21777" lon="5.38124">
        <ele>182</ele>
        <time>2015-11-08T12:16:51Z</time>
      </trkpt>
      <trkpt lat="43.21782" lon="5.38116">
        <ele>182</ele>
        <time>2015-11-08T12:17:01Z</time>
      </trkpt>
      <trkpt lat="43.2179" lon="5.38118">
        <ele>182</ele>
        <time>2015-11-08T12:17:11Z</time>
      </trkpt>
      <trkpt lat="43.21795" lon="5.38128">
        <ele>182</ele>
        <time>2015-11-08T12:17:21Z</time>
      </trkpt>
      <trkpt lat="43.21805" lon="5.38139">
        <ele>175</ele>
        <time>2015-11-08T12:17:32Z</time>
      </trkpt>
      <trkpt lat="43.21813" lon="5.38135">
        <ele>169</ele>
        <time>2015-11-08T12:17:42Z</time>
      </trkpt>
      <trkpt lat="43.21822" lon="5.38128">
        <ele>165</ele>
        <time>2015-11-08T12:17:51Z</time>
      </trkpt>
      <trkpt lat="43.21831" lon="5.38123">
        <ele>164</ele>
        <time>2015-11-08T12:18:01Z</time>
      </trkpt>
      <trkpt lat="43.21843" lon="5.38117">
        <ele>164</ele>
        <time>2015-11-08T12:18:12Z</time>
      </trkpt>
      <trkpt lat="43.21851" lon="5.38109">
        <ele>164</ele>
        <time>2015-11-08T12:18:22Z</time>
      </trkpt>
      <trkpt lat="43.21857" lon="5.38101">
        <ele>160</ele>
        <time>2015-11-08T12:18:32Z</time>
      </trkpt>
      <trkpt lat="43.21864" lon="5.38093">
        <ele>158</ele>
        <time>2015-11-08T12:18:41Z</time>
      </trkpt>
      <trkpt lat="43.21866" lon="5.38083">
        <ele>154</ele>
        <time>2015-11-08T12:18:51Z</time>
      </trkpt>
      <trkpt lat="43.21871" lon="5.38075">
        <ele>152</ele>
        <time>2015-11-08T12:19:02Z</time>
      </trkpt>
      <trkpt lat="43.21876" lon="5.38071">
        <ele>149</ele>
        <time>2015-11-08T12:19:11Z</time>
      </trkpt>
      <trkpt lat="43.21885" lon="5.38067">
        <ele>149</ele>
        <time>2015-11-08T12:19:21Z</time>
      </trkpt>
      <trkpt lat="43.21894" lon="5.38055">
        <ele>146</ele>
        <time>2015-11-08T12:19:32Z</time>
      </trkpt>
      <trkpt lat="43.21899" lon="5.38051">
        <ele>145</ele>
        <time>2015-11-08T12:19:41Z</time>
      </trkpt>
      <trkpt lat="43.21906" lon="5.38042">
        <ele>145</ele>
        <time>2015-11-08T12:19:51Z</time>
      </trkpt>
      <trkpt lat="43.21912" lon="5.38032">
        <ele>144</ele>
        <time>2015-11-08T12:20:01Z</time>
      </trkpt>
      <trkpt lat="43.21921" lon="5.38025">
        <ele>144</ele>
        <time>2015-11-08T12:20:11Z</time>
      </trkpt>
      <trkpt lat="43.21928" lon="5.38012">
        <ele>142</ele>
        <time>2015-11-08T12:20:22Z</time>
      </trkpt>
      <trkpt lat="43.21936" lon="5.38002">
        <ele>138</ele>
        <time>2015-11-08T12:20:32Z</time>
      </trkpt>
      <trkpt lat="43.21939" lon="5.37987">
        <ele>133</ele>
        <time>2015-11-08T12:20:42Z</time>
      </trkpt>
      <trkpt lat="43.21937" lon="5.37975">
        <ele>129</ele>
        <time>2015-11-08T12:20:51Z</time>
      </trkpt>
      <trkpt lat="43.21942" lon="5.37961">
        <ele>129</ele>
        <time>2015-11-08T12:21:01Z</time>
      </trkpt>
      <trkpt lat="43.21947" lon="5.37946">
        <ele>128</ele>
        <time>2015-11-08T12:21:12Z</time>
      </trkpt>
      <trkpt lat="43.21951" lon="5.37931">
        <ele>126</ele>
        <time>2015-11-08T12:21:21Z</time>
      </trkpt>
      <trkpt lat="43.21956" lon="5.37916">
        <ele>126</ele>
        <time>2015-11-08T12:21:31Z</time>
      </trkpt>
      <trkpt lat="43.21954" lon="5.379">
        <ele>126</ele>
        <time>2015-11-08T12:21:41Z</time>
      </trkpt>
      <trkpt lat="43.2195" lon="5.3789">
        <ele>126</ele>
        <time>2015-11-08T12:22:29Z</time>
      </trkpt>
      <trkpt lat="43.21949" lon="5.37891">
        <ele>126</ele>
        <time>2015-11-08T12:22:47Z</time>
      </trkpt>
      <trkpt lat="43.21947" lon="5.37893">
        <ele>126</ele>
        <time>2015-11-08T12:23:10Z</time>
      </trkpt>
      <trkpt lat="43.21949" lon="5.37892">
        <ele>126</ele>
        <time>2015-11-08T12:23:23Z</time>
      </trkpt>
      <trkpt lat="43.21952" lon="5.37893">
        <ele>125</ele>
        <time>2015-11-08T12:23:33Z</time>
      </trkpt>
      <trkpt lat="43.21959" lon="5.379">
        <ele>125</ele>
        <time>2015-11-08T12:23:43Z</time>
      </trkpt>
      <trkpt lat="43.21964" lon="5.37908">
        <ele>125</ele>
        <time>2015-11-08T12:23:53Z</time>
      </trkpt>
      <trkpt lat="43.2197" lon="5.37907">
        <ele>127</ele>
        <time>2015-11-08T12:24:02Z</time>
      </trkpt>
      <trkpt lat="43.21974" lon="5.3791">
        <ele>128</ele>
        <time>2015-11-08T12:24:11Z</time>
      </trkpt>
      <trkpt lat="43.21981" lon="5.37908">
        <ele>132</ele>
        <time>2015-11-08T12:24:23Z</time>
      </trkpt>
      <trkpt lat="43.21985" lon="5.3791">
        <ele>133</ele>
        <time>2015-11-08T12:24:32Z</time>
      </trkpt>
      <trkpt lat="43.21991" lon="5.3791">
        <ele>136</ele>
        <time>2015-11-08T12:24:42Z</time>
      </trkpt>
      <trkpt lat="43.21996" lon="5.37911">
        <ele>138</ele>
        <time>2015-11-08T12:24:52Z</time>
      </trkpt>
      <trkpt lat="43.22001" lon="5.37913">
        <ele>140</ele>
        <time>2015-11-08T12:25:01Z</time>
      </trkpt>
      <trkpt lat="43.22009" lon="5.37915">
        <ele>143</ele>
        <time>2015-11-08T12:25:11Z</time>
      </trkpt>
      <trkpt lat="43.22017" lon="5.3792">
        <ele>144</ele>
        <time>2015-11-08T12:25:21Z</time>
      </trkpt>
      <trkpt lat="43.22023" lon="5.37918">
        <ele>144</ele>
        <time>2015-11-08T12:25:31Z</time>
      </trkpt>
      <trkpt lat="43.22031" lon="5.37917">
        <ele>144</ele>
        <time>2015-11-08T12:25:41Z</time>
      </trkpt>
      <trkpt lat="43.22037" lon="5.3792">
        <ele>144</ele>
        <time>2015-11-08T12:25:51Z</time>
      </trkpt>
      <trkpt lat="43.22039" lon="5.37915">
        <ele>147</ele>
        <time>2015-11-08T12:26:02Z</time>
      </trkpt>
      <trkpt lat="43.22041" lon="5.3791">
        <ele>152</ele>
        <time>2015-11-08T12:26:15Z</time>
      </trkpt>
      <trkpt lat="43.22041" lon="5.37904">
        <ele>154</ele>
        <time>2015-11-08T12:26:24Z</time>
      </trkpt>
      <trkpt lat="43.22041" lon="5.37901">
        <ele>158</ele>
        <time>2015-11-08T12:26:33Z</time>
      </trkpt>
      <trkpt lat="43.2204" lon="5.37892">
        <ele>159</ele>
        <time>2015-11-08T12:26:43Z</time>
      </trkpt>
      <trkpt lat="43.22041" lon="5.37885">
        <ele>159</ele>
        <time>2015-11-08T12:26:52Z</time>
      </trkpt>
      <trkpt lat="43.2204" lon="5.37878">
        <ele>155</ele>
        <time>2015-11-08T12:27:03Z</time>
      </trkpt>
      <trkpt lat="43.22044" lon="5.37876">
        <ele>154</ele>
        <time>2015-11-08T12:27:12Z</time>
      </trkpt>
      <trkpt lat="43.22048" lon="5.3787">
        <ele>154</ele>
        <time>2015-11-08T12:27:21Z</time>
      </trkpt>
      <trkpt lat="43.22052" lon="5.37871">
        <ele>154</ele>
        <time>2015-11-08T12:27:30Z</time>
      </trkpt>
      <trkpt lat="43.22053" lon="5.37879">
        <ele>154</ele>
        <time>2015-11-08T12:27:41Z</time>
      </trkpt>
      <trkpt lat="43.22056" lon="5.37884">
        <ele>156</ele>
        <time>2015-11-08T12:27:52Z</time>
      </trkpt>
      <trkpt lat="43.22058" lon="5.37878">
        <ele>157</ele>
        <time>2015-11-08T12:28:01Z</time>
      </trkpt>
      <trkpt lat="43.22061" lon="5.37871">
        <ele>159</ele>
        <time>2015-11-08T12:28:11Z</time>
      </trkpt>
      <trkpt lat="43.22063" lon="5.37863">
        <ele>163</ele>
        <time>2015-11-08T12:28:22Z</time>
      </trkpt>
      <trkpt lat="43.22062" lon="5.37858">
        <ele>171</ele>
        <time>2015-11-08T12:28:31Z</time>
      </trkpt>
      <trkpt lat="43.22063" lon="5.37851">
        <ele>179</ele>
        <time>2015-11-08T12:28:42Z</time>
      </trkpt>
      <trkpt lat="43.22067" lon="5.37845">
        <ele>179</ele>
        <time>2015-11-08T12:28:53Z</time>
      </trkpt>
      <trkpt lat="43.22071" lon="5.37842">
        <ele>178</ele>
        <time>2015-11-08T12:29:02Z</time>
      </trkpt>
      <trkpt lat="43.22074" lon="5.37838">
        <ele>176</ele>
        <time>2015-11-08T12:29:13Z</time>
      </trkpt>
      <trkpt lat="43.22077" lon="5.37836">
        <ele>176</ele>
        <time>2015-11-08T12:29:24Z</time>
      </trkpt>
      <trkpt lat="43.22079" lon="5.37833">
        <ele>176</ele>
        <time>2015-11-08T12:29:33Z</time>
      </trkpt>
      <trkpt lat="43.22083" lon="5.3783">
        <ele>177</ele>
        <time>2015-11-08T12:29:42Z</time>
      </trkpt>
      <trkpt lat="43.22086" lon="5.37826">
        <ele>179</ele>
        <time>2015-11-08T12:29:51Z</time>
      </trkpt>
      <trkpt lat="43.22092" lon="5.37823">
        <ele>183</ele>
        <time>2015-11-08T12:30:02Z</time>
      </trkpt>
      <trkpt lat="43.22095" lon="5.3782">
        <ele>186</ele>
        <time>2015-11-08T12:30:14Z</time>
      </trkpt>
      <trkpt lat="43.22101" lon="5.37821">
        <ele>189</ele>
        <time>2015-11-08T12:30:25Z</time>
      </trkpt>
      <trkpt lat="43.22107" lon="5.3782">
        <ele>194</ele>
        <time>2015-11-08T12:30:35Z</time>
      </trkpt>
      <trkpt lat="43.22115" lon="5.37825">
        <ele>196</ele>
        <time>2015-11-08T12:30:45Z</time>
      </trkpt>
      <trkpt lat="43.22127" lon="5.37821">
        <ele>194</ele>
        <time>2015-11-08T12:30:55Z</time>
      </trkpt>
      <trkpt lat="43.22134" lon="5.37821">
        <ele>188</ele>
        <time>2015-11-08T12:31:05Z</time>
      </trkpt>
      <trkpt lat="43.22141" lon="5.37822">
        <ele>188</ele>
        <time>2015-11-08T12:31:15Z</time>
      </trkpt>
      <trkpt lat="43.22147" lon="5.37825">
        <ele>188</ele>
        <time>2015-11-08T12:31:25Z</time>
      </trkpt>
      <trkpt lat="43.22149" lon="5.37828">
        <ele>188</ele>
        <time>2015-11-08T12:31:46Z</time>
      </trkpt>
      <trkpt lat="43.22152" lon="5.37829">
        <ele>185</ele>
        <time>2015-11-08T12:32:03Z</time>
      </trkpt>
      <trkpt lat="43.22155" lon="5.37826">
        <ele>185</ele>
        <time>2015-11-08T12:32:13Z</time>
      </trkpt>
      <trkpt lat="43.22157" lon="5.37822">
        <ele>185</ele>
        <time>2015-11-08T12:32:23Z</time>
      </trkpt>
      <trkpt lat="43.22161" lon="5.37818">
        <ele>191</ele>
        <time>2015-11-08T12:32:33Z</time>
      </trkpt>
      <trkpt lat="43.22168" lon="5.37813">
        <ele>193</ele>
        <time>2015-11-08T12:32:42Z</time>
      </trkpt>
      <trkpt lat="43.22174" lon="5.37808">
        <ele>193</ele>
        <time>2015-11-08T12:32:52Z</time>
      </trkpt>
      <trkpt lat="43.2218" lon="5.37801">
        <ele>193</ele>
        <time>2015-11-08T12:33:02Z</time>
      </trkpt>
      <trkpt lat="43.22184" lon="5.37795">
        <ele>193</ele>
        <time>2015-11-08T12:33:11Z</time>
      </trkpt>
      <trkpt lat="43.22189" lon="5.37787">
        <ele>193</ele>
        <time>2015-11-08T12:33:21Z</time>
      </trkpt>
      <trkpt lat="43.22191" lon="5.37779">
        <ele>198</ele>
        <time>2015-11-08T12:33:32Z</time>
      </trkpt>
      <trkpt lat="43.22196" lon="5.37768">
        <ele>200</ele>
        <time>2015-11-08T12:33:41Z</time>
      </trkpt>
      <trkpt lat="43.22196" lon="5.37752">
        <ele>200</ele>
        <time>2015-11-08T12:33:52Z</time>
      </trkpt>
      <trkpt lat="43.22197" lon="5.37742">
        <ele>200</ele>
        <time>2015-11-08T12:34:01Z</time>
      </trkpt>
      <trkpt lat="43.22198" lon="5.37731">
        <ele>200</ele>
        <time>2015-11-08T12:34:12Z</time>
      </trkpt>
      <trkpt lat="43.222" lon="5.37721">
        <ele>200</ele>
        <time>2015-11-08T12:34:22Z</time>
      </trkpt>
      <trkpt lat="43.22203" lon="5.37713">
        <ele>201</ele>
        <time>2015-11-08T12:34:31Z</time>
      </trkpt>
      <trkpt lat="43.22207" lon="5.37706">
        <ele>201</ele>
        <time>2015-11-08T12:34:42Z</time>
      </trkpt>
      <trkpt lat="43.22211" lon="5.37698">
        <ele>201</ele>
        <time>2015-11-08T12:34:51Z</time>
      </trkpt>
      <trkpt lat="43.22213" lon="5.37685">
        <ele>201</ele>
        <time>2015-11-08T12:35:02Z</time>
      </trkpt>
      <trkpt lat="43.22216" lon="5.37677">
        <ele>201</ele>
        <time>2015-11-08T12:35:12Z</time>
      </trkpt>
      <trkpt lat="43.22217" lon="5.37671">
        <ele>205</ele>
        <time>2015-11-08T12:35:22Z</time>
      </trkpt>
      <trkpt lat="43.22219" lon="5.37666">
        <ele>209</ele>
        <time>2015-11-08T12:35:33Z</time>
      </trkpt>
      <trkpt lat="43.22217" lon="5.37661">
        <ele>211</ele>
        <time>2015-11-08T12:35:43Z</time>
      </trkpt>
      <trkpt lat="43.22216" lon="5.37655">
        <ele>214</ele>
        <time>2015-11-08T12:35:53Z</time>
      </trkpt>
      <trkpt lat="43.22214" lon="5.37649">
        <ele>216</ele>
        <time>2015-11-08T12:36:02Z</time>
      </trkpt>
      <trkpt lat="43.22213" lon="5.37644">
        <ele>218</ele>
        <time>2015-11-08T12:36:12Z</time>
      </trkpt>
      <trkpt lat="43.22215" lon="5.37639">
        <ele>219</ele>
        <time>2015-11-08T12:36:21Z</time>
      </trkpt>
      <trkpt lat="43.22216" lon="5.37634">
        <ele>221</ele>
        <time>2015-11-08T12:36:33Z</time>
      </trkpt>
      <trkpt lat="43.22221" lon="5.37637">
        <ele>223</ele>
        <time>2015-11-08T12:36:43Z</time>
      </trkpt>
      <trkpt lat="43.22227" lon="5.37646">
        <ele>224</ele>
        <time>2015-11-08T12:36:53Z</time>
      </trkpt>
      <trkpt lat="43.2223" lon="5.37656">
        <ele>225</ele>
        <time>2015-11-08T12:37:02Z</time>
      </trkpt>
      <trkpt lat="43.22235" lon="5.37659">
        <ele>230</ele>
        <time>2015-11-08T12:37:11Z</time>
      </trkpt>
      <trkpt lat="43.22239" lon="5.37658">
        <ele>235</ele>
        <time>2015-11-08T12:37:23Z</time>
      </trkpt>
      <trkpt lat="43.22244" lon="5.37656">
        <ele>237</ele>
        <time>2015-11-08T12:37:34Z</time>
      </trkpt>
      <trkpt lat="43.22246" lon="5.37653">
        <ele>238</ele>
        <time>2015-11-08T12:37:43Z</time>
      </trkpt>
      <trkpt lat="43.22251" lon="5.37649">
        <ele>238</ele>
        <time>2015-11-08T12:37:53Z</time>
      </trkpt>
      <trkpt lat="43.22256" lon="5.37645">
        <ele>238</ele>
        <time>2015-11-08T12:38:03Z</time>
      </trkpt>
      <trkpt lat="43.22261" lon="5.37645">
        <ele>238</ele>
        <time>2015-11-08T12:38:13Z</time>
      </trkpt>
      <trkpt lat="43.22263" lon="5.37649">
        <ele>241</ele>
        <time>2015-11-08T12:38:23Z</time>
      </trkpt>
      <trkpt lat="43.22265" lon="5.37652">
        <ele>242</ele>
        <time>2015-11-08T12:38:33Z</time>
      </trkpt>
      <trkpt lat="43.22266" lon="5.37657">
        <ele>242</ele>
        <time>2015-11-08T12:38:50Z</time>
      </trkpt>
      <trkpt lat="43.22266" lon="5.37664">
        <ele>244</ele>
        <time>2015-11-08T12:39:51Z</time>
      </trkpt>
      <trkpt lat="43.22267" lon="5.37664">
        <ele>244</ele>
        <time>2015-11-08T12:40:41Z</time>
      </trkpt>
      <trkpt lat="43.22269" lon="5.37664">
        <ele>244</ele>
        <time>2015-11-08T12:40:58Z</time>
      </trkpt>
      <trkpt lat="43.22269" lon="5.37665">
        <ele>242</ele>
        <time>2015-11-08T12:41:15Z</time>
      </trkpt>
      <trkpt lat="43.22269" lon="5.37666">
        <ele>242</ele>
        <time>2015-11-08T12:41:28Z</time>
      </trkpt>
      <trkpt lat="43.22271" lon="5.37667">
        <ele>242</ele>
        <time>2015-11-08T12:41:38Z</time>
      </trkpt>
      <trkpt lat="43.22272" lon="5.37674">
        <ele>244</ele>
        <time>2015-11-08T12:41:49Z</time>
      </trkpt>
      <trkpt lat="43.22271" lon="5.37683">
        <ele>248</ele>
        <time>2015-11-08T12:42:00Z</time>
      </trkpt>
      <trkpt lat="43.22271" lon="5.37692">
        <ele>248</ele>
        <time>2015-11-08T12:42:11Z</time>
      </trkpt>
      <trkpt lat="43.22271" lon="5.37697">
        <ele>249</ele>
        <time>2015-11-08T12:42:23Z</time>
      </trkpt>
      <trkpt lat="43.22273" lon="5.377">
        <ele>250</ele>
        <time>2015-11-08T12:42:33Z</time>
      </trkpt>
      <trkpt lat="43.22277" lon="5.37702">
        <ele>250</ele>
        <time>2015-11-08T12:42:44Z</time>
      </trkpt>
      <trkpt lat="43.22279" lon="5.37707">
        <ele>250</ele>
        <time>2015-11-08T12:42:55Z</time>
      </trkpt>
      <trkpt lat="43.2228" lon="5.37712">
        <ele>252</ele>
        <time>2015-11-08T12:43:04Z</time>
      </trkpt>
      <trkpt lat="43.22284" lon="5.37718">
        <ele>253</ele>
        <time>2015-11-08T12:43:13Z</time>
      </trkpt>
      <trkpt lat="43.22293" lon="5.37727">
        <ele>253</ele>
        <time>2015-11-08T12:43:23Z</time>
      </trkpt>
      <trkpt lat="43.22299" lon="5.37739">
        <ele>253</ele>
        <time>2015-11-08T12:43:33Z</time>
      </trkpt>
      <trkpt lat="43.22306" lon="5.37747">
        <ele>253</ele>
        <time>2015-11-08T12:43:43Z</time>
      </trkpt>
      <trkpt lat="43.22311" lon="5.37758">
        <ele>254</ele>
        <time>2015-11-08T12:43:53Z</time>
      </trkpt>
      <trkpt lat="43.22315" lon="5.37768">
        <ele>257</ele>
        <time>2015-11-08T12:44:03Z</time>
      </trkpt>
      <trkpt lat="43.22318" lon="5.37776">
        <ele>261</ele>
        <time>2015-11-08T12:44:12Z</time>
      </trkpt>
      <trkpt lat="43.22321" lon="5.37785">
        <ele>262</ele>
        <time>2015-11-08T12:44:22Z</time>
      </trkpt>
      <trkpt lat="43.22324" lon="5.37792">
        <ele>263</ele>
        <time>2015-11-08T12:44:32Z</time>
      </trkpt>
      <trkpt lat="43.22327" lon="5.37799">
        <ele>263</ele>
        <time>2015-11-08T12:44:42Z</time>
      </trkpt>
      <trkpt lat="43.22328" lon="5.37806">
        <ele>263</ele>
        <time>2015-11-08T12:44:51Z</time>
      </trkpt>
      <trkpt lat="43.22326" lon="5.37815">
        <ele>264</ele>
        <time>2015-11-08T12:45:02Z</time>
      </trkpt>
      <trkpt lat="43.22324" lon="5.37823">
        <ele>265</ele>
        <time>2015-11-08T12:45:12Z</time>
      </trkpt>
      <trkpt lat="43.22324" lon="5.3783">
        <ele>267</ele>
        <time>2015-11-08T12:45:22Z</time>
      </trkpt>
      <trkpt lat="43.22325" lon="5.37837">
        <ele>269</ele>
        <time>2015-11-08T12:45:31Z</time>
      </trkpt>
      <trkpt lat="43.22328" lon="5.37838">
        <ele>271</ele>
        <time>2015-11-08T12:45:43Z</time>
      </trkpt>
      <trkpt lat="43.22332" lon="5.37833">
        <ele>271</ele>
        <time>2015-11-08T12:45:52Z</time>
      </trkpt>
      <trkpt lat="43.22339" lon="5.37831">
        <ele>271</ele>
        <time>2015-11-08T12:46:02Z</time>
      </trkpt>
      <trkpt lat="43.22344" lon="5.37834">
        <ele>271</ele>
        <time>2015-11-08T12:46:16Z</time>
      </trkpt>
      <trkpt lat="43.22344" lon="5.37836">
        <ele>271</ele>
        <time>2015-11-08T12:46:39Z</time>
      </trkpt>
      <trkpt lat="43.22345" lon="5.37841">
        <ele>271</ele>
        <time>2015-11-08T12:47:41Z</time>
      </trkpt>
      <trkpt lat="43.22345" lon="5.37838">
        <ele>271</ele>
        <time>2015-11-08T12:47:58Z</time>
      </trkpt>
      <trkpt lat="43.22345" lon="5.37836">
        <ele>271</ele>
        <time>2015-11-08T12:48:08Z</time>
      </trkpt>
      <trkpt lat="43.22345" lon="5.37836">
        <ele>271</ele>
        <time>2015-11-08T12:49:09Z</time>
      </trkpt>
      <trkpt lat="43.22346" lon="5.3784">
        <ele>271</ele>
        <time>2015-11-08T12:49:18Z</time>
      </trkpt>
      <trkpt lat="43.22348" lon="5.37837">
        <ele>271</ele>
        <time>2015-11-08T12:49:28Z</time>
      </trkpt>
      <trkpt lat="43.2235" lon="5.3783">
        <ele>271</ele>
        <time>2015-11-08T12:49:38Z</time>
      </trkpt>
      <trkpt lat="43.22353" lon="5.37825">
        <ele>271</ele>
        <time>2015-11-08T12:49:49Z</time>
      </trkpt>
      <trkpt lat="43.22357" lon="5.37816">
        <ele>270</ele>
        <time>2015-11-08T12:49:59Z</time>
      </trkpt>
      <trkpt lat="43.2236" lon="5.37807">
        <ele>269</ele>
        <time>2015-11-08T12:50:10Z</time>
      </trkpt>
      <trkpt lat="43.22362" lon="5.378">
        <ele>268</ele>
        <time>2015-11-08T12:50:20Z</time>
      </trkpt>
      <trkpt lat="43.22366" lon="5.37793">
        <ele>266</ele>
        <time>2015-11-08T12:50:30Z</time>
      </trkpt>
      <trkpt lat="43.2237" lon="5.37783">
        <ele>266</ele>
        <time>2015-11-08T12:50:39Z</time>
      </trkpt>
      <trkpt lat="43.22374" lon="5.37774">
        <ele>265</ele>
        <time>2015-11-08T12:50:49Z</time>
      </trkpt>
      <trkpt lat="43.2238" lon="5.37767">
        <ele>265</ele>
        <time>2015-11-08T12:51:00Z</time>
      </trkpt>
      <trkpt lat="43.22385" lon="5.37761">
        <ele>265</ele>
        <time>2015-11-08T12:51:10Z</time>
      </trkpt>
      <trkpt lat="43.22385" lon="5.37757">
        <ele>265</ele>
        <time>2015-11-08T12:51:19Z</time>
      </trkpt>
      <trkpt lat="43.2239" lon="5.37752">
        <ele>265</ele>
        <time>2015-11-08T12:51:28Z</time>
      </trkpt>
      <trkpt lat="43.22394" lon="5.3775">
        <ele>265</ele>
        <time>2015-11-08T12:51:39Z</time>
      </trkpt>
      <trkpt lat="43.22399" lon="5.37753">
        <ele>265</ele>
        <time>2015-11-08T12:51:48Z</time>
      </trkpt>
      <trkpt lat="43.22404" lon="5.37756">
        <ele>267</ele>
        <time>2015-11-08T12:51:59Z</time>
      </trkpt>
      <trkpt lat="43.2241" lon="5.3776">
        <ele>269</ele>
        <time>2015-11-08T12:52:10Z</time>
      </trkpt>
      <trkpt lat="43.22415" lon="5.3776">
        <ele>270</ele>
        <time>2015-11-08T12:52:21Z</time>
      </trkpt>
      <trkpt lat="43.22422" lon="5.37766">
        <ele>271</ele>
        <time>2015-11-08T12:52:32Z</time>
      </trkpt>
      <trkpt lat="43.22427" lon="5.3777">
        <ele>272</ele>
        <time>2015-11-08T12:52:42Z</time>
      </trkpt>
      <trkpt lat="43.22431" lon="5.37771">
        <ele>274</ele>
        <time>2015-11-08T12:52:52Z</time>
      </trkpt>
      <trkpt lat="43.22432" lon="5.37769">
        <ele>274</ele>
        <time>2015-11-08T12:53:16Z</time>
      </trkpt>
      <trkpt lat="43.22435" lon="5.37767">
        <ele>274</ele>
        <time>2015-11-08T12:53:28Z</time>
      </trkpt>
      <trkpt lat="43.22436" lon="5.3777">
        <ele>274</ele>
        <time>2015-11-08T12:53:43Z</time>
      </trkpt>
      <trkpt lat="43.22439" lon="5.37779">
        <ele>274</ele>
        <time>2015-11-08T12:53:53Z</time>
      </trkpt>
      <trkpt lat="43.22441" lon="5.37777">
        <ele>274</ele>
        <time>2015-11-08T12:54:06Z</time>
      </trkpt>
      <trkpt lat="43.22438" lon="5.37769">
        <ele>274</ele>
        <time>2015-11-08T12:54:18Z</time>
      </trkpt>
      <trkpt lat="43.22439" lon="5.37765">
        <ele>275</ele>
        <time>2015-11-08T12:54:27Z</time>
      </trkpt>
      <trkpt lat="43.22437" lon="5.37759">
        <ele>276</ele>
        <time>2015-11-08T12:54:36Z</time>
      </trkpt>
      <trkpt lat="43.22437" lon="5.37754">
        <ele>277</ele>
        <time>2015-11-08T12:54:49Z</time>
      </trkpt>
      <trkpt lat="43.22437" lon="5.37749">
        <ele>278</ele>
        <time>2015-11-08T12:54:59Z</time>
      </trkpt>
      <trkpt lat="43.22438" lon="5.37743">
        <ele>280</ele>
        <time>2015-11-08T12:55:12Z</time>
      </trkpt>
      <trkpt lat="43.22441" lon="5.3774">
        <ele>282</ele>
        <time>2015-11-08T12:55:24Z</time>
      </trkpt>
      <trkpt lat="43.22444" lon="5.37745">
        <ele>283</ele>
        <time>2015-11-08T12:55:34Z</time>
      </trkpt>
      <trkpt lat="43.22445" lon="5.37743">
        <ele>284</ele>
        <time>2015-11-08T12:55:57Z</time>
      </trkpt>
      <trkpt lat="43.22445" lon="5.37741">
        <ele>285</ele>
        <time>2015-11-08T12:56:49Z</time>
      </trkpt>
      <trkpt lat="43.22442" lon="5.37736">
        <ele>285</ele>
        <time>2015-11-08T12:56:59Z</time>
      </trkpt>
      <trkpt lat="43.2244" lon="5.37735">
        <ele>289</ele>
        <time>2015-11-08T12:57:15Z</time>
      </trkpt>
      <trkpt lat="43.2244" lon="5.37737">
        <ele>290</ele>
        <time>2015-11-08T12:57:45Z</time>
      </trkpt>
      <trkpt lat="43.22439" lon="5.37736">
        <ele>290</ele>
        <time>2015-11-08T12:57:56Z</time>
      </trkpt>
      <trkpt lat="43.22438" lon="5.37738">
        <ele>289</ele>
        <time>2015-11-08T12:58:22Z</time>
      </trkpt>
      <trkpt lat="43.22439" lon="5.37738">
        <ele>289</ele>
        <time>2015-11-08T12:58:42Z</time>
      </trkpt>
      <trkpt lat="43.22444" lon="5.37738">
        <ele>289</ele>
        <time>2015-11-08T12:58:54Z</time>
      </trkpt>
      <trkpt lat="43.22445" lon="5.37734">
        <ele>289</ele>
        <time>2015-11-08T12:59:04Z</time>
      </trkpt>
      <trkpt lat="43.22445" lon="5.37725">
        <ele>289</ele>
        <time>2015-11-08T12:59:13Z</time>
      </trkpt>
      <trkpt lat="43.2245" lon="5.37715">
        <ele>289</ele>
        <time>2015-11-08T12:59:22Z</time>
      </trkpt>
      <trkpt lat="43.22453" lon="5.37704">
        <ele>289</ele>
        <time>2015-11-08T12:59:31Z</time>
      </trkpt>
      <trkpt lat="43.22455" lon="5.37693">
        <ele>289</ele>
        <time>2015-11-08T12:59:41Z</time>
      </trkpt>
      <trkpt lat="43.22461" lon="5.37683">
        <ele>289</ele>
        <time>2015-11-08T12:59:51Z</time>
      </trkpt>
      <trkpt lat="43.22464" lon="5.37677">
        <ele>289</ele>
        <time>2015-11-08T13:00:27Z</time>
      </trkpt>
      <trkpt lat="43.22464" lon="5.37668">
        <ele>289</ele>
        <time>2015-11-08T13:00:37Z</time>
      </trkpt>
      <trkpt lat="43.22466" lon="5.3766">
        <ele>289</ele>
        <time>2015-11-08T13:00:47Z</time>
      </trkpt>
      <trkpt lat="43.22471" lon="5.37648">
        <ele>289</ele>
        <time>2015-11-08T13:00:57Z</time>
      </trkpt>
      <trkpt lat="43.22471" lon="5.37643">
        <ele>288</ele>
        <time>2015-11-08T13:01:09Z</time>
      </trkpt>
      <trkpt lat="43.22472" lon="5.37633">
        <ele>286</ele>
        <time>2015-11-08T13:01:18Z</time>
      </trkpt>
      <trkpt lat="43.22474" lon="5.37626">
        <ele>285</ele>
        <time>2015-11-08T13:01:33Z</time>
      </trkpt>
      <trkpt lat="43.22475" lon="5.3762">
        <ele>284</ele>
        <time>2015-11-08T13:01:42Z</time>
      </trkpt>
      <trkpt lat="43.22475" lon="5.37616">
        <ele>283</ele>
        <time>2015-11-08T13:01:51Z</time>
      </trkpt>
      <trkpt lat="43.22474" lon="5.37608">
        <ele>280</ele>
        <time>2015-11-08T13:02:01Z</time>
      </trkpt>
      <trkpt lat="43.22477" lon="5.37598">
        <ele>280</ele>
        <time>2015-11-08T13:02:11Z</time>
      </trkpt>
      <trkpt lat="43.22484" lon="5.37597">
        <ele>282</ele>
        <time>2015-11-08T13:02:22Z</time>
      </trkpt>
      <trkpt lat="43.2249" lon="5.37594">
        <ele>289</ele>
        <time>2015-11-08T13:02:31Z</time>
      </trkpt>
      <trkpt lat="43.22493" lon="5.37581">
        <ele>289</ele>
        <time>2015-11-08T13:02:42Z</time>
      </trkpt>
      <trkpt lat="43.22497" lon="5.37576">
        <ele>289</ele>
        <time>2015-11-08T13:02:51Z</time>
      </trkpt>
      <trkpt lat="43.22501" lon="5.37569">
        <ele>289</ele>
        <time>2015-11-08T13:03:03Z</time>
      </trkpt>
      <trkpt lat="43.22504" lon="5.37562">
        <ele>289</ele>
        <time>2015-11-08T13:03:14Z</time>
      </trkpt>
      <trkpt lat="43.22502" lon="5.37556">
        <ele>289</ele>
        <time>2015-11-08T13:03:23Z</time>
      </trkpt>
      <trkpt lat="43.22504" lon="5.37546">
        <ele>288</ele>
        <time>2015-11-08T13:03:32Z</time>
      </trkpt>
      <trkpt lat="43.22509" lon="5.37539">
        <ele>288</ele>
        <time>2015-11-08T13:03:41Z</time>
      </trkpt>
      <trkpt lat="43.22513" lon="5.37531">
        <ele>288</ele>
        <time>2015-11-08T13:03:51Z</time>
      </trkpt>
      <trkpt lat="43.22519" lon="5.37527">
        <ele>290</ele>
        <time>2015-11-08T13:04:04Z</time>
      </trkpt>
      <trkpt lat="43.22523" lon="5.37523">
        <ele>292</ele>
        <time>2015-11-08T13:04:14Z</time>
      </trkpt>
      <trkpt lat="43.22527" lon="5.37517">
        <ele>292</ele>
        <time>2015-11-08T13:04:23Z</time>
      </trkpt>
      <trkpt lat="43.22531" lon="5.3751">
        <ele>292</ele>
        <time>2015-11-08T13:04:34Z</time>
      </trkpt>
      <trkpt lat="43.22533" lon="5.37505">
        <ele>293</ele>
        <time>2015-11-08T13:04:44Z</time>
      </trkpt>
      <trkpt lat="43.22535" lon="5.375">
        <ele>295</ele>
        <time>2015-11-08T13:04:54Z</time>
      </trkpt>
      <trkpt lat="43.22538" lon="5.3749">
        <ele>295</ele>
        <time>2015-11-08T13:05:04Z</time>
      </trkpt>
      <trkpt lat="43.22543" lon="5.37478">
        <ele>295</ele>
        <time>2015-11-08T13:05:14Z</time>
      </trkpt>
      <trkpt lat="43.22549" lon="5.37474">
        <ele>295</ele>
        <time>2015-11-08T13:05:23Z</time>
      </trkpt>
      <trkpt lat="43.22557" lon="5.37466">
        <ele>295</ele>
        <time>2015-11-08T13:05:33Z</time>
      </trkpt>
      <trkpt lat="43.2256" lon="5.37462">
        <ele>295</ele>
        <time>2015-11-08T13:05:43Z</time>
      </trkpt>
      <trkpt lat="43.22564" lon="5.37451">
        <ele>295</ele>
        <time>2015-11-08T13:05:52Z</time>
      </trkpt>
      <trkpt lat="43.22567" lon="5.37441">
        <ele>295</ele>
        <time>2015-11-08T13:06:02Z</time>
      </trkpt>
      <trkpt lat="43.22564" lon="5.37428">
        <ele>294</ele>
        <time>2015-11-08T13:06:11Z</time>
      </trkpt>
      <trkpt lat="43.22562" lon="5.37418">
        <ele>294</ele>
        <time>2015-11-08T13:06:21Z</time>
      </trkpt>
      <trkpt lat="43.22563" lon="5.37415">
        <ele>294</ele>
        <time>2015-11-08T13:06:46Z</time>
      </trkpt>
      <trkpt lat="43.22562" lon="5.37415">
        <ele>294</ele>
        <time>2015-11-08T13:07:02Z</time>
      </trkpt>
      <trkpt lat="43.2256" lon="5.37416">
        <ele>294</ele>
        <time>2015-11-08T13:07:16Z</time>
      </trkpt>
      <trkpt lat="43.22562" lon="5.37418">
        <ele>294</ele>
        <time>2015-11-08T13:07:38Z</time>
      </trkpt>
      <trkpt lat="43.22563" lon="5.37417">
        <ele>294</ele>
        <time>2015-11-08T13:07:54Z</time>
      </trkpt>
      <trkpt lat="43.22564" lon="5.37415">
        <ele>294</ele>
        <time>2015-11-08T13:08:07Z</time>
      </trkpt>
      <trkpt lat="43.22566" lon="5.37411">
        <ele>294</ele>
        <time>2015-11-08T13:08:18Z</time>
      </trkpt>
      <trkpt lat="43.22571" lon="5.3741">
        <ele>294</ele>
        <time>2015-11-08T13:08:27Z</time>
      </trkpt>
      <trkpt lat="43.22577" lon="5.3741">
        <ele>293</ele>
        <time>2015-11-08T13:08:36Z</time>
      </trkpt>
      <trkpt lat="43.22586" lon="5.37407">
        <ele>291</ele>
        <time>2015-11-08T13:08:46Z</time>
      </trkpt>
      <trkpt lat="43.22594" lon="5.37402">
        <ele>291</ele>
        <time>2015-11-08T13:08:55Z</time>
      </trkpt>
      <trkpt lat="43.22601" lon="5.37396">
        <ele>291</ele>
        <time>2015-11-08T13:09:05Z</time>
      </trkpt>
      <trkpt lat="43.22607" lon="5.3739">
        <ele>291</ele>
        <time>2015-11-08T13:09:15Z</time>
      </trkpt>
      <trkpt lat="43.22611" lon="5.37381">
        <ele>291</ele>
        <time>2015-11-08T13:09:28Z</time>
      </trkpt>
      <trkpt lat="43.22612" lon="5.37377">
        <ele>291</ele>
        <time>2015-11-08T13:09:46Z</time>
      </trkpt>
      <trkpt lat="43.22616" lon="5.37369">
        <ele>291</ele>
        <time>2015-11-08T13:09:56Z</time>
      </trkpt>
      <trkpt lat="43.22623" lon="5.37362">
        <ele>291</ele>
        <time>2015-11-08T13:10:08Z</time>
      </trkpt>
      <trkpt lat="43.22626" lon="5.37364">
        <ele>291</ele>
        <time>2015-11-08T13:10:18Z</time>
      </trkpt>
      <trkpt lat="43.2263" lon="5.37359">
        <ele>288</ele>
        <time>2015-11-08T13:11:54Z</time>
      </trkpt>
      <trkpt lat="43.22631" lon="5.37357">
        <ele>288</ele>
        <time>2015-11-08T13:12:05Z</time>
      </trkpt>
      <trkpt lat="43.22634" lon="5.37359">
        <ele>288</ele>
        <time>2015-11-08T13:12:16Z</time>
      </trkpt>
      <trkpt lat="43.22635" lon="5.37366">
        <ele>286</ele>
        <time>2015-11-08T13:12:27Z</time>
      </trkpt>
      <trkpt lat="43.22635" lon="5.37373">
        <ele>284</ele>
        <time>2015-11-08T13:12:37Z</time>
      </trkpt>
      <trkpt lat="43.22633" lon="5.37375">
        <ele>281</ele>
        <time>2015-11-08T13:12:52Z</time>
      </trkpt>
      <trkpt lat="43.22632" lon="5.37374">
        <ele>278</ele>
        <time>2015-11-08T13:13:02Z</time>
      </trkpt>
      <trkpt lat="43.22632" lon="5.37376">
        <ele>277</ele>
        <time>2015-11-08T13:13:18Z</time>
      </trkpt>
      <trkpt lat="43.2263" lon="5.37378">
        <ele>275</ele>
        <time>2015-11-08T13:13:33Z</time>
      </trkpt>
      <trkpt lat="43.22632" lon="5.37383">
        <ele>275</ele>
        <time>2015-11-08T13:13:44Z</time>
      </trkpt>
      <trkpt lat="43.22635" lon="5.37383">
        <ele>275</ele>
        <time>2015-11-08T13:13:53Z</time>
      </trkpt>
      <trkpt lat="43.22637" lon="5.37381">
        <ele>273</ele>
        <time>2015-11-08T13:14:04Z</time>
      </trkpt>
      <trkpt lat="43.22638" lon="5.3738">
        <ele>269</ele>
        <time>2015-11-08T13:14:16Z</time>
      </trkpt>
      <trkpt lat="43.22638" lon="5.37382">
        <ele>263</ele>
        <time>2015-11-08T13:14:48Z</time>
      </trkpt>
      <trkpt lat="43.2264" lon="5.37384">
        <ele>263</ele>
        <time>2015-11-08T13:15:03Z</time>
      </trkpt>
      <trkpt lat="43.22641" lon="5.37384">
        <ele>261</ele>
        <time>2015-11-08T13:15:14Z</time>
      </trkpt>
      <trkpt lat="43.22643" lon="5.37385">
        <ele>261</ele>
        <time>2015-11-08T13:15:27Z</time>
      </trkpt>
      <trkpt lat="43.22645" lon="5.37387">
        <ele>261</ele>
        <time>2015-11-08T13:15:39Z</time>
      </trkpt>
      <trkpt lat="43.22644" lon="5.37393">
        <ele>261</ele>
        <time>2015-11-08T13:15:56Z</time>
      </trkpt>
      <trkpt lat="43.22644" lon="5.37396">
        <ele>260</ele>
        <time>2015-11-08T13:16:10Z</time>
      </trkpt>
      <trkpt lat="43.22646" lon="5.37397">
        <ele>260</ele>
        <time>2015-11-08T13:16:22Z</time>
      </trkpt>
      <trkpt lat="43.22647" lon="5.37397">
        <ele>260</ele>
        <time>2015-11-08T13:16:32Z</time>
      </trkpt>
      <trkpt lat="43.22649" lon="5.37396">
        <ele>260</ele>
        <time>2015-11-08T13:16:41Z</time>
      </trkpt>
      <trkpt lat="43.22652" lon="5.37394">
        <ele>260</ele>
        <time>2015-11-08T13:16:50Z</time>
      </trkpt>
      <trkpt lat="43.22655" lon="5.37397">
        <ele>258</ele>
        <time>2015-11-08T13:17:01Z</time>
      </trkpt>
      <trkpt lat="43.22659" lon="5.37398">
        <ele>256</ele>
        <time>2015-11-08T13:17:12Z</time>
      </trkpt>
      <trkpt lat="43.22666" lon="5.37402">
        <ele>254</ele>
        <time>2015-11-08T13:17:22Z</time>
      </trkpt>
      <trkpt lat="43.22673" lon="5.37406">
        <ele>251</ele>
        <time>2015-11-08T13:17:31Z</time>
      </trkpt>
      <trkpt lat="43.22681" lon="5.3741">
        <ele>250</ele>
        <time>2015-11-08T13:17:41Z</time>
      </trkpt>
      <trkpt lat="43.22678" lon="5.37424">
        <ele>250</ele>
        <time>2015-11-08T13:17:52Z</time>
      </trkpt>
      <trkpt lat="43.22672" lon="5.37437">
        <ele>246</ele>
        <time>2015-11-08T13:18:02Z</time>
      </trkpt>
      <trkpt lat="43.22665" lon="5.37441">
        <ele>245</ele>
        <time>2015-11-08T13:18:12Z</time>
      </trkpt>
      <trkpt lat="43.22657" lon="5.37451">
        <ele>243</ele>
        <time>2015-11-08T13:18:21Z</time>
      </trkpt>
      <trkpt lat="43.22651" lon="5.37457">
        <ele>242</ele>
        <time>2015-11-08T13:18:33Z</time>
      </trkpt>
      <trkpt lat="43.22649" lon="5.37463">
        <ele>239</ele>
        <time>2015-11-08T13:18:43Z</time>
      </trkpt>
      <trkpt lat="43.22651" lon="5.37471">
        <ele>237</ele>
        <time>2015-11-08T13:18:52Z</time>
      </trkpt>
      <trkpt lat="43.22656" lon="5.37474">
        <ele>234</ele>
        <time>2015-11-08T13:19:02Z</time>
      </trkpt>
      <trkpt lat="43.22661" lon="5.37484">
        <ele>234</ele>
        <time>2015-11-08T13:19:11Z</time>
      </trkpt>
      <trkpt lat="43.22671" lon="5.37488">
        <ele>231</ele>
        <time>2015-11-08T13:19:22Z</time>
      </trkpt>
      <trkpt lat="43.22674" lon="5.37477">
        <ele>230</ele>
        <time>2015-11-08T13:19:31Z</time>
      </trkpt>
      <trkpt lat="43.22681" lon="5.37465">
        <ele>230</ele>
        <time>2015-11-08T13:19:41Z</time>
      </trkpt>
      <trkpt lat="43.2269" lon="5.37454">
        <ele>230</ele>
        <time>2015-11-08T13:19:51Z</time>
      </trkpt>
      <trkpt lat="43.227" lon="5.37442">
        <ele>230</ele>
        <time>2015-11-08T13:20:01Z</time>
      </trkpt>
      <trkpt lat="43.22707" lon="5.37431">
        <ele>232</ele>
        <time>2015-11-08T13:20:12Z</time>
      </trkpt>
      <trkpt lat="43.22712" lon="5.37425">
        <ele>232</ele>
        <time>2015-11-08T13:20:22Z</time>
      </trkpt>
      <trkpt lat="43.22711" lon="5.37416">
        <ele>232</ele>
        <time>2015-11-08T13:20:31Z</time>
      </trkpt>
      <trkpt lat="43.22711" lon="5.37402">
        <ele>229</ele>
        <time>2015-11-08T13:20:42Z</time>
      </trkpt>
      <trkpt lat="43.22712" lon="5.37392">
        <ele>228</ele>
        <time>2015-11-08T13:20:52Z</time>
      </trkpt>
      <trkpt lat="43.22713" lon="5.37382">
        <ele>226</ele>
        <time>2015-11-08T13:21:02Z</time>
      </trkpt>
      <trkpt lat="43.22713" lon="5.37372">
        <ele>224</ele>
        <time>2015-11-08T13:21:11Z</time>
      </trkpt>
      <trkpt lat="43.22713" lon="5.37362">
        <ele>222</ele>
        <time>2015-11-08T13:21:22Z</time>
      </trkpt>
      <trkpt lat="43.22708" lon="5.37352">
        <ele>220</ele>
        <time>2015-11-08T13:21:32Z</time>
      </trkpt>
      <trkpt lat="43.22706" lon="5.37341">
        <ele>218</ele>
        <time>2015-11-08T13:21:41Z</time>
      </trkpt>
      <trkpt lat="43.22707" lon="5.37327">
        <ele>217</ele>
        <time>2015-11-08T13:21:52Z</time>
      </trkpt>
      <trkpt lat="43.22705" lon="5.37315">
        <ele>216</ele>
        <time>2015-11-08T13:22:01Z</time>
      </trkpt>
      <trkpt lat="43.22702" lon="5.37303">
        <ele>214</ele>
        <time>2015-11-08T13:22:11Z</time>
      </trkpt>
      <trkpt lat="43.22701" lon="5.37294">
        <ele>213</ele>
        <time>2015-11-08T13:22:22Z</time>
      </trkpt>
      <trkpt lat="43.22698" lon="5.37285">
        <ele>212</ele>
        <time>2015-11-08T13:22:33Z</time>
      </trkpt>
      <trkpt lat="43.22698" lon="5.37276">
        <ele>209</ele>
        <time>2015-11-08T13:22:43Z</time>
      </trkpt>
      <trkpt lat="43.22697" lon="5.37266">
        <ele>207</ele>
        <time>2015-11-08T13:22:52Z</time>
      </trkpt>
      <trkpt lat="43.2269" lon="5.3726">
        <ele>204</ele>
        <time>2015-11-08T13:23:02Z</time>
      </trkpt>
      <trkpt lat="43.22688" lon="5.3725">
        <ele>202</ele>
        <time>2015-11-08T13:23:12Z</time>
      </trkpt>
      <trkpt lat="43.22684" lon="5.37242">
        <ele>200</ele>
        <time>2015-11-08T13:23:22Z</time>
      </trkpt>
      <trkpt lat="43.22684" lon="5.37236">
        <ele>199</ele>
        <time>2015-11-08T13:23:32Z</time>
      </trkpt>
      <trkpt lat="43.22685" lon="5.3723">
        <ele>197</ele>
        <time>2015-11-08T13:23:42Z</time>
      </trkpt>
      <trkpt lat="43.22682" lon="5.37223">
        <ele>193</ele>
        <time>2015-11-08T13:23:52Z</time>
      </trkpt>
      <trkpt lat="43.22677" lon="5.37219">
        <ele>188</ele>
        <time>2015-11-08T13:24:01Z</time>
      </trkpt>
      <trkpt lat="43.22674" lon="5.37214">
        <ele>185</ele>
        <time>2015-11-08T13:24:10Z</time>
      </trkpt>
      <trkpt lat="43.2267" lon="5.37204">
        <ele>186</ele>
        <time>2015-11-08T13:24:20Z</time>
      </trkpt>
      <trkpt lat="43.22667" lon="5.37197">
        <ele>187</ele>
        <time>2015-11-08T13:24:31Z</time>
      </trkpt>
      <trkpt lat="43.22665" lon="5.3719">
        <ele>187</ele>
        <time>2015-11-08T13:24:41Z</time>
      </trkpt>
      <trkpt lat="43.22663" lon="5.37183">
        <ele>185</ele>
        <time>2015-11-08T13:24:50Z</time>
      </trkpt>
      <trkpt lat="43.22661" lon="5.37173">
        <ele>183</ele>
        <time>2015-11-08T13:24:59Z</time>
      </trkpt>
      <trkpt lat="43.2266" lon="5.3716">
        <ele>180</ele>
        <time>2015-11-08T13:25:09Z</time>
      </trkpt>
      <trkpt lat="43.22662" lon="5.37144">
        <ele>178</ele>
        <time>2015-11-08T13:25:19Z</time>
      </trkpt>
      <trkpt lat="43.22667" lon="5.37135">
        <ele>178</ele>
        <time>2015-11-08T13:25:30Z</time>
      </trkpt>
      <trkpt lat="43.22671" lon="5.37129">
        <ele>178</ele>
        <time>2015-11-08T13:25:39Z</time>
      </trkpt>
      <trkpt lat="43.22677" lon="5.37124">
        <ele>178</ele>
        <time>2015-11-08T13:25:48Z</time>
      </trkpt>
      <trkpt lat="43.22689" lon="5.37114">
        <ele>178</ele>
        <time>2015-11-08T13:25:58Z</time>
      </trkpt>
      <trkpt lat="43.22695" lon="5.371">
        <ele>178</ele>
        <time>2015-11-08T13:26:07Z</time>
      </trkpt>
      <trkpt lat="43.22699" lon="5.37087">
        <ele>178</ele>
        <time>2015-11-08T13:26:16Z</time>
      </trkpt>
      <trkpt lat="43.227" lon="5.37073">
        <ele>175</ele>
        <time>2015-11-08T13:26:26Z</time>
      </trkpt>
      <trkpt lat="43.22704" lon="5.3706">
        <ele>175</ele>
        <time>2015-11-08T13:26:36Z</time>
      </trkpt>
      <trkpt lat="43.22713" lon="5.3705">
        <ele>175</ele>
        <time>2015-11-08T13:26:47Z</time>
      </trkpt>
      <trkpt lat="43.2272" lon="5.37039">
        <ele>175</ele>
        <time>2015-11-08T13:26:57Z</time>
      </trkpt>
      <trkpt lat="43.22723" lon="5.37029">
        <ele>175</ele>
        <time>2015-11-08T13:27:08Z</time>
      </trkpt>
      <trkpt lat="43.22722" lon="5.37027">
        <ele>173</ele>
        <time>2015-11-08T13:27:17Z</time>
      </trkpt>
      <trkpt lat="43.22721" lon="5.37026">
        <ele>172</ele>
        <time>2015-11-08T13:27:26Z</time>
      </trkpt>
      <trkpt lat="43.22723" lon="5.37023">
        <ele>170</ele>
        <time>2015-11-08T13:27:41Z</time>
      </trkpt>
      <trkpt lat="43.22722" lon="5.37022">
        <ele>166</ele>
        <time>2015-11-08T13:27:57Z</time>
      </trkpt>
      <trkpt lat="43.22721" lon="5.37019">
        <ele>163</ele>
        <time>2015-11-08T13:28:12Z</time>
      </trkpt>
      <trkpt lat="43.22718" lon="5.37013">
        <ele>162</ele>
        <time>2015-11-08T13:28:23Z</time>
      </trkpt>
      <trkpt lat="43.2272" lon="5.37009">
        <ele>161</ele>
        <time>2015-11-08T13:28:32Z</time>
      </trkpt>
      <trkpt lat="43.2272" lon="5.37004">
        <ele>159</ele>
        <time>2015-11-08T13:28:41Z</time>
      </trkpt>
      <trkpt lat="43.22715" lon="5.37">
        <ele>154</ele>
        <time>2015-11-08T13:28:51Z</time>
      </trkpt>
      <trkpt lat="43.22716" lon="5.36992">
        <ele>152</ele>
        <time>2015-11-08T13:29:03Z</time>
      </trkpt>
      <trkpt lat="43.22713" lon="5.36986">
        <ele>152</ele>
        <time>2015-11-08T13:29:13Z</time>
      </trkpt>
      <trkpt lat="43.22711" lon="5.36978">
        <ele>152</ele>
        <time>2015-11-08T13:29:23Z</time>
      </trkpt>
      <trkpt lat="43.22709" lon="5.36974">
        <ele>150</ele>
        <time>2015-11-08T13:29:34Z</time>
      </trkpt>
      <trkpt lat="43.22707" lon="5.36964">
        <ele>150</ele>
        <time>2015-11-08T13:29:44Z</time>
      </trkpt>
      <trkpt lat="43.22705" lon="5.36957">
        <ele>148</ele>
        <time>2015-11-08T13:29:54Z</time>
      </trkpt>
      <trkpt lat="43.22704" lon="5.36944">
        <ele>148</ele>
        <time>2015-11-08T13:30:04Z</time>
      </trkpt>
      <trkpt lat="43.22699" lon="5.3693">
        <ele>144</ele>
        <time>2015-11-08T13:30:14Z</time>
      </trkpt>
      <trkpt lat="43.22696" lon="5.3692">
        <ele>143</ele>
        <time>2015-11-08T13:30:23Z</time>
      </trkpt>
      <trkpt lat="43.22689" lon="5.36908">
        <ele>142</ele>
        <time>2015-11-08T13:30:33Z</time>
      </trkpt>
      <trkpt lat="43.22681" lon="5.369">
        <ele>135</ele>
        <time>2015-11-08T13:30:46Z</time>
      </trkpt>
      <trkpt lat="43.2268" lon="5.36893">
        <ele>135</ele>
        <time>2015-11-08T13:30:58Z</time>
      </trkpt>
      <trkpt lat="43.22676" lon="5.36884">
        <ele>133</ele>
        <time>2015-11-08T13:31:08Z</time>
      </trkpt>
      <trkpt lat="43.22671" lon="5.36875">
        <ele>128</ele>
        <time>2015-11-08T13:31:18Z</time>
      </trkpt>
      <trkpt lat="43.22669" lon="5.36865">
        <ele>128</ele>
        <time>2015-11-08T13:31:27Z</time>
      </trkpt>
      <trkpt lat="43.22664" lon="5.36852">
        <ele>127</ele>
        <time>2015-11-08T13:31:36Z</time>
      </trkpt>
      <trkpt lat="43.22658" lon="5.36839">
        <ele>122</ele>
        <time>2015-11-08T13:31:46Z</time>
      </trkpt>
      <trkpt lat="43.22652" lon="5.36828">
        <ele>121</ele>
        <time>2015-11-08T13:31:57Z</time>
      </trkpt>
      <trkpt lat="43.22647" lon="5.36818">
        <ele>121</ele>
        <time>2015-11-08T13:32:06Z</time>
      </trkpt>
      <trkpt lat="43.22642" lon="5.36806">
        <ele>117</ele>
        <time>2015-11-08T13:32:16Z</time>
      </trkpt>
      <trkpt lat="43.22636" lon="5.36793">
        <ele>114</ele>
        <time>2015-11-08T13:32:27Z</time>
      </trkpt>
      <trkpt lat="43.22634" lon="5.3679">
        <ele>109</ele>
        <time>2015-11-08T13:32:36Z</time>
      </trkpt>
      <trkpt lat="43.22634" lon="5.36792">
        <ele>108</ele>
        <time>2015-11-08T13:33:11Z</time>
      </trkpt>
      <trkpt lat="43.22633" lon="5.36792">
        <ele>110</ele>
        <time>2015-11-08T13:33:25Z</time>
      </trkpt>
      <trkpt lat="43.22632" lon="5.3679">
        <ele>110</ele>
        <time>2015-11-08T13:33:43Z</time>
      </trkpt>
      <trkpt lat="43.22632" lon="5.36786">
        <ele>110</ele>
        <time>2015-11-08T13:33:55Z</time>
      </trkpt>
      <trkpt lat="43.22633" lon="5.36772">
        <ele>110</ele>
        <time>2015-11-08T13:34:05Z</time>
      </trkpt>
      <trkpt lat="43.22632" lon="5.36758">
        <ele>110</ele>
        <time>2015-11-08T13:34:14Z</time>
      </trkpt>
      <trkpt lat="43.22633" lon="5.36747">
        <ele>108</ele>
        <time>2015-11-08T13:34:24Z</time>
      </trkpt>
      <trkpt lat="43.22635" lon="5.36733">
        <ele>107</ele>
        <time>2015-11-08T13:34:33Z</time>
      </trkpt>
      <trkpt lat="43.22634" lon="5.36721">
        <ele>105</ele>
        <time>2015-11-08T13:34:42Z</time>
      </trkpt>
      <trkpt lat="43.22633" lon="5.36716">
        <ele>105</ele>
        <time>2015-11-08T13:34:51Z</time>
      </trkpt>
      <trkpt lat="43.22641" lon="5.36711">
        <ele>107</ele>
        <time>2015-11-08T13:35:01Z</time>
      </trkpt>
      <trkpt lat="43.22646" lon="5.36711">
        <ele>107</ele>
        <time>2015-11-08T13:35:12Z</time>
      </trkpt>
      <trkpt lat="43.2265" lon="5.36711">
        <ele>107</ele>
        <time>2015-11-08T13:35:22Z</time>
      </trkpt>
      <trkpt lat="43.22654" lon="5.36711">
        <ele>103</ele>
        <time>2015-11-08T13:35:35Z</time>
      </trkpt>
      <trkpt lat="43.2266" lon="5.36714">
        <ele>102</ele>
        <time>2015-11-08T13:35:45Z</time>
      </trkpt>
      <trkpt lat="43.22665" lon="5.3671">
        <ele>102</ele>
        <time>2015-11-08T13:35:54Z</time>
      </trkpt>
      <trkpt lat="43.22671" lon="5.36708">
        <ele>102</ele>
        <time>2015-11-08T13:36:04Z</time>
      </trkpt>
      <trkpt lat="43.22675" lon="5.36709">
        <ele>100</ele>
        <time>2015-11-08T13:36:13Z</time>
      </trkpt>
      <trkpt lat="43.2268" lon="5.36709">
        <ele>98</ele>
        <time>2015-11-08T13:36:23Z</time>
      </trkpt>
      <trkpt lat="43.22686" lon="5.36708">
        <ele>96</ele>
        <time>2015-11-08T13:36:32Z</time>
      </trkpt>
      <trkpt lat="43.22694" lon="5.36705">
        <ele>96</ele>
        <time>2015-11-08T13:36:41Z</time>
      </trkpt>
      <trkpt lat="43.227" lon="5.36703">
        <ele>94</ele>
        <time>2015-11-08T13:36:51Z</time>
      </trkpt>
      <trkpt lat="43.22709" lon="5.36699">
        <ele>94</ele>
        <time>2015-11-08T13:37:02Z</time>
      </trkpt>
      <trkpt lat="43.22717" lon="5.367">
        <ele>94</ele>
        <time>2015-11-08T13:37:11Z</time>
      </trkpt>
      <trkpt lat="43.22725" lon="5.36702">
        <ele>94</ele>
        <time>2015-11-08T13:37:20Z</time>
      </trkpt>
      <trkpt lat="43.22731" lon="5.367">
        <ele>92</ele>
        <time>2015-11-08T13:37:30Z</time>
      </trkpt>
      <trkpt lat="43.22737" lon="5.36704">
        <ele>95</ele>
        <time>2015-11-08T13:37:41Z</time>
      </trkpt>
      <trkpt lat="43.22745" lon="5.36701">
        <ele>96</ele>
        <time>2015-11-08T13:37:55Z</time>
      </trkpt>
      <trkpt lat="43.22752" lon="5.36703">
        <ele>93</ele>
        <time>2015-11-08T13:38:07Z</time>
      </trkpt>
      <trkpt lat="43.22754" lon="5.36705">
        <ele>91</ele>
        <time>2015-11-08T13:38:16Z</time>
      </trkpt>
      <trkpt lat="43.22763" lon="5.36709">
        <ele>91</ele>
        <time>2015-11-08T13:38:26Z</time>
      </trkpt>
      <trkpt lat="43.22769" lon="5.36708">
        <ele>95</ele>
        <time>2015-11-08T13:38:36Z</time>
      </trkpt>
      <trkpt lat="43.22777" lon="5.36713">
        <ele>92</ele>
        <time>2015-11-08T13:38:45Z</time>
      </trkpt>
      <trkpt lat="43.22779" lon="5.36715">
        <ele>83</ele>
        <time>2015-11-08T13:38:54Z</time>
      </trkpt>
      <trkpt lat="43.22786" lon="5.36714">
        <ele>76</ele>
        <time>2015-11-08T13:39:03Z</time>
      </trkpt>
      <trkpt lat="43.22796" lon="5.36714">
        <ele>76</ele>
        <time>2015-11-08T13:39:13Z</time>
      </trkpt>
      <trkpt lat="43.22803" lon="5.36712">
        <ele>76</ele>
        <time>2015-11-08T13:39:22Z</time>
      </trkpt>
      <trkpt lat="43.22814" lon="5.36712">
        <ele>76</ele>
        <time>2015-11-08T13:39:32Z</time>
      </trkpt>
      <trkpt lat="43.22826" lon="5.36711">
        <ele>71</ele>
        <time>2015-11-08T13:39:41Z</time>
      </trkpt>
      <trkpt lat="43.22837" lon="5.36708">
        <ele>66</ele>
        <time>2015-11-08T13:39:51Z</time>
      </trkpt>
      <trkpt lat="43.22848" lon="5.36709">
        <ele>64</ele>
        <time>2015-11-08T13:40:01Z</time>
      </trkpt>
      <trkpt lat="43.2286" lon="5.36706">
        <ele>62</ele>
        <time>2015-11-08T13:40:12Z</time>
      </trkpt>
      <trkpt lat="43.22865" lon="5.36702">
        <ele>60</ele>
        <time>2015-11-08T13:40:21Z</time>
      </trkpt>
      <trkpt lat="43.22875" lon="5.36698">
        <ele>58</ele>
        <time>2015-11-08T13:40:30Z</time>
      </trkpt>
      <trkpt lat="43.22885" lon="5.36694">
        <ele>55</ele>
        <time>2015-11-08T13:40:40Z</time>
      </trkpt>
      <trkpt lat="43.22895" lon="5.36687">
        <ele>55</ele>
        <time>2015-11-08T13:40:49Z</time>
      </trkpt>
      <trkpt lat="43.22905" lon="5.36684">
        <ele>54</ele>
        <time>2015-11-08T13:40:58Z</time>
      </trkpt>
      <trkpt lat="43.22914" lon="5.36679">
        <ele>54</ele>
        <time>2015-11-08T13:41:07Z</time>
      </trkpt>
      <trkpt lat="43.22922" lon="5.36678">
        <ele>54</ele>
        <time>2015-11-08T13:41:16Z</time>
      </trkpt>
      <trkpt lat="43.22932" lon="5.36679">
        <ele>53</ele>
        <time>2015-11-08T13:41:26Z</time>
      </trkpt>
      <trkpt lat="43.22941" lon="5.3668">
        <ele>53</ele>
        <time>2015-11-08T13:41:37Z</time>
      </trkpt>
      <trkpt lat="43.22949" lon="5.36684">
        <ele>53</ele>
        <time>2015-11-08T13:41:47Z</time>
      </trkpt>
      <trkpt lat="43.22953" lon="5.36694">
        <ele>52</ele>
        <time>2015-11-08T13:41:56Z</time>
      </trkpt>
      <trkpt lat="43.22956" lon="5.36707">
        <ele>52</ele>
        <time>2015-11-08T13:42:07Z</time>
      </trkpt>
      <trkpt lat="43.22963" lon="5.36717">
        <ele>51</ele>
        <time>2015-11-08T13:42:16Z</time>
      </trkpt>
      <trkpt lat="43.22972" lon="5.36728">
        <ele>48</ele>
        <time>2015-11-08T13:42:26Z</time>
      </trkpt>
      <trkpt lat="43.22982" lon="5.36736">
        <ele>47</ele>
        <time>2015-11-08T13:42:36Z</time>
      </trkpt>
      <trkpt lat="43.22993" lon="5.36736">
        <ele>46</ele>
        <time>2015-11-08T13:42:46Z</time>
      </trkpt>
      <trkpt lat="43.23005" lon="5.36727">
        <ele>46</ele>
        <time>2015-11-08T13:42:57Z</time>
      </trkpt>
      <trkpt lat="43.23016" lon="5.36722">
        <ele>47</ele>
        <time>2015-11-08T13:43:07Z</time>
      </trkpt>
      <trkpt lat="43.23026" lon="5.3672">
        <ele>47</ele>
        <time>2015-11-08T13:43:17Z</time>
      </trkpt>
      <trkpt lat="43.23037" lon="5.36719">
        <ele>47</ele>
        <time>2015-11-08T13:43:26Z</time>
      </trkpt>
      <trkpt lat="43.23049" lon="5.36719">
        <ele>47</ele>
        <time>2015-11-08T13:43:36Z</time>
      </trkpt>
      <trkpt lat="43.23059" lon="5.36717">
        <ele>47</ele>
        <time>2015-11-08T13:43:47Z</time>
      </trkpt>
      <trkpt lat="43.23067" lon="5.36717">
        <ele>49</ele>
        <time>2015-11-08T13:43:56Z</time>
      </trkpt>
      <trkpt lat="43.23079" lon="5.36717">
        <ele>50</ele>
        <time>2015-11-08T13:44:07Z</time>
      </trkpt>
      <trkpt lat="43.2309" lon="5.36719">
        <ele>50</ele>
        <time>2015-11-08T13:44:16Z</time>
      </trkpt>
      <trkpt lat="43.23103" lon="5.36721">
        <ele>50</ele>
        <time>2015-11-08T13:44:26Z</time>
      </trkpt>
      <trkpt lat="43.23115" lon="5.36724">
        <ele>50</ele>
        <time>2015-11-08T13:44:36Z</time>
      </trkpt>
      <trkpt lat="43.23126" lon="5.36725">
        <ele>50</ele>
        <time>2015-11-08T13:44:46Z</time>
      </trkpt>
      <trkpt lat="43.23138" lon="5.36727">
        <ele>50</ele>
        <time>2015-11-08T13:44:56Z</time>
      </trkpt>
      <trkpt lat="43.23148" lon="5.36733">
        <ele>51</ele>
        <time>2015-11-08T13:45:06Z</time>
      </trkpt>
      <trkpt lat="43.23158" lon="5.36743">
        <ele>52</ele>
        <time>2015-11-08T13:45:16Z</time>
      </trkpt>
      <trkpt lat="43.23169" lon="5.3675">
        <ele>54</ele>
        <time>2015-11-08T13:45:27Z</time>
      </trkpt>
      <trkpt lat="43.23177" lon="5.36745">
        <ele>54</ele>
        <time>2015-11-08T13:45:36Z</time>
      </trkpt>
      <trkpt lat="43.23188" lon="5.36739">
        <ele>54</ele>
        <time>2015-11-08T13:45:46Z</time>
      </trkpt>
      <trkpt lat="43.23199" lon="5.36734">
        <ele>52</ele>
        <time>2015-11-08T13:45:56Z</time>
      </trkpt>
      <trkpt lat="43.23212" lon="5.36731">
        <ele>50</ele>
        <time>2015-11-08T13:46:06Z</time>
      </trkpt>
      <trkpt lat="43.23224" lon="5.3673">
        <ele>49</ele>
        <time>2015-11-08T13:46:16Z</time>
      </trkpt>
      <trkpt lat="43.23235" lon="5.36732">
        <ele>49</ele>
        <time>2015-11-08T13:46:26Z</time>
      </trkpt>
      <trkpt lat="43.23247" lon="5.36737">
        <ele>49</ele>
        <time>2015-11-08T13:46:36Z</time>
      </trkpt>
      <trkpt lat="43.23258" lon="5.36741">
        <ele>49</ele>
        <time>2015-11-08T13:46:47Z</time>
      </trkpt>
      <trkpt lat="43.23266" lon="5.36743">
        <ele>49</ele>
        <time>2015-11-08T13:46:56Z</time>
      </trkpt>
      <trkpt lat="43.23274" lon="5.3675">
        <ele>49</ele>
        <time>2015-11-08T13:47:06Z</time>
      </trkpt>
      <trkpt lat="43.23282" lon="5.36761">
        <ele>49</ele>
        <time>2015-11-08T13:47:16Z</time>
      </trkpt>
      <trkpt lat="43.23291" lon="5.36767">
        <ele>47</ele>
        <time>2015-11-08T13:47:26Z</time>
      </trkpt>
      <trkpt lat="43.233" lon="5.36774">
        <ele>45</ele>
        <time>2015-11-08T13:47:37Z</time>
      </trkpt>
      <trkpt lat="43.23309" lon="5.36782">
        <ele>45</ele>
        <time>2015-11-08T13:47:47Z</time>
      </trkpt>
      <trkpt lat="43.23317" lon="5.36793">
        <ele>43</ele>
        <time>2015-11-08T13:47:57Z</time>
      </trkpt>
      <trkpt lat="43.23322" lon="5.36804">
        <ele>43</ele>
        <time>2015-11-08T13:48:06Z</time>
      </trkpt>
      <trkpt lat="43.2333" lon="5.36814">
        <ele>43</ele>
        <time>2015-11-08T13:48:16Z</time>
      </trkpt>
      <trkpt lat="43.23341" lon="5.36818">
        <ele>43</ele>
        <time>2015-11-08T13:48:27Z</time>
      </trkpt>
      <trkpt lat="43.23349" lon="5.36825">
        <ele>42</ele>
        <time>2015-11-08T13:48:36Z</time>
      </trkpt>
      <trkpt lat="43.23359" lon="5.36835">
        <ele>40</ele>
        <time>2015-11-08T13:48:46Z</time>
      </trkpt>
      <trkpt lat="43.23368" lon="5.36842">
        <ele>42</ele>
        <time>2015-11-08T13:48:56Z</time>
      </trkpt>
      <trkpt lat="43.23381" lon="5.3685">
        <ele>45</ele>
        <time>2015-11-08T13:49:07Z</time>
      </trkpt>
      <trkpt lat="43.23392" lon="5.36853">
        <ele>42</ele>
        <time>2015-11-08T13:49:16Z</time>
      </trkpt>
      <trkpt lat="43.23403" lon="5.36855">
        <ele>42</ele>
        <time>2015-11-08T13:49:26Z</time>
      </trkpt>
      <trkpt lat="43.23415" lon="5.36855">
        <ele>42</ele>
        <time>2015-11-08T13:49:37Z</time>
      </trkpt>
      <trkpt lat="43.23423" lon="5.36848">
        <ele>42</ele>
        <time>2015-11-08T13:49:47Z</time>
      </trkpt>
      <trkpt lat="43.23428" lon="5.3684">
        <ele>39</ele>
        <time>2015-11-08T13:49:59Z</time>
      </trkpt>
      <trkpt lat="43.23434" lon="5.3683">
        <ele>34</ele>
        <time>2015-11-08T13:50:08Z</time>
      </trkpt>
      <trkpt lat="43.23443" lon="5.36819">
        <ele>30</ele>
        <time>2015-11-08T13:50:17Z</time>
      </trkpt>
      <trkpt lat="43.23451" lon="5.36811">
        <ele>34</ele>
        <time>2015-11-08T13:50:27Z</time>
      </trkpt>
      <trkpt lat="43.23458" lon="5.36802">
        <ele>35</ele>
        <time>2015-11-08T13:50:37Z</time>
      </trkpt>
      <trkpt lat="43.23467" lon="5.36791">
        <ele>35</ele>
        <time>2015-11-08T13:50:47Z</time>
      </trkpt>
      <trkpt lat="43.23473" lon="5.3678">
        <ele>35</ele>
        <time>2015-11-08T13:50:56Z</time>
      </trkpt>
      <trkpt lat="43.2348" lon="5.36769">
        <ele>35</ele>
        <time>2015-11-08T13:51:06Z</time>
      </trkpt>
      <trkpt lat="43.23487" lon="5.3676">
        <ele>35</ele>
        <time>2015-11-08T13:51:16Z</time>
      </trkpt>
      <trkpt lat="43.23496" lon="5.36752">
        <ele>35</ele>
        <time>2015-11-08T13:51:26Z</time>
      </trkpt>
      <trkpt lat="43.23503" lon="5.36742">
        <ele>35</ele>
        <time>2015-11-08T13:51:36Z</time>
      </trkpt>
      <trkpt lat="43.23511" lon="5.36732">
        <ele>35</ele>
        <time>2015-11-08T13:51:47Z</time>
      </trkpt>
      <trkpt lat="43.23516" lon="5.36727">
        <ele>33</ele>
        <time>2015-11-08T13:51:56Z</time>
      </trkpt>
      <trkpt lat="43.23523" lon="5.36719">
        <ele>31</ele>
        <time>2015-11-08T13:52:06Z</time>
      </trkpt>
      <trkpt lat="43.23531" lon="5.3671">
        <ele>31</ele>
        <time>2015-11-08T13:52:16Z</time>
      </trkpt>
      <trkpt lat="43.2354" lon="5.367">
        <ele>27</ele>
        <time>2015-11-08T13:52:26Z</time>
      </trkpt>
      <trkpt lat="43.23542" lon="5.36695">
        <ele>26</ele>
        <time>2015-11-08T13:52:36Z</time>
      </trkpt>
      <trkpt lat="43.2355" lon="5.36682">
        <ele>28</ele>
        <time>2015-11-08T13:52:47Z</time>
      </trkpt>
      <trkpt lat="43.23558" lon="5.36672">
        <ele>29</ele>
        <time>2015-11-08T13:52:56Z</time>
      </trkpt>
      <trkpt lat="43.23566" lon="5.36662">
        <ele>29</ele>
        <time>2015-11-08T13:53:06Z</time>
      </trkpt>
      <trkpt lat="43.23575" lon="5.36652">
        <ele>29</ele>
        <time>2015-11-08T13:53:17Z</time>
      </trkpt>
      <trkpt lat="43.23582" lon="5.36643">
        <ele>29</ele>
        <time>2015-11-08T13:53:27Z</time>
      </trkpt>
      <trkpt lat="43.23592" lon="5.36633">
        <ele>29</ele>
        <time>2015-11-08T13:53:37Z</time>
      </trkpt>
      <trkpt lat="43.23602" lon="5.36626">
        <ele>29</ele>
        <time>2015-11-08T13:53:47Z</time>
      </trkpt>
      <trkpt lat="43.23609" lon="5.36621">
        <ele>28</ele>
        <time>2015-11-08T13:53:56Z</time>
      </trkpt>
      <trkpt lat="43.23619" lon="5.36617">
        <ele>25</ele>
        <time>2015-11-08T13:54:06Z</time>
      </trkpt>
      <trkpt lat="43.2363" lon="5.36613">
        <ele>23</ele>
        <time>2015-11-08T13:54:17Z</time>
      </trkpt>
      <trkpt lat="43.2364" lon="5.3661">
        <ele>23</ele>
        <time>2015-11-08T13:54:26Z</time>
      </trkpt>
      <trkpt lat="43.2365" lon="5.36608">
        <ele>23</ele>
        <time>2015-11-08T13:54:36Z</time>
      </trkpt>
      <trkpt lat="43.23662" lon="5.36607">
        <ele>23</ele>
        <time>2015-11-08T13:54:47Z</time>
      </trkpt>
      <trkpt lat="43.23672" lon="5.36607">
        <ele>23</ele>
        <time>2015-11-08T13:54:57Z</time>
      </trkpt>
      <trkpt lat="43.23682" lon="5.36609">
        <ele>23</ele>
        <time>2015-11-08T13:55:06Z</time>
      </trkpt>
      <trkpt lat="43.23693" lon="5.36611">
        <ele>23</ele>
        <time>2015-11-08T13:55:17Z</time>
      </trkpt>
      <trkpt lat="43.23704" lon="5.36613">
        <ele>23</ele>
        <time>2015-11-08T13:55:27Z</time>
      </trkpt>
      <trkpt lat="43.23715" lon="5.36616">
        <ele>23</ele>
        <time>2015-11-08T13:55:37Z</time>
      </trkpt>
      <trkpt lat="43.23725" lon="5.36617">
        <ele>23</ele>
        <time>2015-11-08T13:55:46Z</time>
      </trkpt>
      <trkpt lat="43.23737" lon="5.3662">
        <ele>23</ele>
        <time>2015-11-08T13:55:56Z</time>
      </trkpt>
      <trkpt lat="43.23745" lon="5.36623">
        <ele>23</ele>
        <time>2015-11-08T13:56:07Z</time>
      </trkpt>
      <trkpt lat="43.23757" lon="5.36627">
        <ele>23</ele>
        <time>2015-11-08T13:56:17Z</time>
      </trkpt>
      <trkpt lat="43.23767" lon="5.36629">
        <ele>23</ele>
        <time>2015-11-08T13:56:26Z</time>
      </trkpt>
      <trkpt lat="43.23779" lon="5.36631">
        <ele>23</ele>
        <time>2015-11-08T13:56:36Z</time>
      </trkpt>
      <trkpt lat="43.23789" lon="5.36637">
        <ele>23</ele>
        <time>2015-11-08T13:56:47Z</time>
      </trkpt>
      <trkpt lat="43.238" lon="5.36643">
        <ele>23</ele>
        <time>2015-11-08T13:56:57Z</time>
      </trkpt>
      <trkpt lat="43.23809" lon="5.36646">
        <ele>23</ele>
        <time>2015-11-08T13:57:06Z</time>
      </trkpt>
      <trkpt lat="43.2382" lon="5.36651">
        <ele>23</ele>
        <time>2015-11-08T13:57:16Z</time>
      </trkpt>
      <trkpt lat="43.2383" lon="5.36652">
        <ele>23</ele>
        <time>2015-11-08T13:57:26Z</time>
      </trkpt>
      <trkpt lat="43.23843" lon="5.3665">
        <ele>23</ele>
        <time>2015-11-08T13:57:37Z</time>
      </trkpt>
      <trkpt lat="43.2385" lon="5.3664">
        <ele>23</ele>
        <time>2015-11-08T13:57:46Z</time>
      </trkpt>
      <trkpt lat="43.23858" lon="5.36629">
        <ele>19</ele>
        <time>2015-11-08T13:57:56Z</time>
      </trkpt>
      <trkpt lat="43.23866" lon="5.3662">
        <ele>18</ele>
        <time>2015-11-08T13:58:06Z</time>
      </trkpt>
      <trkpt lat="43.23869" lon="5.36618">
        <ele>18</ele>
        <time>2015-11-08T13:58:19Z</time>
      </trkpt>
      <trkpt lat="43.2387" lon="5.36617">
        <ele>18</ele>
        <time>2015-11-08T13:58:32Z</time>
      </trkpt>
      <trkpt lat="43.2387" lon="5.36615">
        <ele>18</ele>
        <time>2015-11-08T13:58:50Z</time>
      </trkpt>
      <trkpt lat="43.2387" lon="5.36611">
        <ele>18</ele>
        <time>2015-11-08T13:59:01Z</time>
      </trkpt>
      <trkpt lat="43.23869" lon="5.36614">
        <ele>16</ele>
        <time>2015-11-08T13:59:16Z</time>
      </trkpt>
      <trkpt lat="43.23869" lon="5.36614">
        <ele>13</ele>
        <time>2015-11-08T14:00:11Z</time>
      </trkpt>
      <trkpt lat="43.2387" lon="5.36615">
        <ele>13</ele>
        <time>2015-11-08T14:00:30Z</time>
      </trkpt>
      <trkpt lat="43.23869" lon="5.36615">
        <ele>13</ele>
        <time>2015-11-08T14:00:45Z</time>
      </trkpt>
      <trkpt lat="43.23867" lon="5.36615">
        <ele>13</ele>
        <time>2015-11-08T14:01:03Z</time>
      </trkpt>
      <trkpt lat="43.23867" lon="5.36612">
        <ele>13</ele>
        <time>2015-11-08T14:01:18Z</time>
      </trkpt>
      <trkpt lat="43.23868" lon="5.3661">
        <ele>13</ele>
        <time>2015-11-08T14:02:05Z</time>
      </trkpt>
      <trkpt lat="43.2387" lon="5.36607">
        <ele>13</ele>
        <time>2015-11-08T14:02:15Z</time>
      </trkpt>
      <trkpt lat="43.23876" lon="5.36599">
        <ele>13</ele>
        <time>2015-11-08T14:02:25Z</time>
      </trkpt>
      <trkpt lat="43.23882" lon="5.36589">
        <ele>13</ele>
        <time>2015-11-08T14:02:35Z</time>
      </trkpt>
      <trkpt lat="43.23889" lon="5.36579">
        <ele>13</ele>
        <time>2015-11-08T14:02:45Z</time>
      </trkpt>
      <trkpt lat="43.23897" lon="5.36568">
        <ele>13</ele>
        <time>2015-11-08T14:02:55Z</time>
      </trkpt>
      <trkpt lat="43.23904" lon="5.36564">
        <ele>13</ele>
        <time>2015-11-08T14:03:05Z</time>
      </trkpt>
      <trkpt lat="43.23912" lon="5.36575">
        <ele>13</ele>
        <time>2015-11-08T14:03:14Z</time>
      </trkpt>
      <trkpt lat="43.23919" lon="5.36585">
        <ele>14</ele>
        <time>2015-11-08T14:03:23Z</time>
      </trkpt>
      <trkpt lat="43.23928" lon="5.36594">
        <ele>19</ele>
        <time>2015-11-08T14:03:32Z</time>
      </trkpt>
      <trkpt lat="43.23936" lon="5.36606">
        <ele>21</ele>
        <time>2015-11-08T14:03:42Z</time>
      </trkpt>
      <trkpt lat="43.23944" lon="5.36617">
        <ele>21</ele>
        <time>2015-11-08T14:03:52Z</time>
      </trkpt>
      <trkpt lat="43.23953" lon="5.36625">
        <ele>21</ele>
        <time>2015-11-08T14:04:01Z</time>
      </trkpt>
      <trkpt lat="43.2396" lon="5.36633">
        <ele>23</ele>
        <time>2015-11-08T14:04:10Z</time>
      </trkpt>
      <trkpt lat="43.23968" lon="5.36643">
        <ele>23</ele>
        <time>2015-11-08T14:04:20Z</time>
      </trkpt>
      <trkpt lat="43.23977" lon="5.3665">
        <ele>27</ele>
        <time>2015-11-08T14:04:30Z</time>
      </trkpt>
      <trkpt lat="43.23983" lon="5.36643">
        <ele>27</ele>
        <time>2015-11-08T14:04:40Z</time>
      </trkpt>
      <trkpt lat="43.23991" lon="5.36635">
        <ele>24</ele>
        <time>2015-11-08T14:04:50Z</time>
      </trkpt>
      <trkpt lat="43.23994" lon="5.36626">
        <ele>22</ele>
        <time>2015-11-08T14:04:59Z</time>
      </trkpt>
      <trkpt lat="43.23999" lon="5.36614">
        <ele>18</ele>
        <time>2015-11-08T14:05:08Z</time>
      </trkpt>
      <trkpt lat="43.23999" lon="5.366">
        <ele>15</ele>
        <time>2015-11-08T14:05:17Z</time>
      </trkpt>
      <trkpt lat="43.23998" lon="5.36585">
        <ele>13</ele>
        <time>2015-11-08T14:05:26Z</time>
      </trkpt>
      <trkpt lat="43.23996" lon="5.36571">
        <ele>12</ele>
        <time>2015-11-08T14:05:35Z</time>
      </trkpt>
      <trkpt lat="43.23995" lon="5.36555">
        <ele>11</ele>
        <time>2015-11-08T14:05:44Z</time>
      </trkpt>
      <trkpt lat="43.23993" lon="5.3654">
        <ele>11</ele>
        <time>2015-11-08T14:05:53Z</time>
      </trkpt>
      <trkpt lat="43.23991" lon="5.36525">
        <ele>10</ele>
        <time>2015-11-08T14:06:02Z</time>
      </trkpt>
      <trkpt lat="43.23989" lon="5.36511">
        <ele>10</ele>
        <time>2015-11-08T14:06:11Z</time>
      </trkpt>
      <trkpt lat="43.23992" lon="5.365">
        <ele>10</ele>
        <time>2015-11-08T14:06:20Z</time>
      </trkpt>
      <trkpt lat="43.23998" lon="5.36493">
        <ele>10</ele>
        <time>2015-11-08T14:06:33Z</time>
      </trkpt>
      <trkpt lat="43.23998" lon="5.36496">
        <ele>10</ele>
        <time>2015-11-08T14:06:44Z</time>
      </trkpt>
      <trkpt lat="43.23996" lon="5.36496">
        <ele>10</ele>
        <time>2015-11-08T14:07:03Z</time>
      </trkpt>
      <trkpt lat="43.23996" lon="5.36497">
        <ele>10</ele>
        <time>2015-11-08T14:07:12Z</time>
      </trkpt>
    </trkseg>
  </trk>
</gpx>